<?xml version="1.0" encoding="UTF-8" standalone="no" ?>
<gpx xmlns="http://www.topografix.com/GPX/1/1" xmlns:xsi="http://www.w3.org/2001/XMLSchema-instance" xsi:schemaLocation="http://www.topografix.com/GPX/1/1 http://www.topografix.com/GPX/1/1/gpx.xsd" version="1.1" creator="VisuGPX - https://www.visugpx.com">
  <metadata>
    <name>Soual Les Pigeonniers Mardi10 déc. 2019</name>
  </metadata>
  <trk>
    <name><![CDATA[Soual Les Pigeonniers Mardi10 déc. 2019]]></name>
    <trkseg>
      <trkpt lat="43.55445" lon="2.11465">
        <ele>181.10863866967</ele>
        <time>2019-12-10T12:38:35Z</time>
      </trkpt>
      <trkpt lat="43.55439" lon="2.11474">
        <ele>172.29437647163</ele>
        <time>2019-12-10T12:40:27Z</time>
      </trkpt>
      <trkpt lat="43.55434" lon="2.11483">
        <ele>172.50240506711</ele>
        <time>2019-12-10T12:40:32Z</time>
      </trkpt>
      <trkpt lat="43.55429" lon="2.11492">
        <ele>173.96066469495</ele>
        <time>2019-12-10T12:40:38Z</time>
      </trkpt>
      <trkpt lat="43.55425" lon="2.115">
        <ele>172.1966722158</ele>
        <time>2019-12-10T12:40:50Z</time>
      </trkpt>
      <trkpt lat="43.55422" lon="2.11512">
        <ele>169.20794796426</ele>
        <time>2019-12-10T12:40:58Z</time>
      </trkpt>
      <trkpt lat="43.5542" lon="2.11522">
        <ele>169.67737740932</ele>
        <time>2019-12-10T12:41:04Z</time>
      </trkpt>
      <trkpt lat="43.55424" lon="2.11533">
        <ele>168.3804095925</ele>
        <time>2019-12-10T12:41:10Z</time>
      </trkpt>
      <trkpt lat="43.55423" lon="2.11545">
        <ele>169.98468181454</ele>
        <time>2019-12-10T12:41:16Z</time>
      </trkpt>
      <trkpt lat="43.55416" lon="2.11553">
        <ele>171.92858279137</ele>
        <time>2019-12-10T12:41:24Z</time>
      </trkpt>
      <trkpt lat="43.55411" lon="2.11552">
        <ele>171.53862814231</ele>
        <time>2019-12-10T12:41:31Z</time>
      </trkpt>
      <trkpt lat="43.55395" lon="2.11551">
        <ele>170.20293348073</ele>
        <time>2019-12-10T12:41:35Z</time>
      </trkpt>
      <trkpt lat="43.55385" lon="2.11548">
        <ele>167.80120331835</ele>
        <time>2019-12-10T12:41:39Z</time>
      </trkpt>
      <trkpt lat="43.55377" lon="2.11543">
        <ele>167.06109416473</ele>
        <time>2019-12-10T12:41:47Z</time>
      </trkpt>
      <trkpt lat="43.5537" lon="2.11537">
        <ele>168.3123135918</ele>
        <time>2019-12-10T12:41:57Z</time>
      </trkpt>
      <trkpt lat="43.55362" lon="2.11532">
        <ele>168.19751945558</ele>
        <time>2019-12-10T12:42:05Z</time>
      </trkpt>
      <trkpt lat="43.55354" lon="2.11528">
        <ele>168.54645355147</ele>
        <time>2019-12-10T12:42:12Z</time>
      </trkpt>
      <trkpt lat="43.55348" lon="2.11521">
        <ele>167.52143920736</ele>
        <time>2019-12-10T12:42:19Z</time>
      </trkpt>
      <trkpt lat="43.55344" lon="2.1151">
        <ele>167.18443520425</ele>
        <time>2019-12-10T12:42:26Z</time>
      </trkpt>
      <trkpt lat="43.55343" lon="2.11498">
        <ele>168.2104266791</ele>
        <time>2019-12-10T12:42:34Z</time>
      </trkpt>
      <trkpt lat="43.55345" lon="2.11486">
        <ele>167.75473107016</ele>
        <time>2019-12-10T12:42:41Z</time>
      </trkpt>
      <trkpt lat="43.55346" lon="2.11474">
        <ele>167.28443173493</ele>
        <time>2019-12-10T12:42:49Z</time>
      </trkpt>
      <trkpt lat="43.55347" lon="2.11463">
        <ele>167.29956635332</ele>
        <time>2019-12-10T12:42:56Z</time>
      </trkpt>
      <trkpt lat="43.55349" lon="2.11451">
        <ele>167.7880081488</ele>
        <time>2019-12-10T12:43:08Z</time>
      </trkpt>
      <trkpt lat="43.55351" lon="2.11441">
        <ele>168.85839297508</ele>
        <time>2019-12-10T12:43:16Z</time>
      </trkpt>
      <trkpt lat="43.55352" lon="2.11429">
        <ele>170.75477312794</ele>
        <time>2019-12-10T12:43:23Z</time>
      </trkpt>
      <trkpt lat="43.55356" lon="2.11419">
        <ele>171.67188865525</ele>
        <time>2019-12-10T12:43:31Z</time>
      </trkpt>
      <trkpt lat="43.55358" lon="2.11408">
        <ele>172.52451923215</ele>
        <time>2019-12-10T12:43:39Z</time>
      </trkpt>
      <trkpt lat="43.55361" lon="2.11397">
        <ele>172.51565503665</ele>
        <time>2019-12-10T12:43:50Z</time>
      </trkpt>
      <trkpt lat="43.55364" lon="2.11386">
        <ele>173.69539060652</ele>
        <time>2019-12-10T12:43:59Z</time>
      </trkpt>
      <trkpt lat="43.55367" lon="2.11376">
        <ele>173.38500877725</ele>
        <time>2019-12-10T12:44:06Z</time>
      </trkpt>
      <trkpt lat="43.55371" lon="2.11365">
        <ele>172.29394479179</ele>
        <time>2019-12-10T12:44:13Z</time>
      </trkpt>
      <trkpt lat="43.55374" lon="2.11355">
        <ele>173.93412416497</ele>
        <time>2019-12-10T12:44:19Z</time>
      </trkpt>
      <trkpt lat="43.55376" lon="2.11344">
        <ele>176.25209650126</ele>
        <time>2019-12-10T12:44:28Z</time>
      </trkpt>
      <trkpt lat="43.55379" lon="2.11333">
        <ele>177.06048550459</ele>
        <time>2019-12-10T12:44:37Z</time>
      </trkpt>
      <trkpt lat="43.55384" lon="2.11323">
        <ele>178.06403756503</ele>
        <time>2019-12-10T12:44:43Z</time>
      </trkpt>
      <trkpt lat="43.55389" lon="2.11315">
        <ele>175.41558903196</ele>
        <time>2019-12-10T12:44:50Z</time>
      </trkpt>
      <trkpt lat="43.55393" lon="2.11304">
        <ele>173.97799250607</ele>
        <time>2019-12-10T12:44:58Z</time>
      </trkpt>
      <trkpt lat="43.55398" lon="2.11294">
        <ele>172.13944611442</ele>
        <time>2019-12-10T12:45:07Z</time>
      </trkpt>
      <trkpt lat="43.55402" lon="2.11284">
        <ele>171.79569229786</ele>
        <time>2019-12-10T12:45:15Z</time>
      </trkpt>
      <trkpt lat="43.55407" lon="2.11275">
        <ele>172.41221171696</ele>
        <time>2019-12-10T12:45:24Z</time>
      </trkpt>
      <trkpt lat="43.55411" lon="2.11266">
        <ele>172.96349798456</ele>
        <time>2019-12-10T12:45:31Z</time>
      </trkpt>
      <trkpt lat="43.55413" lon="2.11255">
        <ele>174.58087178273</ele>
        <time>2019-12-10T12:45:36Z</time>
      </trkpt>
      <trkpt lat="43.55418" lon="2.11246">
        <ele>177.44057479379</ele>
        <time>2019-12-10T12:45:46Z</time>
      </trkpt>
      <trkpt lat="43.55423" lon="2.11237">
        <ele>181.13982950708</ele>
        <time>2019-12-10T12:45:52Z</time>
      </trkpt>
      <trkpt lat="43.55427" lon="2.11228">
        <ele>184.1500429492</ele>
        <time>2019-12-10T12:45:58Z</time>
      </trkpt>
      <trkpt lat="43.55431" lon="2.11217">
        <ele>181.99907774988</ele>
        <time>2019-12-10T12:46:09Z</time>
      </trkpt>
      <trkpt lat="43.55436" lon="2.11208">
        <ele>179.53010783518</ele>
        <time>2019-12-10T12:46:20Z</time>
      </trkpt>
      <trkpt lat="43.55442" lon="2.11199">
        <ele>178.15234695593</ele>
        <time>2019-12-10T12:46:29Z</time>
      </trkpt>
      <trkpt lat="43.55435" lon="2.11205">
        <ele>177.71916061489</ele>
        <time>2019-12-10T12:46:49Z</time>
      </trkpt>
      <trkpt lat="43.55427" lon="2.11207">
        <ele>178.77778440976</ele>
        <time>2019-12-10T12:46:55Z</time>
      </trkpt>
      <trkpt lat="43.55419" lon="2.11208">
        <ele>179.30109770946</ele>
        <time>2019-12-10T12:47:02Z</time>
      </trkpt>
      <trkpt lat="43.5541" lon="2.11205">
        <ele>179.49097300315</ele>
        <time>2019-12-10T12:47:09Z</time>
      </trkpt>
      <trkpt lat="43.55402" lon="2.112">
        <ele>178.96120692807</ele>
        <time>2019-12-10T12:47:16Z</time>
      </trkpt>
      <trkpt lat="43.55395" lon="2.11194">
        <ele>179.77466273291</ele>
        <time>2019-12-10T12:47:23Z</time>
      </trkpt>
      <trkpt lat="43.55387" lon="2.11189">
        <ele>180.27542254171</ele>
        <time>2019-12-10T12:47:32Z</time>
      </trkpt>
      <trkpt lat="43.55379" lon="2.11183">
        <ele>180.33272106179</ele>
        <time>2019-12-10T12:47:41Z</time>
      </trkpt>
      <trkpt lat="43.55372" lon="2.11178">
        <ele>179.98469573307</ele>
        <time>2019-12-10T12:47:49Z</time>
      </trkpt>
      <trkpt lat="43.55366" lon="2.1117">
        <ele>178.68480226148</ele>
        <time>2019-12-10T12:47:57Z</time>
      </trkpt>
      <trkpt lat="43.55358" lon="2.11164">
        <ele>177.99538529301</ele>
        <time>2019-12-10T12:48:05Z</time>
      </trkpt>
      <trkpt lat="43.55351" lon="2.1116">
        <ele>179.16391545215</ele>
        <time>2019-12-10T12:48:12Z</time>
      </trkpt>
      <trkpt lat="43.55344" lon="2.11156">
        <ele>180.63610188047</ele>
        <time>2019-12-10T12:48:23Z</time>
      </trkpt>
      <trkpt lat="43.55337" lon="2.11151">
        <ele>180.4340001633</ele>
        <time>2019-12-10T12:48:29Z</time>
      </trkpt>
      <trkpt lat="43.5533" lon="2.11147">
        <ele>181.58186162548</ele>
        <time>2019-12-10T12:48:35Z</time>
      </trkpt>
      <trkpt lat="43.55322" lon="2.1114">
        <ele>183.23823635822</ele>
        <time>2019-12-10T12:48:43Z</time>
      </trkpt>
      <trkpt lat="43.55315" lon="2.11134">
        <ele>184.78642812435</ele>
        <time>2019-12-10T12:48:52Z</time>
      </trkpt>
      <trkpt lat="43.55307" lon="2.11128">
        <ele>184.75822650278</ele>
        <time>2019-12-10T12:49:00Z</time>
      </trkpt>
      <trkpt lat="43.553" lon="2.11122">
        <ele>184.77957490018</ele>
        <time>2019-12-10T12:49:07Z</time>
      </trkpt>
      <trkpt lat="43.55293" lon="2.11115">
        <ele>185.08643229171</ele>
        <time>2019-12-10T12:49:16Z</time>
      </trkpt>
      <trkpt lat="43.55285" lon="2.1111">
        <ele>185.03430871557</ele>
        <time>2019-12-10T12:49:24Z</time>
      </trkpt>
      <trkpt lat="43.55277" lon="2.11104">
        <ele>185.01906355393</ele>
        <time>2019-12-10T12:49:31Z</time>
      </trkpt>
      <trkpt lat="43.55268" lon="2.11103">
        <ele>186.22484855816</ele>
        <time>2019-12-10T12:49:41Z</time>
      </trkpt>
      <trkpt lat="43.55261" lon="2.11099">
        <ele>186.33192639949</ele>
        <time>2019-12-10T12:49:49Z</time>
      </trkpt>
      <trkpt lat="43.55253" lon="2.11094">
        <ele>186.23965107975</ele>
        <time>2019-12-10T12:49:59Z</time>
      </trkpt>
      <trkpt lat="43.55245" lon="2.11087">
        <ele>187.06484852725</ele>
        <time>2019-12-10T12:50:08Z</time>
      </trkpt>
      <trkpt lat="43.5524" lon="2.11077">
        <ele>187.56369635167</ele>
        <time>2019-12-10T12:50:17Z</time>
      </trkpt>
      <trkpt lat="43.55239" lon="2.11066">
        <ele>188.47151652492</ele>
        <time>2019-12-10T12:50:24Z</time>
      </trkpt>
      <trkpt lat="43.55238" lon="2.11055">
        <ele>189.94291962138</ele>
        <time>2019-12-10T12:50:32Z</time>
      </trkpt>
      <trkpt lat="43.55238" lon="2.11043">
        <ele>190.3566928857</ele>
        <time>2019-12-10T12:50:40Z</time>
      </trkpt>
      <trkpt lat="43.55237" lon="2.11033">
        <ele>190.37480379972</ele>
        <time>2019-12-10T12:50:47Z</time>
      </trkpt>
      <trkpt lat="43.55238" lon="2.11021">
        <ele>191.56270092337</ele>
        <time>2019-12-10T12:50:55Z</time>
      </trkpt>
      <trkpt lat="43.55238" lon="2.1101">
        <ele>193.10888452712</ele>
        <time>2019-12-10T12:51:03Z</time>
      </trkpt>
      <trkpt lat="43.55237" lon="2.10998">
        <ele>195.09593866407</ele>
        <time>2019-12-10T12:51:10Z</time>
      </trkpt>
      <trkpt lat="43.55237" lon="2.10988">
        <ele>195.36144130248</ele>
        <time>2019-12-10T12:51:17Z</time>
      </trkpt>
      <trkpt lat="43.55237" lon="2.10975">
        <ele>196.94352185635</ele>
        <time>2019-12-10T12:51:25Z</time>
      </trkpt>
      <trkpt lat="43.55238" lon="2.10964">
        <ele>198.32194753404</ele>
        <time>2019-12-10T12:51:33Z</time>
      </trkpt>
      <trkpt lat="43.55239" lon="2.10953">
        <ele>199.38272306581</ele>
        <time>2019-12-10T12:51:41Z</time>
      </trkpt>
      <trkpt lat="43.5524" lon="2.10941">
        <ele>200.69925383801</ele>
        <time>2019-12-10T12:51:48Z</time>
      </trkpt>
      <trkpt lat="43.5524" lon="2.10929">
        <ele>203.14092361021</ele>
        <time>2019-12-10T12:51:57Z</time>
      </trkpt>
      <trkpt lat="43.55241" lon="2.10917">
        <ele>203.32015229584</ele>
        <time>2019-12-10T12:52:06Z</time>
      </trkpt>
      <trkpt lat="43.5524" lon="2.10906">
        <ele>202.43660135083</ele>
        <time>2019-12-10T12:52:14Z</time>
      </trkpt>
      <trkpt lat="43.5524" lon="2.10894">
        <ele>203.6372055913</ele>
        <time>2019-12-10T12:52:22Z</time>
      </trkpt>
      <trkpt lat="43.5524" lon="2.10883">
        <ele>204.64956522731</ele>
        <time>2019-12-10T12:52:30Z</time>
      </trkpt>
      <trkpt lat="43.55239" lon="2.10872">
        <ele>208.06606258594</ele>
        <time>2019-12-10T12:52:39Z</time>
      </trkpt>
      <trkpt lat="43.55237" lon="2.10861">
        <ele>209.39986819254</ele>
        <time>2019-12-10T12:52:47Z</time>
      </trkpt>
      <trkpt lat="43.55234" lon="2.1085">
        <ele>210.48128687933</ele>
        <time>2019-12-10T12:52:55Z</time>
      </trkpt>
      <trkpt lat="43.55233" lon="2.10838">
        <ele>211.81591222836</ele>
        <time>2019-12-10T12:53:03Z</time>
      </trkpt>
      <trkpt lat="43.55232" lon="2.10827">
        <ele>213.02905323321</ele>
        <time>2019-12-10T12:53:12Z</time>
      </trkpt>
      <trkpt lat="43.55228" lon="2.10816">
        <ele>213.8174909863</ele>
        <time>2019-12-10T12:53:22Z</time>
      </trkpt>
      <trkpt lat="43.55221" lon="2.10809">
        <ele>214.22832839223</ele>
        <time>2019-12-10T12:53:33Z</time>
      </trkpt>
      <trkpt lat="43.55217" lon="2.10798">
        <ele>214.00455740751</ele>
        <time>2019-12-10T12:53:44Z</time>
      </trkpt>
      <trkpt lat="43.55213" lon="2.10787">
        <ele>213.72483662205</ele>
        <time>2019-12-10T12:53:52Z</time>
      </trkpt>
      <trkpt lat="43.55209" lon="2.10777">
        <ele>213.64166359717</ele>
        <time>2019-12-10T12:54:00Z</time>
      </trkpt>
      <trkpt lat="43.55203" lon="2.10769">
        <ele>213.56595373319</ele>
        <time>2019-12-10T12:54:07Z</time>
      </trkpt>
      <trkpt lat="43.552" lon="2.10758">
        <ele>212.65894534456</ele>
        <time>2019-12-10T12:54:14Z</time>
      </trkpt>
      <trkpt lat="43.55196" lon="2.10748">
        <ele>210.99711913296</ele>
        <time>2019-12-10T12:54:22Z</time>
      </trkpt>
      <trkpt lat="43.55191" lon="2.10739">
        <ele>209.40474780855</ele>
        <time>2019-12-10T12:54:30Z</time>
      </trkpt>
      <trkpt lat="43.55187" lon="2.10729">
        <ele>209.5268048857</ele>
        <time>2019-12-10T12:54:38Z</time>
      </trkpt>
      <trkpt lat="43.55184" lon="2.10718">
        <ele>210.99821030728</ele>
        <time>2019-12-10T12:54:46Z</time>
      </trkpt>
      <trkpt lat="43.55182" lon="2.10707">
        <ele>211.62116114366</ele>
        <time>2019-12-10T12:54:53Z</time>
      </trkpt>
      <trkpt lat="43.5518" lon="2.10695">
        <ele>211.94419009004</ele>
        <time>2019-12-10T12:55:01Z</time>
      </trkpt>
      <trkpt lat="43.55179" lon="2.10683">
        <ele>211.89909868472</ele>
        <time>2019-12-10T12:55:09Z</time>
      </trkpt>
      <trkpt lat="43.55177" lon="2.1067">
        <ele>210.79452743881</ele>
        <time>2019-12-10T12:55:18Z</time>
      </trkpt>
      <trkpt lat="43.55179" lon="2.10659">
        <ele>208.93027536213</ele>
        <time>2019-12-10T12:55:27Z</time>
      </trkpt>
      <trkpt lat="43.55176" lon="2.10648">
        <ele>209.67657801767</ele>
        <time>2019-12-10T12:55:34Z</time>
      </trkpt>
      <trkpt lat="43.55175" lon="2.10637">
        <ele>210.96922641863</ele>
        <time>2019-12-10T12:55:44Z</time>
      </trkpt>
      <trkpt lat="43.55173" lon="2.10625">
        <ele>211.48509789265</ele>
        <time>2019-12-10T12:55:51Z</time>
      </trkpt>
      <trkpt lat="43.5517" lon="2.10614">
        <ele>212.713743566</ele>
        <time>2019-12-10T12:55:59Z</time>
      </trkpt>
      <trkpt lat="43.55179" lon="2.10611">
        <ele>215.02102459599</ele>
        <time>2019-12-10T12:56:09Z</time>
      </trkpt>
      <trkpt lat="43.55187" lon="2.10613">
        <ele>215.57618917624</ele>
        <time>2019-12-10T12:56:17Z</time>
      </trkpt>
      <trkpt lat="43.55195" lon="2.10611">
        <ele>215.52521227538</ele>
        <time>2019-12-10T12:56:23Z</time>
      </trkpt>
      <trkpt lat="43.55202" lon="2.1061">
        <ele>215.69859988413</ele>
        <time>2019-12-10T12:56:29Z</time>
      </trkpt>
      <trkpt lat="43.55209" lon="2.10603">
        <ele>216.43051143552</ele>
        <time>2019-12-10T12:56:36Z</time>
      </trkpt>
      <trkpt lat="43.55212" lon="2.10591">
        <ele>217.16721428203</ele>
        <time>2019-12-10T12:56:43Z</time>
      </trkpt>
      <trkpt lat="43.55213" lon="2.1058">
        <ele>216.83708005058</ele>
        <time>2019-12-10T12:56:50Z</time>
      </trkpt>
      <trkpt lat="43.55214" lon="2.10568">
        <ele>216.25462054759</ele>
        <time>2019-12-10T12:56:59Z</time>
      </trkpt>
      <trkpt lat="43.55215" lon="2.10556">
        <ele>215.60107432425</ele>
        <time>2019-12-10T12:57:08Z</time>
      </trkpt>
      <trkpt lat="43.55218" lon="2.10545">
        <ele>214.56739247845</ele>
        <time>2019-12-10T12:57:15Z</time>
      </trkpt>
      <trkpt lat="43.55219" lon="2.10534">
        <ele>212.19814457901</ele>
        <time>2019-12-10T12:57:26Z</time>
      </trkpt>
      <trkpt lat="43.5522" lon="2.10522">
        <ele>212.01790396753</ele>
        <time>2019-12-10T12:57:34Z</time>
      </trkpt>
      <trkpt lat="43.55223" lon="2.10512">
        <ele>211.16694415557</ele>
        <time>2019-12-10T12:57:41Z</time>
      </trkpt>
      <trkpt lat="43.55225" lon="2.105">
        <ele>211.59647945954</ele>
        <time>2019-12-10T12:57:48Z</time>
      </trkpt>
      <trkpt lat="43.55227" lon="2.10489">
        <ele>211.16402126952</ele>
        <time>2019-12-10T12:57:57Z</time>
      </trkpt>
      <trkpt lat="43.55228" lon="2.10478">
        <ele>211.89901023262</ele>
        <time>2019-12-10T12:58:03Z</time>
      </trkpt>
      <trkpt lat="43.5523" lon="2.10466">
        <ele>211.65773601735</ele>
        <time>2019-12-10T12:58:10Z</time>
      </trkpt>
      <trkpt lat="43.55231" lon="2.10455">
        <ele>211.08853222213</ele>
        <time>2019-12-10T12:58:19Z</time>
      </trkpt>
      <trkpt lat="43.55232" lon="2.10443">
        <ele>211.54557583357</ele>
        <time>2019-12-10T12:58:26Z</time>
      </trkpt>
      <trkpt lat="43.55233" lon="2.10432">
        <ele>212.49097321897</ele>
        <time>2019-12-10T12:58:32Z</time>
      </trkpt>
      <trkpt lat="43.55235" lon="2.1042">
        <ele>212.98677414656</ele>
        <time>2019-12-10T12:58:39Z</time>
      </trkpt>
      <trkpt lat="43.55237" lon="2.10409">
        <ele>213.26233657824</ele>
        <time>2019-12-10T12:58:47Z</time>
      </trkpt>
      <trkpt lat="43.55241" lon="2.10398">
        <ele>212.47194523025</ele>
        <time>2019-12-10T12:58:56Z</time>
      </trkpt>
      <trkpt lat="43.55243" lon="2.10386">
        <ele>212.91103477896</ele>
        <time>2019-12-10T12:59:05Z</time>
      </trkpt>
      <trkpt lat="43.55244" lon="2.10375">
        <ele>213.52859627531</ele>
        <time>2019-12-10T12:59:12Z</time>
      </trkpt>
      <trkpt lat="43.55247" lon="2.10364">
        <ele>212.90203224267</ele>
        <time>2019-12-10T12:59:20Z</time>
      </trkpt>
      <trkpt lat="43.55249" lon="2.10352">
        <ele>213.21744765714</ele>
        <time>2019-12-10T12:59:28Z</time>
      </trkpt>
      <trkpt lat="43.55253" lon="2.10342">
        <ele>211.98369212349</ele>
        <time>2019-12-10T12:59:35Z</time>
      </trkpt>
      <trkpt lat="43.55257" lon="2.10332">
        <ele>211.89810355127</ele>
        <time>2019-12-10T12:59:43Z</time>
      </trkpt>
      <trkpt lat="43.5526" lon="2.10321">
        <ele>210.8196900524</ele>
        <time>2019-12-10T12:59:51Z</time>
      </trkpt>
      <trkpt lat="43.55264" lon="2.1031">
        <ele>210.62322036584</ele>
        <time>2019-12-10T12:59:58Z</time>
      </trkpt>
      <trkpt lat="43.55266" lon="2.103">
        <ele>209.75933367196</ele>
        <time>2019-12-10T13:00:06Z</time>
      </trkpt>
      <trkpt lat="43.55269" lon="2.10288">
        <ele>207.04658766234</ele>
        <time>2019-12-10T13:00:14Z</time>
      </trkpt>
      <trkpt lat="43.55271" lon="2.10277">
        <ele>205.37128967149</ele>
        <time>2019-12-10T13:00:21Z</time>
      </trkpt>
      <trkpt lat="43.55274" lon="2.10265">
        <ele>203.32932994399</ele>
        <time>2019-12-10T13:00:29Z</time>
      </trkpt>
      <trkpt lat="43.55275" lon="2.10254">
        <ele>202.07105840206</ele>
        <time>2019-12-10T13:00:37Z</time>
      </trkpt>
      <trkpt lat="43.55278" lon="2.10243">
        <ele>201.73266583072</ele>
        <time>2019-12-10T13:00:46Z</time>
      </trkpt>
      <trkpt lat="43.55285" lon="2.10236">
        <ele>202.9058460244</ele>
        <time>2019-12-10T13:00:55Z</time>
      </trkpt>
      <trkpt lat="43.55294" lon="2.1024">
        <ele>196.67652100757</ele>
        <time>2019-12-10T13:01:00Z</time>
      </trkpt>
      <trkpt lat="43.55302" lon="2.10242">
        <ele>195.2760134578</ele>
        <time>2019-12-10T13:01:06Z</time>
      </trkpt>
      <trkpt lat="43.55309" lon="2.10249">
        <ele>195.92083631172</ele>
        <time>2019-12-10T13:01:13Z</time>
      </trkpt>
      <trkpt lat="43.55316" lon="2.10256">
        <ele>195.68003966074</ele>
        <time>2019-12-10T13:01:22Z</time>
      </trkpt>
      <trkpt lat="43.55321" lon="2.10265">
        <ele>195.19362351223</ele>
        <time>2019-12-10T13:01:29Z</time>
      </trkpt>
      <trkpt lat="43.55327" lon="2.10273">
        <ele>194.8536334455</ele>
        <time>2019-12-10T13:01:36Z</time>
      </trkpt>
      <trkpt lat="43.55331" lon="2.10281">
        <ele>195.55947998801</ele>
        <time>2019-12-10T13:01:43Z</time>
      </trkpt>
      <trkpt lat="43.55338" lon="2.1029">
        <ele>197.08724004594</ele>
        <time>2019-12-10T13:01:51Z</time>
      </trkpt>
      <trkpt lat="43.55343" lon="2.10298">
        <ele>197.39270299772</ele>
        <time>2019-12-10T13:01:59Z</time>
      </trkpt>
      <trkpt lat="43.5535" lon="2.10304">
        <ele>197.42557940833</ele>
        <time>2019-12-10T13:02:05Z</time>
      </trkpt>
      <trkpt lat="43.55355" lon="2.10313">
        <ele>196.72968692979</ele>
        <time>2019-12-10T13:02:12Z</time>
      </trkpt>
      <trkpt lat="43.55361" lon="2.10322">
        <ele>197.07041664871</ele>
        <time>2019-12-10T13:02:18Z</time>
      </trkpt>
      <trkpt lat="43.55367" lon="2.10331">
        <ele>198.06724139337</ele>
        <time>2019-12-10T13:02:28Z</time>
      </trkpt>
      <trkpt lat="43.55374" lon="2.10339">
        <ele>197.85142814798</ele>
        <time>2019-12-10T13:02:36Z</time>
      </trkpt>
      <trkpt lat="43.5538" lon="2.10346">
        <ele>198.24116578262</ele>
        <time>2019-12-10T13:02:46Z</time>
      </trkpt>
      <trkpt lat="43.55387" lon="2.10351">
        <ele>198.46284337693</ele>
        <time>2019-12-10T13:02:53Z</time>
      </trkpt>
      <trkpt lat="43.55395" lon="2.10358">
        <ele>198.30597936573</ele>
        <time>2019-12-10T13:03:02Z</time>
      </trkpt>
      <trkpt lat="43.55402" lon="2.10363">
        <ele>198.17385896612</ele>
        <time>2019-12-10T13:03:09Z</time>
      </trkpt>
      <trkpt lat="43.5541" lon="2.10366">
        <ele>198.57582057663</ele>
        <time>2019-12-10T13:03:15Z</time>
      </trkpt>
      <trkpt lat="43.55417" lon="2.10373">
        <ele>198.2302607754</ele>
        <time>2019-12-10T13:03:24Z</time>
      </trkpt>
      <trkpt lat="43.55426" lon="2.10376">
        <ele>199.88721578407</ele>
        <time>2019-12-10T13:03:33Z</time>
      </trkpt>
      <trkpt lat="43.55433" lon="2.10381">
        <ele>199.33690826418</ele>
        <time>2019-12-10T13:03:39Z</time>
      </trkpt>
      <trkpt lat="43.55441" lon="2.10382">
        <ele>199.03299446061</ele>
        <time>2019-12-10T13:03:46Z</time>
      </trkpt>
      <trkpt lat="43.55449" lon="2.10384">
        <ele>198.8820615454</ele>
        <time>2019-12-10T13:03:52Z</time>
      </trkpt>
      <trkpt lat="43.55457" lon="2.10388">
        <ele>199.00151471918</ele>
        <time>2019-12-10T13:03:59Z</time>
      </trkpt>
      <trkpt lat="43.55458" lon="2.104">
        <ele>198.01642839181</ele>
        <time>2019-12-10T13:04:08Z</time>
      </trkpt>
      <trkpt lat="43.55456" lon="2.10411">
        <ele>197.84048893575</ele>
        <time>2019-12-10T13:04:14Z</time>
      </trkpt>
      <trkpt lat="43.55453" lon="2.10423">
        <ele>199.26416552938</ele>
        <time>2019-12-10T13:04:21Z</time>
      </trkpt>
      <trkpt lat="43.5545" lon="2.10433">
        <ele>199.7930658029</ele>
        <time>2019-12-10T13:04:27Z</time>
      </trkpt>
      <trkpt lat="43.55448" lon="2.10445">
        <ele>200.94394433076</ele>
        <time>2019-12-10T13:04:34Z</time>
      </trkpt>
      <trkpt lat="43.55444" lon="2.10454">
        <ele>200.85847330403</ele>
        <time>2019-12-10T13:04:42Z</time>
      </trkpt>
      <trkpt lat="43.5544" lon="2.10466">
        <ele>200.86618925868</ele>
        <time>2019-12-10T13:04:50Z</time>
      </trkpt>
      <trkpt lat="43.55438" lon="2.10476">
        <ele>202.12527597089</ele>
        <time>2019-12-10T13:04:57Z</time>
      </trkpt>
      <trkpt lat="43.55435" lon="2.10486">
        <ele>203.05033291506</ele>
        <time>2019-12-10T13:05:03Z</time>
      </trkpt>
      <trkpt lat="43.5543" lon="2.10495">
        <ele>203.08678697993</ele>
        <time>2019-12-10T13:05:10Z</time>
      </trkpt>
      <trkpt lat="43.55428" lon="2.10507">
        <ele>203.80347454899</ele>
        <time>2019-12-10T13:05:17Z</time>
      </trkpt>
      <trkpt lat="43.55423" lon="2.10516">
        <ele>203.68020788899</ele>
        <time>2019-12-10T13:05:24Z</time>
      </trkpt>
      <trkpt lat="43.55419" lon="2.10526">
        <ele>204.87238236015</ele>
        <time>2019-12-10T13:05:31Z</time>
      </trkpt>
      <trkpt lat="43.55417" lon="2.10536">
        <ele>206.19716157908</ele>
        <time>2019-12-10T13:05:36Z</time>
      </trkpt>
      <trkpt lat="43.55413" lon="2.10547">
        <ele>207.5496613243</ele>
        <time>2019-12-10T13:05:43Z</time>
      </trkpt>
      <trkpt lat="43.55415" lon="2.10559">
        <ele>205.07597205214</ele>
        <time>2019-12-10T13:05:56Z</time>
      </trkpt>
      <trkpt lat="43.55424" lon="2.1056">
        <ele>202.98485929954</ele>
        <time>2019-12-10T13:06:03Z</time>
      </trkpt>
      <trkpt lat="43.55432" lon="2.10561">
        <ele>203.57464546263</ele>
        <time>2019-12-10T13:06:10Z</time>
      </trkpt>
      <trkpt lat="43.5544" lon="2.10565">
        <ele>204.43885373507</ele>
        <time>2019-12-10T13:06:16Z</time>
      </trkpt>
      <trkpt lat="43.55448" lon="2.10568">
        <ele>203.65469111281</ele>
        <time>2019-12-10T13:06:22Z</time>
      </trkpt>
      <trkpt lat="43.55456" lon="2.10569">
        <ele>203.7711686596</ele>
        <time>2019-12-10T13:06:47Z</time>
      </trkpt>
      <trkpt lat="43.55462" lon="2.10564">
        <ele>203.83769943235</ele>
        <time>2019-12-10T13:06:54Z</time>
      </trkpt>
      <trkpt lat="43.55467" lon="2.10554">
        <ele>203.51018129983</ele>
        <time>2019-12-10T13:07:01Z</time>
      </trkpt>
      <trkpt lat="43.55473" lon="2.10545">
        <ele>203.21675903203</ele>
        <time>2019-12-10T13:07:09Z</time>
      </trkpt>
      <trkpt lat="43.55481" lon="2.10546">
        <ele>203.06878747087</ele>
        <time>2019-12-10T13:07:19Z</time>
      </trkpt>
      <trkpt lat="43.55488" lon="2.10553">
        <ele>202.06430330186</ele>
        <time>2019-12-10T13:07:25Z</time>
      </trkpt>
      <trkpt lat="43.55494" lon="2.10557">
        <ele>202.49927266028</ele>
        <time>2019-12-10T13:07:31Z</time>
      </trkpt>
      <trkpt lat="43.55502" lon="2.10562">
        <ele>203.43974620323</ele>
        <time>2019-12-10T13:07:38Z</time>
      </trkpt>
      <trkpt lat="43.55509" lon="2.10568">
        <ele>204.61199126191</ele>
        <time>2019-12-10T13:07:46Z</time>
      </trkpt>
      <trkpt lat="43.55517" lon="2.10573">
        <ele>204.85553282714</ele>
        <time>2019-12-10T13:07:53Z</time>
      </trkpt>
      <trkpt lat="43.55525" lon="2.10579">
        <ele>204.3046004961</ele>
        <time>2019-12-10T13:08:01Z</time>
      </trkpt>
      <trkpt lat="43.55533" lon="2.10583">
        <ele>203.97706442236</ele>
        <time>2019-12-10T13:08:08Z</time>
      </trkpt>
      <trkpt lat="43.5554" lon="2.1059">
        <ele>204.51009074868</ele>
        <time>2019-12-10T13:08:17Z</time>
      </trkpt>
      <trkpt lat="43.55547" lon="2.10596">
        <ele>203.59185932817</ele>
        <time>2019-12-10T13:08:24Z</time>
      </trkpt>
      <trkpt lat="43.55555" lon="2.10601">
        <ele>204.10757443645</ele>
        <time>2019-12-10T13:08:32Z</time>
      </trkpt>
      <trkpt lat="43.55561" lon="2.10606">
        <ele>204.59423379751</ele>
        <time>2019-12-10T13:08:40Z</time>
      </trkpt>
      <trkpt lat="43.55569" lon="2.10613">
        <ele>205.42166142287</ele>
        <time>2019-12-10T13:08:48Z</time>
      </trkpt>
      <trkpt lat="43.55577" lon="2.10618">
        <ele>205.94116965497</ele>
        <time>2019-12-10T13:08:55Z</time>
      </trkpt>
      <trkpt lat="43.55584" lon="2.10624">
        <ele>206.09843093954</ele>
        <time>2019-12-10T13:09:03Z</time>
      </trkpt>
      <trkpt lat="43.55591" lon="2.1063">
        <ele>207.12831878215</ele>
        <time>2019-12-10T13:09:11Z</time>
      </trkpt>
      <trkpt lat="43.55596" lon="2.10641">
        <ele>205.09631817907</ele>
        <time>2019-12-10T13:11:21Z</time>
      </trkpt>
      <trkpt lat="43.55603" lon="2.10647">
        <ele>206.21982696056</ele>
        <time>2019-12-10T13:11:31Z</time>
      </trkpt>
      <trkpt lat="43.55608" lon="2.10656">
        <ele>209.12871518072</ele>
        <time>2019-12-10T13:11:44Z</time>
      </trkpt>
      <trkpt lat="43.55614" lon="2.10665">
        <ele>209.84875732462</ele>
        <time>2019-12-10T13:11:58Z</time>
      </trkpt>
      <trkpt lat="43.5562" lon="2.10673">
        <ele>210.00966331562</ele>
        <time>2019-12-10T13:12:08Z</time>
      </trkpt>
      <trkpt lat="43.55628" lon="2.10677">
        <ele>211.9445942369</ele>
        <time>2019-12-10T13:12:20Z</time>
      </trkpt>
      <trkpt lat="43.55634" lon="2.10683">
        <ele>210.99651975156</ele>
        <time>2019-12-10T13:12:34Z</time>
      </trkpt>
      <trkpt lat="43.55642" lon="2.10679">
        <ele>206.84299101425</ele>
        <time>2019-12-10T13:12:50Z</time>
      </trkpt>
      <trkpt lat="43.55649" lon="2.10687">
        <ele>206.20172217861</ele>
        <time>2019-12-10T13:13:03Z</time>
      </trkpt>
      <trkpt lat="43.55651" lon="2.10698">
        <ele>205.82271437572</ele>
        <time>2019-12-10T13:13:11Z</time>
      </trkpt>
      <trkpt lat="43.55659" lon="2.10705">
        <ele>204.98081695321</ele>
        <time>2019-12-10T13:13:23Z</time>
      </trkpt>
      <trkpt lat="43.55667" lon="2.10711">
        <ele>204.55249837136</ele>
        <time>2019-12-10T13:13:32Z</time>
      </trkpt>
      <trkpt lat="43.55674" lon="2.10717">
        <ele>201.1000905763</ele>
        <time>2019-12-10T13:13:43Z</time>
      </trkpt>
      <trkpt lat="43.55682" lon="2.10721">
        <ele>197.89748250452</ele>
        <time>2019-12-10T13:13:51Z</time>
      </trkpt>
      <trkpt lat="43.5569" lon="2.10726">
        <ele>193.73625367983</ele>
        <time>2019-12-10T13:14:01Z</time>
      </trkpt>
      <trkpt lat="43.55695" lon="2.10735">
        <ele>191.68737431551</ele>
        <time>2019-12-10T13:14:11Z</time>
      </trkpt>
      <trkpt lat="43.55702" lon="2.10742">
        <ele>189.81737256745</ele>
        <time>2019-12-10T13:14:21Z</time>
      </trkpt>
      <trkpt lat="43.5571" lon="2.10746">
        <ele>188.55688912954</ele>
        <time>2019-12-10T13:14:28Z</time>
      </trkpt>
      <trkpt lat="43.55716" lon="2.10754">
        <ele>187.35332342201</ele>
        <time>2019-12-10T13:14:37Z</time>
      </trkpt>
      <trkpt lat="43.55723" lon="2.10761">
        <ele>187.06801386563</ele>
        <time>2019-12-10T13:14:46Z</time>
      </trkpt>
      <trkpt lat="43.55731" lon="2.10762">
        <ele>185.64664605849</ele>
        <time>2019-12-10T13:14:54Z</time>
      </trkpt>
      <trkpt lat="43.55739" lon="2.10767">
        <ele>185.6456489346</ele>
        <time>2019-12-10T13:15:00Z</time>
      </trkpt>
      <trkpt lat="43.55746" lon="2.10773">
        <ele>183.76722541159</ele>
        <time>2019-12-10T13:15:08Z</time>
      </trkpt>
      <trkpt lat="43.55755" lon="2.1077">
        <ele>182.75149679939</ele>
        <time>2019-12-10T13:15:23Z</time>
      </trkpt>
      <trkpt lat="43.5576" lon="2.1076">
        <ele>182.4540278803</ele>
        <time>2019-12-10T13:15:31Z</time>
      </trkpt>
      <trkpt lat="43.55764" lon="2.1075">
        <ele>181.69453597051</ele>
        <time>2019-12-10T13:15:39Z</time>
      </trkpt>
      <trkpt lat="43.55767" lon="2.10738">
        <ele>181.31298854716</ele>
        <time>2019-12-10T13:15:47Z</time>
      </trkpt>
      <trkpt lat="43.55772" lon="2.10729">
        <ele>180.76623962832</ele>
        <time>2019-12-10T13:15:53Z</time>
      </trkpt>
      <trkpt lat="43.55774" lon="2.10717">
        <ele>181.30696004112</ele>
        <time>2019-12-10T13:16:03Z</time>
      </trkpt>
      <trkpt lat="43.55778" lon="2.10706">
        <ele>181.67859864546</ele>
        <time>2019-12-10T13:16:09Z</time>
      </trkpt>
      <trkpt lat="43.55784" lon="2.10698">
        <ele>182.79967878996</ele>
        <time>2019-12-10T13:16:16Z</time>
      </trkpt>
      <trkpt lat="43.55788" lon="2.10688">
        <ele>183.17537040912</ele>
        <time>2019-12-10T13:16:24Z</time>
      </trkpt>
      <trkpt lat="43.55793" lon="2.10679">
        <ele>182.26100119232</ele>
        <time>2019-12-10T13:16:30Z</time>
      </trkpt>
      <trkpt lat="43.55798" lon="2.10671">
        <ele>182.07239516123</ele>
        <time>2019-12-10T13:16:38Z</time>
      </trkpt>
      <trkpt lat="43.55803" lon="2.10661">
        <ele>184.07555283542</ele>
        <time>2019-12-10T13:16:47Z</time>
      </trkpt>
      <trkpt lat="43.55807" lon="2.1065">
        <ele>183.88804251631</ele>
        <time>2019-12-10T13:16:55Z</time>
      </trkpt>
      <trkpt lat="43.55811" lon="2.1064">
        <ele>183.11184846418</ele>
        <time>2019-12-10T13:17:06Z</time>
      </trkpt>
      <trkpt lat="43.55814" lon="2.1063">
        <ele>185.28190312543</ele>
        <time>2019-12-10T13:17:13Z</time>
      </trkpt>
      <trkpt lat="43.55819" lon="2.1062">
        <ele>186.94001551539</ele>
        <time>2019-12-10T13:17:19Z</time>
      </trkpt>
      <trkpt lat="43.55823" lon="2.1061">
        <ele>187.80949368385</ele>
        <time>2019-12-10T13:17:29Z</time>
      </trkpt>
      <trkpt lat="43.55828" lon="2.106">
        <ele>188.66038177834</ele>
        <time>2019-12-10T13:17:37Z</time>
      </trkpt>
      <trkpt lat="43.55833" lon="2.10591">
        <ele>188.39580270308</ele>
        <time>2019-12-10T13:17:45Z</time>
      </trkpt>
      <trkpt lat="43.55838" lon="2.10583">
        <ele>188.07794997776</ele>
        <time>2019-12-10T13:17:52Z</time>
      </trkpt>
      <trkpt lat="43.55844" lon="2.10574">
        <ele>188.85974686104</ele>
        <time>2019-12-10T13:17:59Z</time>
      </trkpt>
      <trkpt lat="43.55847" lon="2.10563">
        <ele>189.7777872836</ele>
        <time>2019-12-10T13:18:07Z</time>
      </trkpt>
      <trkpt lat="43.5585" lon="2.10552">
        <ele>192.04076054042</ele>
        <time>2019-12-10T13:18:15Z</time>
      </trkpt>
      <trkpt lat="43.55854" lon="2.10543">
        <ele>193.00857041631</ele>
        <time>2019-12-10T13:18:23Z</time>
      </trkpt>
      <trkpt lat="43.5586" lon="2.10533">
        <ele>194.18065869415</ele>
        <time>2019-12-10T13:18:32Z</time>
      </trkpt>
      <trkpt lat="43.55864" lon="2.10523">
        <ele>194.4898332904</ele>
        <time>2019-12-10T13:18:39Z</time>
      </trkpt>
      <trkpt lat="43.55869" lon="2.10514">
        <ele>194.11734422514</ele>
        <time>2019-12-10T13:18:46Z</time>
      </trkpt>
      <trkpt lat="43.55874" lon="2.10504">
        <ele>195.17207534944</ele>
        <time>2019-12-10T13:18:54Z</time>
      </trkpt>
      <trkpt lat="43.55879" lon="2.10495">
        <ele>195.52816201655</ele>
        <time>2019-12-10T13:19:03Z</time>
      </trkpt>
      <trkpt lat="43.55885" lon="2.10485">
        <ele>195.13635232496</ele>
        <time>2019-12-10T13:19:12Z</time>
      </trkpt>
      <trkpt lat="43.55887" lon="2.10474">
        <ele>193.63537972418</ele>
        <time>2019-12-10T13:19:19Z</time>
      </trkpt>
      <trkpt lat="43.55885" lon="2.10462">
        <ele>192.47530258944</ele>
        <time>2019-12-10T13:19:27Z</time>
      </trkpt>
      <trkpt lat="43.55882" lon="2.10451">
        <ele>192.75160805376</ele>
        <time>2019-12-10T13:19:35Z</time>
      </trkpt>
      <trkpt lat="43.55883" lon="2.10438">
        <ele>193.97735360884</ele>
        <time>2019-12-10T13:19:42Z</time>
      </trkpt>
      <trkpt lat="43.55887" lon="2.10429">
        <ele>195.04699792897</ele>
        <time>2019-12-10T13:19:49Z</time>
      </trkpt>
      <trkpt lat="43.55893" lon="2.1042">
        <ele>196.87900138408</ele>
        <time>2019-12-10T13:19:58Z</time>
      </trkpt>
      <trkpt lat="43.55898" lon="2.1041">
        <ele>199.07828887108</ele>
        <time>2019-12-10T13:20:08Z</time>
      </trkpt>
      <trkpt lat="43.55903" lon="2.10401">
        <ele>198.94618862326</ele>
        <time>2019-12-10T13:20:17Z</time>
      </trkpt>
      <trkpt lat="43.55908" lon="2.10392">
        <ele>200.01847342856</ele>
        <time>2019-12-10T13:20:24Z</time>
      </trkpt>
      <trkpt lat="43.55913" lon="2.10384">
        <ele>199.66120726624</ele>
        <time>2019-12-10T13:20:31Z</time>
      </trkpt>
      <trkpt lat="43.55919" lon="2.10375">
        <ele>199.65881408822</ele>
        <time>2019-12-10T13:20:39Z</time>
      </trkpt>
      <trkpt lat="43.55926" lon="2.10367">
        <ele>200.08561061206</ele>
        <time>2019-12-10T13:20:48Z</time>
      </trkpt>
      <trkpt lat="43.55932" lon="2.10358">
        <ele>199.2568384306</ele>
        <time>2019-12-10T13:20:55Z</time>
      </trkpt>
      <trkpt lat="43.55937" lon="2.10349">
        <ele>198.11997095719</ele>
        <time>2019-12-10T13:21:03Z</time>
      </trkpt>
      <trkpt lat="43.55943" lon="2.1034">
        <ele>197.12753010965</ele>
        <time>2019-12-10T13:21:10Z</time>
      </trkpt>
      <trkpt lat="43.55949" lon="2.10331">
        <ele>195.47285573642</ele>
        <time>2019-12-10T13:21:19Z</time>
      </trkpt>
      <trkpt lat="43.55954" lon="2.10323">
        <ele>196.59814397376</ele>
        <time>2019-12-10T13:21:26Z</time>
      </trkpt>
      <trkpt lat="43.55959" lon="2.10313">
        <ele>197.34271762725</ele>
        <time>2019-12-10T13:21:34Z</time>
      </trkpt>
      <trkpt lat="43.55963" lon="2.10303">
        <ele>197.35092193895</ele>
        <time>2019-12-10T13:21:42Z</time>
      </trkpt>
      <trkpt lat="43.55968" lon="2.10294">
        <ele>197.75445149</ele>
        <time>2019-12-10T13:21:50Z</time>
      </trkpt>
      <trkpt lat="43.55973" lon="2.10285">
        <ele>198.49510008764</ele>
        <time>2019-12-10T13:21:58Z</time>
      </trkpt>
      <trkpt lat="43.55979" lon="2.10278">
        <ele>198.89050548904</ele>
        <time>2019-12-10T13:22:06Z</time>
      </trkpt>
      <trkpt lat="43.55988" lon="2.10283">
        <ele>198.86346686749</ele>
        <time>2019-12-10T13:22:14Z</time>
      </trkpt>
      <trkpt lat="43.55992" lon="2.10294">
        <ele>198.60636545122</ele>
        <time>2019-12-10T13:22:22Z</time>
      </trkpt>
      <trkpt lat="43.55997" lon="2.10304">
        <ele>198.95772873863</ele>
        <time>2019-12-10T13:22:29Z</time>
      </trkpt>
      <trkpt lat="43.56001" lon="2.10314">
        <ele>198.77338115841</ele>
        <time>2019-12-10T13:22:39Z</time>
      </trkpt>
      <trkpt lat="43.56005" lon="2.10325">
        <ele>199.07964491855</ele>
        <time>2019-12-10T13:22:47Z</time>
      </trkpt>
      <trkpt lat="43.56009" lon="2.10336">
        <ele>199.87344197894</ele>
        <time>2019-12-10T13:22:55Z</time>
      </trkpt>
      <trkpt lat="43.56013" lon="2.10346">
        <ele>201.16294221622</ele>
        <time>2019-12-10T13:23:03Z</time>
      </trkpt>
      <trkpt lat="43.56016" lon="2.10357">
        <ele>202.63592866187</ele>
        <time>2019-12-10T13:23:10Z</time>
      </trkpt>
      <trkpt lat="43.5602" lon="2.10368">
        <ele>202.15372473216</ele>
        <time>2019-12-10T13:23:18Z</time>
      </trkpt>
      <trkpt lat="43.56024" lon="2.10378">
        <ele>202.65995398433</ele>
        <time>2019-12-10T13:23:26Z</time>
      </trkpt>
      <trkpt lat="43.56029" lon="2.10388">
        <ele>201.64384438808</ele>
        <time>2019-12-10T13:23:34Z</time>
      </trkpt>
      <trkpt lat="43.56033" lon="2.10398">
        <ele>201.06496136594</ele>
        <time>2019-12-10T13:23:41Z</time>
      </trkpt>
      <trkpt lat="43.56038" lon="2.10408">
        <ele>201.99176540631</ele>
        <time>2019-12-10T13:23:49Z</time>
      </trkpt>
      <trkpt lat="43.56041" lon="2.10418">
        <ele>202.01057199598</ele>
        <time>2019-12-10T13:23:56Z</time>
      </trkpt>
      <trkpt lat="43.56044" lon="2.10429">
        <ele>201.7293491532</ele>
        <time>2019-12-10T13:24:03Z</time>
      </trkpt>
      <trkpt lat="43.56047" lon="2.10439">
        <ele>202.29854889535</ele>
        <time>2019-12-10T13:24:10Z</time>
      </trkpt>
      <trkpt lat="43.56053" lon="2.10447">
        <ele>203.35629665009</ele>
        <time>2019-12-10T13:24:18Z</time>
      </trkpt>
      <trkpt lat="43.56058" lon="2.10455">
        <ele>203.92711697003</ele>
        <time>2019-12-10T13:24:25Z</time>
      </trkpt>
      <trkpt lat="43.56062" lon="2.10466">
        <ele>202.87454791346</ele>
        <time>2019-12-10T13:24:34Z</time>
      </trkpt>
      <trkpt lat="43.56063" lon="2.10479">
        <ele>201.95164158916</ele>
        <time>2019-12-10T13:24:42Z</time>
      </trkpt>
      <trkpt lat="43.56066" lon="2.10488">
        <ele>202.05172872432</ele>
        <time>2019-12-10T13:24:49Z</time>
      </trkpt>
      <trkpt lat="43.5607" lon="2.10497">
        <ele>203.62742624263</ele>
        <time>2019-12-10T13:24:56Z</time>
      </trkpt>
      <trkpt lat="43.56074" lon="2.10507">
        <ele>205.41760268491</ele>
        <time>2019-12-10T13:25:03Z</time>
      </trkpt>
      <trkpt lat="43.56079" lon="2.10517">
        <ele>205.13736037348</ele>
        <time>2019-12-10T13:25:11Z</time>
      </trkpt>
      <trkpt lat="43.56083" lon="2.10528">
        <ele>204.84947542454</ele>
        <time>2019-12-10T13:25:19Z</time>
      </trkpt>
      <trkpt lat="43.56088" lon="2.10537">
        <ele>204.36270837523</ele>
        <time>2019-12-10T13:25:27Z</time>
      </trkpt>
      <trkpt lat="43.56092" lon="2.10547">
        <ele>203.71008110785</ele>
        <time>2019-12-10T13:25:35Z</time>
      </trkpt>
      <trkpt lat="43.56098" lon="2.10555">
        <ele>202.71995989443</ele>
        <time>2019-12-10T13:25:43Z</time>
      </trkpt>
      <trkpt lat="43.56103" lon="2.10564">
        <ele>202.12019019959</ele>
        <time>2019-12-10T13:25:50Z</time>
      </trkpt>
      <trkpt lat="43.56105" lon="2.10576">
        <ele>201.02490256155</ele>
        <time>2019-12-10T13:25:59Z</time>
      </trkpt>
      <trkpt lat="43.5611" lon="2.10585">
        <ele>199.16775864449</ele>
        <time>2019-12-10T13:26:06Z</time>
      </trkpt>
      <trkpt lat="43.56114" lon="2.10595">
        <ele>197.62519221825</ele>
        <time>2019-12-10T13:26:14Z</time>
      </trkpt>
      <trkpt lat="43.56117" lon="2.10605">
        <ele>197.2438399634</ele>
        <time>2019-12-10T13:26:20Z</time>
      </trkpt>
      <trkpt lat="43.56123" lon="2.10613">
        <ele>196.46085441994</ele>
        <time>2019-12-10T13:26:27Z</time>
      </trkpt>
      <trkpt lat="43.56129" lon="2.10622">
        <ele>196.09887003359</ele>
        <time>2019-12-10T13:26:34Z</time>
      </trkpt>
      <trkpt lat="43.56132" lon="2.10632">
        <ele>196.0531085925</ele>
        <time>2019-12-10T13:26:41Z</time>
      </trkpt>
      <trkpt lat="43.56135" lon="2.10643">
        <ele>196.34030117031</ele>
        <time>2019-12-10T13:26:48Z</time>
      </trkpt>
      <trkpt lat="43.5614" lon="2.10653">
        <ele>196.39831990184</ele>
        <time>2019-12-10T13:26:55Z</time>
      </trkpt>
      <trkpt lat="43.56143" lon="2.10664">
        <ele>195.85078368001</ele>
        <time>2019-12-10T13:27:04Z</time>
      </trkpt>
      <trkpt lat="43.56146" lon="2.10674">
        <ele>196.32617186712</ele>
        <time>2019-12-10T13:27:12Z</time>
      </trkpt>
      <trkpt lat="43.56151" lon="2.10685">
        <ele>196.78648151738</ele>
        <time>2019-12-10T13:27:20Z</time>
      </trkpt>
      <trkpt lat="43.56155" lon="2.10695">
        <ele>196.46231886822</ele>
        <time>2019-12-10T13:27:28Z</time>
      </trkpt>
      <trkpt lat="43.56158" lon="2.10706">
        <ele>197.42541612792</ele>
        <time>2019-12-10T13:27:36Z</time>
      </trkpt>
      <trkpt lat="43.5616" lon="2.10717">
        <ele>197.48202166831</ele>
        <time>2019-12-10T13:27:44Z</time>
      </trkpt>
      <trkpt lat="43.56163" lon="2.10728">
        <ele>197.94063970048</ele>
        <time>2019-12-10T13:27:51Z</time>
      </trkpt>
      <trkpt lat="43.56166" lon="2.10738">
        <ele>198.36838646828</ele>
        <time>2019-12-10T13:27:58Z</time>
      </trkpt>
      <trkpt lat="43.5617" lon="2.10749">
        <ele>199.4066645302</ele>
        <time>2019-12-10T13:28:05Z</time>
      </trkpt>
      <trkpt lat="43.56173" lon="2.1076">
        <ele>199.50187565573</ele>
        <time>2019-12-10T13:28:13Z</time>
      </trkpt>
      <trkpt lat="43.56177" lon="2.1077">
        <ele>200.02382359979</ele>
        <time>2019-12-10T13:28:20Z</time>
      </trkpt>
      <trkpt lat="43.56181" lon="2.1078">
        <ele>199.64763504436</ele>
        <time>2019-12-10T13:28:27Z</time>
      </trkpt>
      <trkpt lat="43.56185" lon="2.10791">
        <ele>199.18940937775</ele>
        <time>2019-12-10T13:28:35Z</time>
      </trkpt>
      <trkpt lat="43.56189" lon="2.10802">
        <ele>198.63376512844</ele>
        <time>2019-12-10T13:28:43Z</time>
      </trkpt>
      <trkpt lat="43.56193" lon="2.10812">
        <ele>197.73730480087</ele>
        <time>2019-12-10T13:28:50Z</time>
      </trkpt>
      <trkpt lat="43.56197" lon="2.10823">
        <ele>196.7316300636</ele>
        <time>2019-12-10T13:28:59Z</time>
      </trkpt>
      <trkpt lat="43.56201" lon="2.10832">
        <ele>194.58078529443</ele>
        <time>2019-12-10T13:29:07Z</time>
      </trkpt>
      <trkpt lat="43.56207" lon="2.10841">
        <ele>194.36460808121</ele>
        <time>2019-12-10T13:29:14Z</time>
      </trkpt>
      <trkpt lat="43.56211" lon="2.10851">
        <ele>193.84486191527</ele>
        <time>2019-12-10T13:29:21Z</time>
      </trkpt>
      <trkpt lat="43.56213" lon="2.10863">
        <ele>193.18161699853</ele>
        <time>2019-12-10T13:29:28Z</time>
      </trkpt>
      <trkpt lat="43.56217" lon="2.10873">
        <ele>193.09992916014</ele>
        <time>2019-12-10T13:29:35Z</time>
      </trkpt>
      <trkpt lat="43.56219" lon="2.10884">
        <ele>193.04490227191</ele>
        <time>2019-12-10T13:29:45Z</time>
      </trkpt>
      <trkpt lat="43.56223" lon="2.10894">
        <ele>192.87538178446</ele>
        <time>2019-12-10T13:29:53Z</time>
      </trkpt>
      <trkpt lat="43.56229" lon="2.10903">
        <ele>193.33681313968</ele>
        <time>2019-12-10T13:29:59Z</time>
      </trkpt>
      <trkpt lat="43.56233" lon="2.10911">
        <ele>193.04694975108</ele>
        <time>2019-12-10T13:30:07Z</time>
      </trkpt>
      <trkpt lat="43.56238" lon="2.10921">
        <ele>192.854108375</ele>
        <time>2019-12-10T13:30:14Z</time>
      </trkpt>
      <trkpt lat="43.56241" lon="2.10933">
        <ele>191.76998657761</ele>
        <time>2019-12-10T13:30:21Z</time>
      </trkpt>
      <trkpt lat="43.56244" lon="2.10944">
        <ele>192.08516723454</ele>
        <time>2019-12-10T13:30:31Z</time>
      </trkpt>
      <trkpt lat="43.56245" lon="2.10955">
        <ele>192.39836826165</ele>
        <time>2019-12-10T13:30:39Z</time>
      </trkpt>
      <trkpt lat="43.56247" lon="2.10967">
        <ele>192.17377194836</ele>
        <time>2019-12-10T13:30:46Z</time>
      </trkpt>
      <trkpt lat="43.56247" lon="2.10979">
        <ele>192.31601161272</ele>
        <time>2019-12-10T13:30:54Z</time>
      </trkpt>
      <trkpt lat="43.56249" lon="2.1099">
        <ele>192.82753272858</ele>
        <time>2019-12-10T13:31:00Z</time>
      </trkpt>
      <trkpt lat="43.56252" lon="2.11001">
        <ele>193.39998709776</ele>
        <time>2019-12-10T13:31:08Z</time>
      </trkpt>
      <trkpt lat="43.56254" lon="2.11012">
        <ele>193.80736801933</ele>
        <time>2019-12-10T13:31:15Z</time>
      </trkpt>
      <trkpt lat="43.56255" lon="2.11023">
        <ele>192.74217492478</ele>
        <time>2019-12-10T13:31:22Z</time>
      </trkpt>
      <trkpt lat="43.56256" lon="2.11034">
        <ele>191.23671105164</ele>
        <time>2019-12-10T13:31:30Z</time>
      </trkpt>
      <trkpt lat="43.56256" lon="2.11045">
        <ele>191.17784081653</ele>
        <time>2019-12-10T13:31:38Z</time>
      </trkpt>
      <trkpt lat="43.56258" lon="2.11057">
        <ele>190.88007383608</ele>
        <time>2019-12-10T13:31:46Z</time>
      </trkpt>
      <trkpt lat="43.56258" lon="2.11069">
        <ele>190.28748099776</ele>
        <time>2019-12-10T13:31:54Z</time>
      </trkpt>
      <trkpt lat="43.56259" lon="2.1108">
        <ele>188.71797662094</ele>
        <time>2019-12-10T13:32:02Z</time>
      </trkpt>
      <trkpt lat="43.56258" lon="2.11091">
        <ele>188.41036548257</ele>
        <time>2019-12-10T13:32:09Z</time>
      </trkpt>
      <trkpt lat="43.56258" lon="2.11104">
        <ele>189.78217542504</ele>
        <time>2019-12-10T13:32:16Z</time>
      </trkpt>
      <trkpt lat="43.56258" lon="2.11115">
        <ele>190.46771556974</ele>
        <time>2019-12-10T13:32:24Z</time>
      </trkpt>
      <trkpt lat="43.56258" lon="2.11126">
        <ele>189.2167629264</ele>
        <time>2019-12-10T13:32:32Z</time>
      </trkpt>
      <trkpt lat="43.56258" lon="2.11138">
        <ele>187.87299391959</ele>
        <time>2019-12-10T13:32:40Z</time>
      </trkpt>
      <trkpt lat="43.56256" lon="2.1115">
        <ele>187.26633473923</ele>
        <time>2019-12-10T13:32:49Z</time>
      </trkpt>
      <trkpt lat="43.56254" lon="2.11161">
        <ele>186.82381915634</ele>
        <time>2019-12-10T13:32:56Z</time>
      </trkpt>
      <trkpt lat="43.56252" lon="2.11173">
        <ele>186.65870172117</ele>
        <time>2019-12-10T13:33:04Z</time>
      </trkpt>
      <trkpt lat="43.5625" lon="2.11185">
        <ele>186.64046635984</ele>
        <time>2019-12-10T13:33:11Z</time>
      </trkpt>
      <trkpt lat="43.56249" lon="2.11196">
        <ele>186.88828802009</ele>
        <time>2019-12-10T13:33:18Z</time>
      </trkpt>
      <trkpt lat="43.56246" lon="2.11206">
        <ele>186.95666646218</ele>
        <time>2019-12-10T13:33:26Z</time>
      </trkpt>
      <trkpt lat="43.56243" lon="2.11216">
        <ele>187.31058958862</ele>
        <time>2019-12-10T13:33:32Z</time>
      </trkpt>
      <trkpt lat="43.56238" lon="2.11226">
        <ele>186.83957375727</ele>
        <time>2019-12-10T13:33:39Z</time>
      </trkpt>
      <trkpt lat="43.56235" lon="2.11236">
        <ele>186.08357588776</ele>
        <time>2019-12-10T13:33:46Z</time>
      </trkpt>
      <trkpt lat="43.56234" lon="2.11247">
        <ele>185.23853320128</ele>
        <time>2019-12-10T13:33:54Z</time>
      </trkpt>
      <trkpt lat="43.56233" lon="2.11259">
        <ele>182.76264371971</ele>
        <time>2019-12-10T13:34:03Z</time>
      </trkpt>
      <trkpt lat="43.56232" lon="2.11269">
        <ele>181.35048874746</ele>
        <time>2019-12-10T13:34:12Z</time>
      </trkpt>
      <trkpt lat="43.5623" lon="2.11281">
        <ele>180.65006504765</ele>
        <time>2019-12-10T13:34:20Z</time>
      </trkpt>
      <trkpt lat="43.56231" lon="2.11292">
        <ele>179.6548578287</ele>
        <time>2019-12-10T13:34:27Z</time>
      </trkpt>
      <trkpt lat="43.5623" lon="2.11304">
        <ele>180.88683234912</ele>
        <time>2019-12-10T13:34:34Z</time>
      </trkpt>
      <trkpt lat="43.5623" lon="2.11315">
        <ele>180.02564418917</ele>
        <time>2019-12-10T13:34:41Z</time>
      </trkpt>
      <trkpt lat="43.56231" lon="2.11327">
        <ele>178.65665142255</ele>
        <time>2019-12-10T13:34:50Z</time>
      </trkpt>
      <trkpt lat="43.56231" lon="2.11339">
        <ele>179.36358911329</ele>
        <time>2019-12-10T13:34:59Z</time>
      </trkpt>
      <trkpt lat="43.56233" lon="2.11351">
        <ele>179.78726479558</ele>
        <time>2019-12-10T13:35:06Z</time>
      </trkpt>
      <trkpt lat="43.56234" lon="2.11362">
        <ele>179.72678029817</ele>
        <time>2019-12-10T13:35:13Z</time>
      </trkpt>
      <trkpt lat="43.56236" lon="2.11373">
        <ele>179.34955800367</ele>
        <time>2019-12-10T13:35:21Z</time>
      </trkpt>
      <trkpt lat="43.56238" lon="2.11385">
        <ele>179.16903275568</ele>
        <time>2019-12-10T13:35:28Z</time>
      </trkpt>
      <trkpt lat="43.56237" lon="2.11396">
        <ele>178.30001754802</ele>
        <time>2019-12-10T13:35:36Z</time>
      </trkpt>
      <trkpt lat="43.56236" lon="2.11408">
        <ele>176.71884032752</ele>
        <time>2019-12-10T13:35:45Z</time>
      </trkpt>
      <trkpt lat="43.56236" lon="2.1142">
        <ele>176.61416425188</ele>
        <time>2019-12-10T13:35:53Z</time>
      </trkpt>
      <trkpt lat="43.56237" lon="2.11432">
        <ele>175.692942292</ele>
        <time>2019-12-10T13:36:00Z</time>
      </trkpt>
      <trkpt lat="43.56237" lon="2.11443">
        <ele>173.60229166472</ele>
        <time>2019-12-10T13:36:09Z</time>
      </trkpt>
      <trkpt lat="43.56234" lon="2.11455">
        <ele>172.07170699079</ele>
        <time>2019-12-10T13:36:20Z</time>
      </trkpt>
      <trkpt lat="43.56232" lon="2.11466">
        <ele>172.44260388144</ele>
        <time>2019-12-10T13:36:30Z</time>
      </trkpt>
      <trkpt lat="43.56231" lon="2.11479">
        <ele>171.72966966285</ele>
        <time>2019-12-10T13:36:38Z</time>
      </trkpt>
      <trkpt lat="43.56234" lon="2.1149">
        <ele>171.36887207669</ele>
        <time>2019-12-10T13:36:47Z</time>
      </trkpt>
      <trkpt lat="43.56232" lon="2.115">
        <ele>171.01729667208</ele>
        <time>2019-12-10T13:36:53Z</time>
      </trkpt>
      <trkpt lat="43.56229" lon="2.11512">
        <ele>171.14608683108</ele>
        <time>2019-12-10T13:37:00Z</time>
      </trkpt>
      <trkpt lat="43.56226" lon="2.11522">
        <ele>170.07872356976</ele>
        <time>2019-12-10T13:37:10Z</time>
      </trkpt>
      <trkpt lat="43.56222" lon="2.11533">
        <ele>169.20040669526</ele>
        <time>2019-12-10T13:37:17Z</time>
      </trkpt>
      <trkpt lat="43.56221" lon="2.11545">
        <ele>168.28656441065</ele>
        <time>2019-12-10T13:37:24Z</time>
      </trkpt>
      <trkpt lat="43.56219" lon="2.11556">
        <ele>168.52689674524</ele>
        <time>2019-12-10T13:37:31Z</time>
      </trkpt>
      <trkpt lat="43.56217" lon="2.11566">
        <ele>168.57845686316</ele>
        <time>2019-12-10T13:37:38Z</time>
      </trkpt>
      <trkpt lat="43.56214" lon="2.11577">
        <ele>168.2397013746</ele>
        <time>2019-12-10T13:37:45Z</time>
      </trkpt>
      <trkpt lat="43.56212" lon="2.11589">
        <ele>167.1939307578</ele>
        <time>2019-12-10T13:37:53Z</time>
      </trkpt>
      <trkpt lat="43.56209" lon="2.116">
        <ele>167.3408060601</ele>
        <time>2019-12-10T13:38:01Z</time>
      </trkpt>
      <trkpt lat="43.56207" lon="2.1161">
        <ele>167.56660853236</ele>
        <time>2019-12-10T13:38:09Z</time>
      </trkpt>
      <trkpt lat="43.56204" lon="2.11621">
        <ele>167.87617071889</ele>
        <time>2019-12-10T13:38:16Z</time>
      </trkpt>
      <trkpt lat="43.56202" lon="2.11632">
        <ele>167.49902833995</ele>
        <time>2019-12-10T13:38:24Z</time>
      </trkpt>
      <trkpt lat="43.562" lon="2.11643">
        <ele>166.53921068176</ele>
        <time>2019-12-10T13:38:32Z</time>
      </trkpt>
      <trkpt lat="43.56198" lon="2.11654">
        <ele>166.46033041989</ele>
        <time>2019-12-10T13:38:39Z</time>
      </trkpt>
      <trkpt lat="43.56195" lon="2.11665">
        <ele>167.36178249408</ele>
        <time>2019-12-10T13:38:45Z</time>
      </trkpt>
      <trkpt lat="43.56194" lon="2.11678">
        <ele>168.612113302</ele>
        <time>2019-12-10T13:38:51Z</time>
      </trkpt>
      <trkpt lat="43.56192" lon="2.11689">
        <ele>168.95302235794</ele>
        <time>2019-12-10T13:38:58Z</time>
      </trkpt>
      <trkpt lat="43.5619" lon="2.11701">
        <ele>166.96245153441</ele>
        <time>2019-12-10T13:39:08Z</time>
      </trkpt>
      <trkpt lat="43.56188" lon="2.11712">
        <ele>165.21523886472</ele>
        <time>2019-12-10T13:39:16Z</time>
      </trkpt>
      <trkpt lat="43.56187" lon="2.11723">
        <ele>164.09920446602</ele>
        <time>2019-12-10T13:39:23Z</time>
      </trkpt>
      <trkpt lat="43.56185" lon="2.11735">
        <ele>163.09332508884</ele>
        <time>2019-12-10T13:39:30Z</time>
      </trkpt>
      <trkpt lat="43.56185" lon="2.11746">
        <ele>162.2360321376</ele>
        <time>2019-12-10T13:39:37Z</time>
      </trkpt>
      <trkpt lat="43.56185" lon="2.11759">
        <ele>161.26049322566</ele>
        <time>2019-12-10T13:39:46Z</time>
      </trkpt>
      <trkpt lat="43.56186" lon="2.1177">
        <ele>161.58153200935</ele>
        <time>2019-12-10T13:39:53Z</time>
      </trkpt>
      <trkpt lat="43.56184" lon="2.11781">
        <ele>162.46511768295</ele>
        <time>2019-12-10T13:40:01Z</time>
      </trkpt>
      <trkpt lat="43.56182" lon="2.11792">
        <ele>163.13554959028</ele>
        <time>2019-12-10T13:40:08Z</time>
      </trkpt>
      <trkpt lat="43.56182" lon="2.11803">
        <ele>163.19402108428</ele>
        <time>2019-12-10T13:40:14Z</time>
      </trkpt>
      <trkpt lat="43.56183" lon="2.11815">
        <ele>162.4745855698</ele>
        <time>2019-12-10T13:40:23Z</time>
      </trkpt>
      <trkpt lat="43.56183" lon="2.11827">
        <ele>161.57764519345</ele>
        <time>2019-12-10T13:40:31Z</time>
      </trkpt>
      <trkpt lat="43.56183" lon="2.11838">
        <ele>161.21079821653</ele>
        <time>2019-12-10T13:40:38Z</time>
      </trkpt>
      <trkpt lat="43.56182" lon="2.11851">
        <ele>160.40411060253</ele>
        <time>2019-12-10T13:40:45Z</time>
      </trkpt>
      <trkpt lat="43.56181" lon="2.11862">
        <ele>160.05576181859</ele>
        <time>2019-12-10T13:40:52Z</time>
      </trkpt>
      <trkpt lat="43.56181" lon="2.11875">
        <ele>160.35056453833</ele>
        <time>2019-12-10T13:41:01Z</time>
      </trkpt>
      <trkpt lat="43.56178" lon="2.11885">
        <ele>160.45205286761</ele>
        <time>2019-12-10T13:41:08Z</time>
      </trkpt>
      <trkpt lat="43.56174" lon="2.11895">
        <ele>160.81197299022</ele>
        <time>2019-12-10T13:41:15Z</time>
      </trkpt>
      <trkpt lat="43.56171" lon="2.11905">
        <ele>161.07157109973</ele>
        <time>2019-12-10T13:41:21Z</time>
      </trkpt>
      <trkpt lat="43.56169" lon="2.11915">
        <ele>160.74877395222</ele>
        <time>2019-12-10T13:41:27Z</time>
      </trkpt>
      <trkpt lat="43.56167" lon="2.11926">
        <ele>161.09362344684</ele>
        <time>2019-12-10T13:41:33Z</time>
      </trkpt>
      <trkpt lat="43.56163" lon="2.11937">
        <ele>160.4608199833</ele>
        <time>2019-12-10T13:41:42Z</time>
      </trkpt>
      <trkpt lat="43.56157" lon="2.11945">
        <ele>160.631429071</ele>
        <time>2019-12-10T13:41:49Z</time>
      </trkpt>
      <trkpt lat="43.56152" lon="2.11955">
        <ele>161.1039052829</ele>
        <time>2019-12-10T13:41:58Z</time>
      </trkpt>
      <trkpt lat="43.56149" lon="2.11966">
        <ele>159.88041665554</ele>
        <time>2019-12-10T13:42:06Z</time>
      </trkpt>
      <trkpt lat="43.56145" lon="2.11976">
        <ele>159.21520255157</ele>
        <time>2019-12-10T13:42:12Z</time>
      </trkpt>
      <trkpt lat="43.56142" lon="2.11987">
        <ele>159.64542689364</ele>
        <time>2019-12-10T13:42:18Z</time>
      </trkpt>
      <trkpt lat="43.56139" lon="2.11998">
        <ele>161.37751197723</ele>
        <time>2019-12-10T13:42:25Z</time>
      </trkpt>
      <trkpt lat="43.56136" lon="2.12008">
        <ele>160.68264080054</ele>
        <time>2019-12-10T13:42:34Z</time>
      </trkpt>
      <trkpt lat="43.56132" lon="2.12019">
        <ele>160.93963375502</ele>
        <time>2019-12-10T13:42:41Z</time>
      </trkpt>
      <trkpt lat="43.56131" lon="2.1203">
        <ele>161.35725149724</ele>
        <time>2019-12-10T13:42:50Z</time>
      </trkpt>
      <trkpt lat="43.56136" lon="2.1204">
        <ele>162.13964331132</ele>
        <time>2019-12-10T13:43:05Z</time>
      </trkpt>
      <trkpt lat="43.56131" lon="2.12049">
        <ele>161.52298887753</ele>
        <time>2019-12-10T13:43:10Z</time>
      </trkpt>
      <trkpt lat="43.56124" lon="2.12054">
        <ele>160.3574406606</ele>
        <time>2019-12-10T13:43:15Z</time>
      </trkpt>
      <trkpt lat="43.56115" lon="2.12051">
        <ele>160.34677124727</ele>
        <time>2019-12-10T13:43:25Z</time>
      </trkpt>
      <trkpt lat="43.56109" lon="2.1206">
        <ele>160.7979557107</ele>
        <time>2019-12-10T13:43:34Z</time>
      </trkpt>
      <trkpt lat="43.56107" lon="2.12072">
        <ele>160.80436499525</ele>
        <time>2019-12-10T13:43:42Z</time>
      </trkpt>
      <trkpt lat="43.56102" lon="2.12082">
        <ele>161.04861742377</ele>
        <time>2019-12-10T13:43:51Z</time>
      </trkpt>
      <trkpt lat="43.56098" lon="2.12093">
        <ele>160.66679349621</ele>
        <time>2019-12-10T13:43:59Z</time>
      </trkpt>
      <trkpt lat="43.56096" lon="2.12104">
        <ele>160.15304882469</ele>
        <time>2019-12-10T13:44:08Z</time>
      </trkpt>
      <trkpt lat="43.56092" lon="2.12115">
        <ele>159.68717382134</ele>
        <time>2019-12-10T13:44:16Z</time>
      </trkpt>
      <trkpt lat="43.56089" lon="2.12126">
        <ele>159.9683144706</ele>
        <time>2019-12-10T13:44:25Z</time>
      </trkpt>
      <trkpt lat="43.56086" lon="2.12136">
        <ele>160.6055420527</ele>
        <time>2019-12-10T13:44:31Z</time>
      </trkpt>
      <trkpt lat="43.56083" lon="2.12148">
        <ele>162.68604757796</ele>
        <time>2019-12-10T13:44:40Z</time>
      </trkpt>
      <trkpt lat="43.56081" lon="2.12158">
        <ele>163.98633929276</ele>
        <time>2019-12-10T13:44:48Z</time>
      </trkpt>
      <trkpt lat="43.56078" lon="2.12169">
        <ele>163.32488389248</ele>
        <time>2019-12-10T13:44:55Z</time>
      </trkpt>
      <trkpt lat="43.56077" lon="2.12181">
        <ele>163.4136945376</ele>
        <time>2019-12-10T13:45:04Z</time>
      </trkpt>
      <trkpt lat="43.56074" lon="2.12192">
        <ele>164.40192513437</ele>
        <time>2019-12-10T13:45:10Z</time>
      </trkpt>
      <trkpt lat="43.56073" lon="2.12203">
        <ele>162.62268269606</ele>
        <time>2019-12-10T13:45:17Z</time>
      </trkpt>
      <trkpt lat="43.5607" lon="2.12215">
        <ele>162.61766754545</ele>
        <time>2019-12-10T13:45:26Z</time>
      </trkpt>
      <trkpt lat="43.56069" lon="2.12227">
        <ele>163.75406295814</ele>
        <time>2019-12-10T13:45:34Z</time>
      </trkpt>
      <trkpt lat="43.56068" lon="2.12239">
        <ele>164.11721177723</ele>
        <time>2019-12-10T13:45:41Z</time>
      </trkpt>
      <trkpt lat="43.56065" lon="2.12251">
        <ele>165.12561084223</ele>
        <time>2019-12-10T13:45:48Z</time>
      </trkpt>
      <trkpt lat="43.56062" lon="2.12261">
        <ele>164.93189501349</ele>
        <time>2019-12-10T13:45:58Z</time>
      </trkpt>
      <trkpt lat="43.5606" lon="2.12273">
        <ele>167.27347683456</ele>
        <time>2019-12-10T13:46:06Z</time>
      </trkpt>
      <trkpt lat="43.56056" lon="2.12283">
        <ele>167.66604918779</ele>
        <time>2019-12-10T13:46:13Z</time>
      </trkpt>
      <trkpt lat="43.56055" lon="2.12295">
        <ele>168.16705127945</ele>
        <time>2019-12-10T13:46:19Z</time>
      </trkpt>
      <trkpt lat="43.56054" lon="2.12307">
        <ele>169.40715725663</ele>
        <time>2019-12-10T13:46:25Z</time>
      </trkpt>
      <trkpt lat="43.56056" lon="2.12319">
        <ele>168.69307044965</ele>
        <time>2019-12-10T13:46:32Z</time>
      </trkpt>
      <trkpt lat="43.56056" lon="2.12331">
        <ele>167.84396436519</ele>
        <time>2019-12-10T13:46:40Z</time>
      </trkpt>
      <trkpt lat="43.56055" lon="2.12342">
        <ele>167.21532712121</ele>
        <time>2019-12-10T13:46:47Z</time>
      </trkpt>
      <trkpt lat="43.56052" lon="2.12354">
        <ele>165.8972974849</ele>
        <time>2019-12-10T13:46:56Z</time>
      </trkpt>
      <trkpt lat="43.56049" lon="2.12365">
        <ele>165.50495489654</ele>
        <time>2019-12-10T13:47:03Z</time>
      </trkpt>
      <trkpt lat="43.56048" lon="2.12376">
        <ele>165.15725520124</ele>
        <time>2019-12-10T13:47:10Z</time>
      </trkpt>
      <trkpt lat="43.56048" lon="2.12388">
        <ele>164.68737184103</ele>
        <time>2019-12-10T13:47:18Z</time>
      </trkpt>
      <trkpt lat="43.56047" lon="2.124">
        <ele>163.33347835729</ele>
        <time>2019-12-10T13:47:26Z</time>
      </trkpt>
      <trkpt lat="43.56044" lon="2.12411">
        <ele>163.31799051755</ele>
        <time>2019-12-10T13:47:33Z</time>
      </trkpt>
      <trkpt lat="43.56042" lon="2.12422">
        <ele>161.00309941864</ele>
        <time>2019-12-10T13:47:40Z</time>
      </trkpt>
      <trkpt lat="43.5604" lon="2.12434">
        <ele>160.51008617723</ele>
        <time>2019-12-10T13:47:47Z</time>
      </trkpt>
      <trkpt lat="43.56039" lon="2.12445">
        <ele>160.40336806926</ele>
        <time>2019-12-10T13:47:54Z</time>
      </trkpt>
      <trkpt lat="43.56037" lon="2.12456">
        <ele>162.178296915</ele>
        <time>2019-12-10T13:48:01Z</time>
      </trkpt>
      <trkpt lat="43.56037" lon="2.12467">
        <ele>163.17311809835</ele>
        <time>2019-12-10T13:48:08Z</time>
      </trkpt>
      <trkpt lat="43.56036" lon="2.12479">
        <ele>163.34993920372</ele>
        <time>2019-12-10T13:48:16Z</time>
      </trkpt>
      <trkpt lat="43.56036" lon="2.12491">
        <ele>163.21398745626</ele>
        <time>2019-12-10T13:48:25Z</time>
      </trkpt>
      <trkpt lat="43.56035" lon="2.12503">
        <ele>162.31007407262</ele>
        <time>2019-12-10T13:48:32Z</time>
      </trkpt>
      <trkpt lat="43.56035" lon="2.12513">
        <ele>161.79999903578</ele>
        <time>2019-12-10T13:48:40Z</time>
      </trkpt>
      <trkpt lat="43.56035" lon="2.12524">
        <ele>161.88997217128</ele>
        <time>2019-12-10T13:48:46Z</time>
      </trkpt>
      <trkpt lat="43.56034" lon="2.12535">
        <ele>160.87752336971</ele>
        <time>2019-12-10T13:48:53Z</time>
      </trkpt>
      <trkpt lat="43.56036" lon="2.12546">
        <ele>160.23342530857</ele>
        <time>2019-12-10T13:49:00Z</time>
      </trkpt>
      <trkpt lat="43.56037" lon="2.12558">
        <ele>159.86890184862</ele>
        <time>2019-12-10T13:49:09Z</time>
      </trkpt>
      <trkpt lat="43.56036" lon="2.1257">
        <ele>162.69987749395</ele>
        <time>2019-12-10T13:49:17Z</time>
      </trkpt>
      <trkpt lat="43.56036" lon="2.12582">
        <ele>163.57370327905</ele>
        <time>2019-12-10T13:49:25Z</time>
      </trkpt>
      <trkpt lat="43.56036" lon="2.12594">
        <ele>162.37246629054</ele>
        <time>2019-12-10T13:49:32Z</time>
      </trkpt>
      <trkpt lat="43.56036" lon="2.12605">
        <ele>162.9177698907</ele>
        <time>2019-12-10T13:49:38Z</time>
      </trkpt>
      <trkpt lat="43.56036" lon="2.12616">
        <ele>163.31527038432</ele>
        <time>2019-12-10T13:49:45Z</time>
      </trkpt>
      <trkpt lat="43.56036" lon="2.12628">
        <ele>163.14624868854</ele>
        <time>2019-12-10T13:49:54Z</time>
      </trkpt>
      <trkpt lat="43.56036" lon="2.1264">
        <ele>163.20167827598</ele>
        <time>2019-12-10T13:50:03Z</time>
      </trkpt>
      <trkpt lat="43.56036" lon="2.12651">
        <ele>163.8215372392</ele>
        <time>2019-12-10T13:50:10Z</time>
      </trkpt>
      <trkpt lat="43.56037" lon="2.12664">
        <ele>165.10243803613</ele>
        <time>2019-12-10T13:50:19Z</time>
      </trkpt>
      <trkpt lat="43.56037" lon="2.12675">
        <ele>164.31496045548</ele>
        <time>2019-12-10T13:50:27Z</time>
      </trkpt>
      <trkpt lat="43.56038" lon="2.12686">
        <ele>165.59877376624</ele>
        <time>2019-12-10T13:50:34Z</time>
      </trkpt>
      <trkpt lat="43.56043" lon="2.12697">
        <ele>164.78149366613</ele>
        <time>2019-12-10T13:50:42Z</time>
      </trkpt>
      <trkpt lat="43.56046" lon="2.12707">
        <ele>163.40243206612</ele>
        <time>2019-12-10T13:50:51Z</time>
      </trkpt>
      <trkpt lat="43.56051" lon="2.12716">
        <ele>162.77606959643</ele>
        <time>2019-12-10T13:50:59Z</time>
      </trkpt>
      <trkpt lat="43.56056" lon="2.12726">
        <ele>163.22623801723</ele>
        <time>2019-12-10T13:51:09Z</time>
      </trkpt>
      <trkpt lat="43.56062" lon="2.12734">
        <ele>164.43451603912</ele>
        <time>2019-12-10T13:51:18Z</time>
      </trkpt>
      <trkpt lat="43.56068" lon="2.12743">
        <ele>165.70400121072</ele>
        <time>2019-12-10T13:51:27Z</time>
      </trkpt>
      <trkpt lat="43.56072" lon="2.12753">
        <ele>166.71178028557</ele>
        <time>2019-12-10T13:51:35Z</time>
      </trkpt>
      <trkpt lat="43.56078" lon="2.12761">
        <ele>167.42861796778</ele>
        <time>2019-12-10T13:51:41Z</time>
      </trkpt>
      <trkpt lat="43.56083" lon="2.12771">
        <ele>168.37157795077</ele>
        <time>2019-12-10T13:51:49Z</time>
      </trkpt>
      <trkpt lat="43.56088" lon="2.12779">
        <ele>168.0556435508</ele>
        <time>2019-12-10T13:51:55Z</time>
      </trkpt>
      <trkpt lat="43.56093" lon="2.12788">
        <ele>167.71082389754</ele>
        <time>2019-12-10T13:52:01Z</time>
      </trkpt>
      <trkpt lat="43.561" lon="2.12795">
        <ele>168.57857897998</ele>
        <time>2019-12-10T13:52:07Z</time>
      </trkpt>
      <trkpt lat="43.56105" lon="2.12805">
        <ele>168.25619073918</ele>
        <time>2019-12-10T13:52:14Z</time>
      </trkpt>
      <trkpt lat="43.56108" lon="2.12816">
        <ele>168.12560494507</ele>
        <time>2019-12-10T13:52:22Z</time>
      </trkpt>
      <trkpt lat="43.56112" lon="2.12826">
        <ele>168.61281113375</ele>
        <time>2019-12-10T13:52:29Z</time>
      </trkpt>
      <trkpt lat="43.56118" lon="2.12834">
        <ele>169.20122001681</ele>
        <time>2019-12-10T13:52:36Z</time>
      </trkpt>
      <trkpt lat="43.56124" lon="2.12842">
        <ele>168.23645244264</ele>
        <time>2019-12-10T13:52:44Z</time>
      </trkpt>
      <trkpt lat="43.56127" lon="2.12852">
        <ele>166.02565312145</ele>
        <time>2019-12-10T13:52:53Z</time>
      </trkpt>
      <trkpt lat="43.56128" lon="2.12863">
        <ele>166.30013986975</ele>
        <time>2019-12-10T13:52:58Z</time>
      </trkpt>
      <trkpt lat="43.56131" lon="2.12874">
        <ele>167.16336388373</ele>
        <time>2019-12-10T13:53:08Z</time>
      </trkpt>
      <trkpt lat="43.56137" lon="2.12882">
        <ele>168.50770546965</ele>
        <time>2019-12-10T13:53:24Z</time>
      </trkpt>
      <trkpt lat="43.56146" lon="2.12886">
        <ele>167.62581334561</ele>
        <time>2019-12-10T13:53:36Z</time>
      </trkpt>
      <trkpt lat="43.56154" lon="2.12889">
        <ele>166.51037782029</ele>
        <time>2019-12-10T13:53:42Z</time>
      </trkpt>
      <trkpt lat="43.56161" lon="2.12895">
        <ele>165.40016518701</ele>
        <time>2019-12-10T13:53:48Z</time>
      </trkpt>
      <trkpt lat="43.56168" lon="2.12901">
        <ele>164.54999769212</ele>
        <time>2019-12-10T13:53:55Z</time>
      </trkpt>
      <trkpt lat="43.56176" lon="2.12905">
        <ele>163.59237562675</ele>
        <time>2019-12-10T13:54:03Z</time>
      </trkpt>
      <trkpt lat="43.56184" lon="2.1291">
        <ele>164.34102523828</ele>
        <time>2019-12-10T13:54:11Z</time>
      </trkpt>
      <trkpt lat="43.56191" lon="2.12915">
        <ele>165.06816750012</ele>
        <time>2019-12-10T13:54:18Z</time>
      </trkpt>
      <trkpt lat="43.56198" lon="2.12918">
        <ele>164.49523931549</ele>
        <time>2019-12-10T13:54:24Z</time>
      </trkpt>
      <trkpt lat="43.56205" lon="2.12922">
        <ele>164.48760641167</ele>
        <time>2019-12-10T13:54:30Z</time>
      </trkpt>
      <trkpt lat="43.56212" lon="2.12926">
        <ele>165.06352044143</ele>
        <time>2019-12-10T13:54:36Z</time>
      </trkpt>
      <trkpt lat="43.5622" lon="2.12931">
        <ele>164.85709312356</ele>
        <time>2019-12-10T13:54:44Z</time>
      </trkpt>
      <trkpt lat="43.56228" lon="2.12936">
        <ele>164.51974768627</ele>
        <time>2019-12-10T13:54:51Z</time>
      </trkpt>
      <trkpt lat="43.56236" lon="2.12941">
        <ele>164.01230598073</ele>
        <time>2019-12-10T13:55:00Z</time>
      </trkpt>
      <trkpt lat="43.56243" lon="2.12946">
        <ele>163.91698671789</ele>
        <time>2019-12-10T13:55:07Z</time>
      </trkpt>
      <trkpt lat="43.56251" lon="2.12951">
        <ele>162.43770333468</ele>
        <time>2019-12-10T13:55:16Z</time>
      </trkpt>
      <trkpt lat="43.56258" lon="2.12955">
        <ele>161.34291951623</ele>
        <time>2019-12-10T13:55:22Z</time>
      </trkpt>
      <trkpt lat="43.56266" lon="2.12959">
        <ele>161.30074477448</ele>
        <time>2019-12-10T13:55:29Z</time>
      </trkpt>
      <trkpt lat="43.56274" lon="2.12965">
        <ele>159.72537195411</ele>
        <time>2019-12-10T13:55:40Z</time>
      </trkpt>
      <trkpt lat="43.5628" lon="2.1297">
        <ele>160.4174884478</ele>
        <time>2019-12-10T13:55:47Z</time>
      </trkpt>
      <trkpt lat="43.56287" lon="2.12975">
        <ele>161.219617456</ele>
        <time>2019-12-10T13:55:53Z</time>
      </trkpt>
      <trkpt lat="43.56295" lon="2.12978">
        <ele>161.59381209492</ele>
        <time>2019-12-10T13:56:01Z</time>
      </trkpt>
      <trkpt lat="43.56304" lon="2.12982">
        <ele>162.60891194296</ele>
        <time>2019-12-10T13:56:08Z</time>
      </trkpt>
      <trkpt lat="43.56312" lon="2.12984">
        <ele>163.14682359642</ele>
        <time>2019-12-10T13:56:13Z</time>
      </trkpt>
      <trkpt lat="43.5632" lon="2.1299">
        <ele>164.30540191298</ele>
        <time>2019-12-10T13:56:20Z</time>
      </trkpt>
      <trkpt lat="43.56327" lon="2.12996">
        <ele>165.2121026602</ele>
        <time>2019-12-10T13:56:32Z</time>
      </trkpt>
      <trkpt lat="43.56335" lon="2.13">
        <ele>164.9240776407</ele>
        <time>2019-12-10T13:56:38Z</time>
      </trkpt>
      <trkpt lat="43.56342" lon="2.13004">
        <ele>165.83207895552</ele>
        <time>2019-12-10T13:56:43Z</time>
      </trkpt>
      <trkpt lat="43.5635" lon="2.13004">
        <ele>170.1876673359</ele>
        <time>2019-12-10T13:56:49Z</time>
      </trkpt>
      <trkpt lat="43.56358" lon="2.13009">
        <ele>170.01236285854</ele>
        <time>2019-12-10T13:56:56Z</time>
      </trkpt>
      <trkpt lat="43.56367" lon="2.13011">
        <ele>169.67388935448</ele>
        <time>2019-12-10T13:57:03Z</time>
      </trkpt>
      <trkpt lat="43.56375" lon="2.13015">
        <ele>169.96427511543</ele>
        <time>2019-12-10T13:57:13Z</time>
      </trkpt>
      <trkpt lat="43.56382" lon="2.13021">
        <ele>169.50954624664</ele>
        <time>2019-12-10T13:57:20Z</time>
      </trkpt>
      <trkpt lat="43.56388" lon="2.13027">
        <ele>167.88557554501</ele>
        <time>2019-12-10T13:57:26Z</time>
      </trkpt>
      <trkpt lat="43.56397" lon="2.13031">
        <ele>165.46648617551</ele>
        <time>2019-12-10T13:57:34Z</time>
      </trkpt>
      <trkpt lat="43.56404" lon="2.13039">
        <ele>164.46541008637</ele>
        <time>2019-12-10T13:57:43Z</time>
      </trkpt>
      <trkpt lat="43.56409" lon="2.13047">
        <ele>163.74154891223</ele>
        <time>2019-12-10T13:57:51Z</time>
      </trkpt>
      <trkpt lat="43.56415" lon="2.13054">
        <ele>163.10867726344</ele>
        <time>2019-12-10T13:57:56Z</time>
      </trkpt>
      <trkpt lat="43.56422" lon="2.13061">
        <ele>163.14522140823</ele>
        <time>2019-12-10T13:58:02Z</time>
      </trkpt>
      <trkpt lat="43.56429" lon="2.13068">
        <ele>162.87408703592</ele>
        <time>2019-12-10T13:58:12Z</time>
      </trkpt>
      <trkpt lat="43.56437" lon="2.13072">
        <ele>161.39613572222</ele>
        <time>2019-12-10T13:58:20Z</time>
      </trkpt>
      <trkpt lat="43.56444" lon="2.13075">
        <ele>161.07345629799</ele>
        <time>2019-12-10T13:58:28Z</time>
      </trkpt>
      <trkpt lat="43.56453" lon="2.13078">
        <ele>161.67905463182</ele>
        <time>2019-12-10T13:58:35Z</time>
      </trkpt>
      <trkpt lat="43.56461" lon="2.13083">
        <ele>162.63083208555</ele>
        <time>2019-12-10T13:58:42Z</time>
      </trkpt>
      <trkpt lat="43.56469" lon="2.13089">
        <ele>162.23133373078</ele>
        <time>2019-12-10T13:58:51Z</time>
      </trkpt>
      <trkpt lat="43.56476" lon="2.13093">
        <ele>160.09327477337</ele>
        <time>2019-12-10T13:59:03Z</time>
      </trkpt>
      <trkpt lat="43.56484" lon="2.13097">
        <ele>161.32286531395</ele>
        <time>2019-12-10T13:59:10Z</time>
      </trkpt>
      <trkpt lat="43.56493" lon="2.13101">
        <ele>160.96162265201</ele>
        <time>2019-12-10T13:59:18Z</time>
      </trkpt>
      <trkpt lat="43.565" lon="2.13105">
        <ele>160.29924233045</ele>
        <time>2019-12-10T13:59:24Z</time>
      </trkpt>
      <trkpt lat="43.56508" lon="2.13108">
        <ele>161.69131355065</ele>
        <time>2019-12-10T13:59:32Z</time>
      </trkpt>
      <trkpt lat="43.56516" lon="2.13111">
        <ele>163.2753538196</ele>
        <time>2019-12-10T13:59:38Z</time>
      </trkpt>
      <trkpt lat="43.56523" lon="2.13115">
        <ele>163.98485422316</ele>
        <time>2019-12-10T13:59:44Z</time>
      </trkpt>
      <trkpt lat="43.56532" lon="2.13116">
        <ele>165.63582437338</ele>
        <time>2019-12-10T13:59:51Z</time>
      </trkpt>
      <trkpt lat="43.56539" lon="2.13119">
        <ele>165.85429769609</ele>
        <time>2019-12-10T13:59:56Z</time>
      </trkpt>
      <trkpt lat="43.56547" lon="2.13124">
        <ele>165.39203773674</ele>
        <time>2019-12-10T14:00:05Z</time>
      </trkpt>
      <trkpt lat="43.56555" lon="2.1313">
        <ele>164.27123016273</ele>
        <time>2019-12-10T14:00:15Z</time>
      </trkpt>
      <trkpt lat="43.56563" lon="2.13132">
        <ele>164.94923830077</ele>
        <time>2019-12-10T14:00:21Z</time>
      </trkpt>
      <trkpt lat="43.56572" lon="2.13135">
        <ele>165.47421343261</ele>
        <time>2019-12-10T14:00:28Z</time>
      </trkpt>
      <trkpt lat="43.56579" lon="2.13139">
        <ele>161.61463880988</ele>
        <time>2019-12-10T14:00:37Z</time>
      </trkpt>
      <trkpt lat="43.56586" lon="2.13146">
        <ele>158.95978969551</ele>
        <time>2019-12-10T14:00:45Z</time>
      </trkpt>
      <trkpt lat="43.56595" lon="2.13147">
        <ele>157.07239549035</ele>
        <time>2019-12-10T14:00:54Z</time>
      </trkpt>
      <trkpt lat="43.56602" lon="2.13152">
        <ele>156.33925975718</ele>
        <time>2019-12-10T14:01:03Z</time>
      </trkpt>
      <trkpt lat="43.56611" lon="2.13154">
        <ele>156.01916387042</ele>
        <time>2019-12-10T14:01:09Z</time>
      </trkpt>
      <trkpt lat="43.56619" lon="2.13153">
        <ele>158.67616724697</ele>
        <time>2019-12-10T14:01:15Z</time>
      </trkpt>
      <trkpt lat="43.56628" lon="2.13158">
        <ele>159.98014051344</ele>
        <time>2019-12-10T14:01:24Z</time>
      </trkpt>
      <trkpt lat="43.56636" lon="2.13157">
        <ele>160.85679360873</ele>
        <time>2019-12-10T14:01:33Z</time>
      </trkpt>
      <trkpt lat="43.56645" lon="2.13156">
        <ele>159.63822383822</ele>
        <time>2019-12-10T14:01:42Z</time>
      </trkpt>
      <trkpt lat="43.56652" lon="2.1316">
        <ele>159.23975527535</ele>
        <time>2019-12-10T14:01:50Z</time>
      </trkpt>
      <trkpt lat="43.5666" lon="2.13163">
        <ele>159.68026505509</ele>
        <time>2019-12-10T14:01:56Z</time>
      </trkpt>
      <trkpt lat="43.56668" lon="2.13167">
        <ele>159.1966221908</ele>
        <time>2019-12-10T14:02:03Z</time>
      </trkpt>
      <trkpt lat="43.56676" lon="2.1317">
        <ele>158.19334594004</ele>
        <time>2019-12-10T14:02:11Z</time>
      </trkpt>
      <trkpt lat="43.56684" lon="2.13173">
        <ele>158.35495507621</ele>
        <time>2019-12-10T14:02:17Z</time>
      </trkpt>
      <trkpt lat="43.56692" lon="2.13175">
        <ele>159.9919612626</ele>
        <time>2019-12-10T14:02:22Z</time>
      </trkpt>
      <trkpt lat="43.56699" lon="2.13178">
        <ele>160.25586395299</ele>
        <time>2019-12-10T14:02:29Z</time>
      </trkpt>
      <trkpt lat="43.56707" lon="2.13182">
        <ele>160.77917529021</ele>
        <time>2019-12-10T14:02:37Z</time>
      </trkpt>
      <trkpt lat="43.56715" lon="2.13186">
        <ele>160.31284457809</ele>
        <time>2019-12-10T14:02:44Z</time>
      </trkpt>
      <trkpt lat="43.56723" lon="2.1319">
        <ele>158.02846372423</ele>
        <time>2019-12-10T14:02:53Z</time>
      </trkpt>
      <trkpt lat="43.56732" lon="2.13193">
        <ele>159.45421146139</ele>
        <time>2019-12-10T14:03:00Z</time>
      </trkpt>
      <trkpt lat="43.5674" lon="2.13195">
        <ele>159.73518077546</ele>
        <time>2019-12-10T14:03:06Z</time>
      </trkpt>
      <trkpt lat="43.56748" lon="2.13196">
        <ele>160.60449185094</ele>
        <time>2019-12-10T14:03:14Z</time>
      </trkpt>
      <trkpt lat="43.56755" lon="2.13198">
        <ele>161.00904087325</ele>
        <time>2019-12-10T14:03:19Z</time>
      </trkpt>
      <trkpt lat="43.56763" lon="2.13201">
        <ele>161.23670530605</ele>
        <time>2019-12-10T14:03:24Z</time>
      </trkpt>
      <trkpt lat="43.56772" lon="2.13204">
        <ele>161.66308101849</ele>
        <time>2019-12-10T14:03:33Z</time>
      </trkpt>
      <trkpt lat="43.56779" lon="2.13209">
        <ele>162.97033422015</ele>
        <time>2019-12-10T14:03:40Z</time>
      </trkpt>
      <trkpt lat="43.56787" lon="2.13211">
        <ele>163.74076532693</ele>
        <time>2019-12-10T14:03:47Z</time>
      </trkpt>
      <trkpt lat="43.56795" lon="2.13214">
        <ele>164.65938826066</ele>
        <time>2019-12-10T14:03:54Z</time>
      </trkpt>
      <trkpt lat="43.56804" lon="2.13217">
        <ele>165.69497732443</ele>
        <time>2019-12-10T14:04:01Z</time>
      </trkpt>
      <trkpt lat="43.56813" lon="2.1322">
        <ele>165.67475588815</ele>
        <time>2019-12-10T14:04:07Z</time>
      </trkpt>
      <trkpt lat="43.56821" lon="2.13225">
        <ele>164.81822546447</ele>
        <time>2019-12-10T14:04:15Z</time>
      </trkpt>
      <trkpt lat="43.56829" lon="2.13226">
        <ele>164.85883990819</ele>
        <time>2019-12-10T14:04:21Z</time>
      </trkpt>
      <trkpt lat="43.56838" lon="2.13228">
        <ele>164.47305367747</ele>
        <time>2019-12-10T14:04:27Z</time>
      </trkpt>
      <trkpt lat="43.56846" lon="2.13231">
        <ele>163.78451513924</ele>
        <time>2019-12-10T14:04:34Z</time>
      </trkpt>
      <trkpt lat="43.56854" lon="2.13234">
        <ele>164.8658950114</ele>
        <time>2019-12-10T14:04:42Z</time>
      </trkpt>
      <trkpt lat="43.56862" lon="2.13237">
        <ele>166.78658058875</ele>
        <time>2019-12-10T14:04:50Z</time>
      </trkpt>
      <trkpt lat="43.56869" lon="2.13243">
        <ele>166.4345690746</ele>
        <time>2019-12-10T14:05:01Z</time>
      </trkpt>
      <trkpt lat="43.56878" lon="2.13246">
        <ele>166.94311355291</ele>
        <time>2019-12-10T14:05:11Z</time>
      </trkpt>
      <trkpt lat="43.56886" lon="2.13251">
        <ele>165.26876234377</ele>
        <time>2019-12-10T14:05:22Z</time>
      </trkpt>
      <trkpt lat="43.56894" lon="2.13256">
        <ele>165.54421025749</ele>
        <time>2019-12-10T14:05:28Z</time>
      </trkpt>
      <trkpt lat="43.56902" lon="2.13256">
        <ele>164.82494394755</ele>
        <time>2019-12-10T14:05:33Z</time>
      </trkpt>
      <trkpt lat="43.5691" lon="2.13256">
        <ele>164.65756310089</ele>
        <time>2019-12-10T14:05:42Z</time>
      </trkpt>
      <trkpt lat="43.56918" lon="2.1326">
        <ele>165.23563126893</ele>
        <time>2019-12-10T14:05:47Z</time>
      </trkpt>
      <trkpt lat="43.56923" lon="2.13267">
        <ele>165.10927754279</ele>
        <time>2019-12-10T14:05:53Z</time>
      </trkpt>
      <trkpt lat="43.56928" lon="2.13276">
        <ele>164.59449056526</ele>
        <time>2019-12-10T14:05:58Z</time>
      </trkpt>
      <trkpt lat="43.56933" lon="2.13285">
        <ele>166.2227147633</ele>
        <time>2019-12-10T14:06:07Z</time>
      </trkpt>
      <trkpt lat="43.56936" lon="2.13297">
        <ele>163.98920593546</ele>
        <time>2019-12-10T14:06:21Z</time>
      </trkpt>
      <trkpt lat="43.56937" lon="2.13308">
        <ele>163.07822617767</ele>
        <time>2019-12-10T14:06:29Z</time>
      </trkpt>
      <trkpt lat="43.56943" lon="2.13317">
        <ele>162.53861111058</ele>
        <time>2019-12-10T14:06:37Z</time>
      </trkpt>
      <trkpt lat="43.56948" lon="2.13325">
        <ele>163.43735201331</ele>
        <time>2019-12-10T14:06:43Z</time>
      </trkpt>
      <trkpt lat="43.56953" lon="2.13336">
        <ele>163.16773200099</ele>
        <time>2019-12-10T14:06:52Z</time>
      </trkpt>
      <trkpt lat="43.56959" lon="2.13343">
        <ele>164.69392532871</ele>
        <time>2019-12-10T14:06:59Z</time>
      </trkpt>
      <trkpt lat="43.56965" lon="2.13351">
        <ele>165.73459643988</ele>
        <time>2019-12-10T14:07:07Z</time>
      </trkpt>
      <trkpt lat="43.56971" lon="2.1336">
        <ele>166.60972206156</ele>
        <time>2019-12-10T14:07:15Z</time>
      </trkpt>
      <trkpt lat="43.56977" lon="2.13369">
        <ele>167.06514104877</ele>
        <time>2019-12-10T14:07:23Z</time>
      </trkpt>
      <trkpt lat="43.56973" lon="2.1338">
        <ele>167.63623953762</ele>
        <time>2019-12-10T14:07:31Z</time>
      </trkpt>
      <trkpt lat="43.56968" lon="2.13389">
        <ele>168.05632607194</ele>
        <time>2019-12-10T14:07:38Z</time>
      </trkpt>
      <trkpt lat="43.56963" lon="2.13398">
        <ele>168.27865083529</ele>
        <time>2019-12-10T14:07:46Z</time>
      </trkpt>
      <trkpt lat="43.56957" lon="2.13408">
        <ele>168.40260719878</ele>
        <time>2019-12-10T14:07:53Z</time>
      </trkpt>
      <trkpt lat="43.56952" lon="2.13418">
        <ele>168.36918413154</ele>
        <time>2019-12-10T14:08:01Z</time>
      </trkpt>
      <trkpt lat="43.56946" lon="2.13427">
        <ele>168.32365659316</ele>
        <time>2019-12-10T14:08:09Z</time>
      </trkpt>
      <trkpt lat="43.56942" lon="2.13436">
        <ele>169.33767820321</ele>
        <time>2019-12-10T14:08:16Z</time>
      </trkpt>
      <trkpt lat="43.56935" lon="2.13444">
        <ele>169.24453373201</ele>
        <time>2019-12-10T14:08:25Z</time>
      </trkpt>
      <trkpt lat="43.56929" lon="2.13452">
        <ele>168.0632610156</ele>
        <time>2019-12-10T14:08:32Z</time>
      </trkpt>
      <trkpt lat="43.56923" lon="2.1346">
        <ele>166.74713923507</ele>
        <time>2019-12-10T14:08:40Z</time>
      </trkpt>
      <trkpt lat="43.56919" lon="2.13471">
        <ele>166.52791446571</ele>
        <time>2019-12-10T14:08:48Z</time>
      </trkpt>
      <trkpt lat="43.56914" lon="2.13479">
        <ele>166.22770910228</ele>
        <time>2019-12-10T14:08:54Z</time>
      </trkpt>
      <trkpt lat="43.56909" lon="2.13487">
        <ele>167.33975367427</ele>
        <time>2019-12-10T14:09:00Z</time>
      </trkpt>
      <trkpt lat="43.56903" lon="2.13495">
        <ele>168.46706210172</ele>
        <time>2019-12-10T14:09:06Z</time>
      </trkpt>
      <trkpt lat="43.56897" lon="2.13502">
        <ele>168.81865640817</ele>
        <time>2019-12-10T14:09:15Z</time>
      </trkpt>
      <trkpt lat="43.5689" lon="2.1351">
        <ele>167.88368442948</ele>
        <time>2019-12-10T14:09:24Z</time>
      </trkpt>
      <trkpt lat="43.56884" lon="2.13518">
        <ele>168.95444899838</ele>
        <time>2019-12-10T14:09:32Z</time>
      </trkpt>
      <trkpt lat="43.5688" lon="2.13527">
        <ele>168.83340424638</ele>
        <time>2019-12-10T14:09:38Z</time>
      </trkpt>
      <trkpt lat="43.56873" lon="2.13535">
        <ele>168.33375593357</ele>
        <time>2019-12-10T14:09:45Z</time>
      </trkpt>
      <trkpt lat="43.56868" lon="2.13543">
        <ele>167.6622326764</ele>
        <time>2019-12-10T14:09:51Z</time>
      </trkpt>
      <trkpt lat="43.56862" lon="2.13551">
        <ele>168.26577617192</ele>
        <time>2019-12-10T14:09:58Z</time>
      </trkpt>
      <trkpt lat="43.56857" lon="2.13559">
        <ele>168.51517202418</ele>
        <time>2019-12-10T14:10:07Z</time>
      </trkpt>
      <trkpt lat="43.5685" lon="2.13566">
        <ele>167.0716207929</ele>
        <time>2019-12-10T14:10:36Z</time>
      </trkpt>
      <trkpt lat="43.56845" lon="2.13558">
        <ele>162.76069390512</ele>
        <time>2019-12-10T14:12:36Z</time>
      </trkpt>
      <trkpt lat="43.56838" lon="2.13552">
        <ele>161.17252556169</ele>
        <time>2019-12-10T14:12:42Z</time>
      </trkpt>
      <trkpt lat="43.56829" lon="2.13548">
        <ele>161.77597760534</ele>
        <time>2019-12-10T14:12:50Z</time>
      </trkpt>
      <trkpt lat="43.56822" lon="2.13545">
        <ele>161.5883797973</ele>
        <time>2019-12-10T14:12:57Z</time>
      </trkpt>
      <trkpt lat="43.56814" lon="2.13541">
        <ele>161.83449257519</ele>
        <time>2019-12-10T14:13:05Z</time>
      </trkpt>
      <trkpt lat="43.56807" lon="2.13539">
        <ele>162.62352975201</ele>
        <time>2019-12-10T14:13:12Z</time>
      </trkpt>
      <trkpt lat="43.56799" lon="2.13537">
        <ele>162.40414882576</ele>
        <time>2019-12-10T14:13:18Z</time>
      </trkpt>
      <trkpt lat="43.5679" lon="2.13533">
        <ele>161.74221183576</ele>
        <time>2019-12-10T14:13:25Z</time>
      </trkpt>
      <trkpt lat="43.56783" lon="2.13529">
        <ele>160.80303377109</ele>
        <time>2019-12-10T14:13:32Z</time>
      </trkpt>
      <trkpt lat="43.56775" lon="2.13524">
        <ele>160.86110296273</ele>
        <time>2019-12-10T14:13:39Z</time>
      </trkpt>
      <trkpt lat="43.56767" lon="2.1352">
        <ele>160.13275376806</ele>
        <time>2019-12-10T14:13:47Z</time>
      </trkpt>
      <trkpt lat="43.56759" lon="2.13516">
        <ele>159.06973553584</ele>
        <time>2019-12-10T14:13:56Z</time>
      </trkpt>
      <trkpt lat="43.56751" lon="2.13511">
        <ele>161.53011961049</ele>
        <time>2019-12-10T14:14:04Z</time>
      </trkpt>
      <trkpt lat="43.56743" lon="2.1351">
        <ele>162.6107490027</ele>
        <time>2019-12-10T14:14:11Z</time>
      </trkpt>
      <trkpt lat="43.56735" lon="2.13507">
        <ele>163.27367950463</ele>
        <time>2019-12-10T14:14:19Z</time>
      </trkpt>
      <trkpt lat="43.56726" lon="2.13503">
        <ele>163.95576259764</ele>
        <time>2019-12-10T14:14:27Z</time>
      </trkpt>
      <trkpt lat="43.56718" lon="2.135">
        <ele>163.93128407255</ele>
        <time>2019-12-10T14:14:34Z</time>
      </trkpt>
      <trkpt lat="43.56711" lon="2.13496">
        <ele>164.56534018722</ele>
        <time>2019-12-10T14:14:40Z</time>
      </trkpt>
      <trkpt lat="43.56702" lon="2.13494">
        <ele>165.17024639438</ele>
        <time>2019-12-10T14:14:46Z</time>
      </trkpt>
      <trkpt lat="43.56694" lon="2.13492">
        <ele>164.90007873301</ele>
        <time>2019-12-10T14:14:52Z</time>
      </trkpt>
      <trkpt lat="43.56687" lon="2.13487">
        <ele>163.77947497061</ele>
        <time>2019-12-10T14:15:00Z</time>
      </trkpt>
      <trkpt lat="43.56679" lon="2.13484">
        <ele>163.18774059987</ele>
        <time>2019-12-10T14:15:07Z</time>
      </trkpt>
      <trkpt lat="43.56671" lon="2.13481">
        <ele>163.52797792967</ele>
        <time>2019-12-10T14:15:14Z</time>
      </trkpt>
      <trkpt lat="43.56663" lon="2.13482">
        <ele>165.1489593892</ele>
        <time>2019-12-10T14:15:22Z</time>
      </trkpt>
      <trkpt lat="43.56655" lon="2.13479">
        <ele>164.57315429897</ele>
        <time>2019-12-10T14:15:30Z</time>
      </trkpt>
      <trkpt lat="43.56647" lon="2.13475">
        <ele>164.57362484884</ele>
        <time>2019-12-10T14:15:38Z</time>
      </trkpt>
      <trkpt lat="43.56639" lon="2.13471">
        <ele>164.86387780229</ele>
        <time>2019-12-10T14:15:45Z</time>
      </trkpt>
      <trkpt lat="43.56631" lon="2.1347">
        <ele>165.91978936696</ele>
        <time>2019-12-10T14:15:51Z</time>
      </trkpt>
      <trkpt lat="43.56624" lon="2.1347">
        <ele>166.05581778035</ele>
        <time>2019-12-10T14:15:56Z</time>
      </trkpt>
      <trkpt lat="43.56615" lon="2.13469">
        <ele>166.37530056853</ele>
        <time>2019-12-10T14:16:03Z</time>
      </trkpt>
      <trkpt lat="43.56607" lon="2.1347">
        <ele>169.47915711783</ele>
        <time>2019-12-10T14:16:11Z</time>
      </trkpt>
      <trkpt lat="43.56601" lon="2.13479">
        <ele>168.49635720652</ele>
        <time>2019-12-10T14:16:20Z</time>
      </trkpt>
      <trkpt lat="43.56597" lon="2.13489">
        <ele>166.62393782863</ele>
        <time>2019-12-10T14:16:26Z</time>
      </trkpt>
      <trkpt lat="43.56593" lon="2.135">
        <ele>166.5981244775</ele>
        <time>2019-12-10T14:16:33Z</time>
      </trkpt>
      <trkpt lat="43.56589" lon="2.13509">
        <ele>167.76451576263</ele>
        <time>2019-12-10T14:16:39Z</time>
      </trkpt>
      <trkpt lat="43.56584" lon="2.13518">
        <ele>169.74598245818</ele>
        <time>2019-12-10T14:16:45Z</time>
      </trkpt>
      <trkpt lat="43.56577" lon="2.13526">
        <ele>170.67755042662</ele>
        <time>2019-12-10T14:16:53Z</time>
      </trkpt>
      <trkpt lat="43.56571" lon="2.13534">
        <ele>171.60106139763</ele>
        <time>2019-12-10T14:17:01Z</time>
      </trkpt>
      <trkpt lat="43.56569" lon="2.13545">
        <ele>171.23247427343</ele>
        <time>2019-12-10T14:17:09Z</time>
      </trkpt>
      <trkpt lat="43.56564" lon="2.13553">
        <ele>171.95354799778</ele>
        <time>2019-12-10T14:17:15Z</time>
      </trkpt>
      <trkpt lat="43.56558" lon="2.13562">
        <ele>171.97011399361</ele>
        <time>2019-12-10T14:17:23Z</time>
      </trkpt>
      <trkpt lat="43.56551" lon="2.1357">
        <ele>171.74078109491</ele>
        <time>2019-12-10T14:17:30Z</time>
      </trkpt>
      <trkpt lat="43.56545" lon="2.13577">
        <ele>172.25489504647</ele>
        <time>2019-12-10T14:17:41Z</time>
      </trkpt>
      <trkpt lat="43.56541" lon="2.13587">
        <ele>173.71719552827</ele>
        <time>2019-12-10T14:17:50Z</time>
      </trkpt>
      <trkpt lat="43.56536" lon="2.13596">
        <ele>173.28666987793</ele>
        <time>2019-12-10T14:17:58Z</time>
      </trkpt>
      <trkpt lat="43.56531" lon="2.13604">
        <ele>172.74073371873</ele>
        <time>2019-12-10T14:18:04Z</time>
      </trkpt>
      <trkpt lat="43.56527" lon="2.13612">
        <ele>173.16134891553</ele>
        <time>2019-12-10T14:18:09Z</time>
      </trkpt>
      <trkpt lat="43.56522" lon="2.13621">
        <ele>171.98869052615</ele>
        <time>2019-12-10T14:18:16Z</time>
      </trkpt>
      <trkpt lat="43.56517" lon="2.1363">
        <ele>172.29263271505</ele>
        <time>2019-12-10T14:18:23Z</time>
      </trkpt>
      <trkpt lat="43.56513" lon="2.13641">
        <ele>173.29570557765</ele>
        <time>2019-12-10T14:18:34Z</time>
      </trkpt>
      <trkpt lat="43.56507" lon="2.13649">
        <ele>173.19215135604</ele>
        <time>2019-12-10T14:18:40Z</time>
      </trkpt>
      <trkpt lat="43.56501" lon="2.13657">
        <ele>175.84355042251</ele>
        <time>2019-12-10T14:18:47Z</time>
      </trkpt>
      <trkpt lat="43.56498" lon="2.13669">
        <ele>178.1688192387</ele>
        <time>2019-12-10T14:18:59Z</time>
      </trkpt>
      <trkpt lat="43.56493" lon="2.13677">
        <ele>177.50645049505</ele>
        <time>2019-12-10T14:19:07Z</time>
      </trkpt>
      <trkpt lat="43.56488" lon="2.13685">
        <ele>177.24414098248</ele>
        <time>2019-12-10T14:19:16Z</time>
      </trkpt>
      <trkpt lat="43.56482" lon="2.13694">
        <ele>178.37691919846</ele>
        <time>2019-12-10T14:19:22Z</time>
      </trkpt>
      <trkpt lat="43.56473" lon="2.13696">
        <ele>182.85922276428</ele>
        <time>2019-12-10T14:19:36Z</time>
      </trkpt>
      <trkpt lat="43.5647" lon="2.13684">
        <ele>180.70286253604</ele>
        <time>2019-12-10T14:19:46Z</time>
      </trkpt>
      <trkpt lat="43.56465" lon="2.13674">
        <ele>177.91198431598</ele>
        <time>2019-12-10T14:19:54Z</time>
      </trkpt>
      <trkpt lat="43.56459" lon="2.13664">
        <ele>176.11808683929</ele>
        <time>2019-12-10T14:20:04Z</time>
      </trkpt>
      <trkpt lat="43.56454" lon="2.13657">
        <ele>174.8995916244</ele>
        <time>2019-12-10T14:20:10Z</time>
      </trkpt>
      <trkpt lat="43.56447" lon="2.13649">
        <ele>173.63993763241</ele>
        <time>2019-12-10T14:20:16Z</time>
      </trkpt>
      <trkpt lat="43.56443" lon="2.13639">
        <ele>173.38325458785</ele>
        <time>2019-12-10T14:20:33Z</time>
      </trkpt>
      <trkpt lat="43.56437" lon="2.13631">
        <ele>173.40253251742</ele>
        <time>2019-12-10T14:20:40Z</time>
      </trkpt>
      <trkpt lat="43.56431" lon="2.13623">
        <ele>170.9378423736</ele>
        <time>2019-12-10T14:20:47Z</time>
      </trkpt>
      <trkpt lat="43.56427" lon="2.13613">
        <ele>171.67657161293</ele>
        <time>2019-12-10T14:21:04Z</time>
      </trkpt>
      <trkpt lat="43.56423" lon="2.13603">
        <ele>170.7850601711</ele>
        <time>2019-12-10T14:21:12Z</time>
      </trkpt>
      <trkpt lat="43.56418" lon="2.13593">
        <ele>172.20499381338</ele>
        <time>2019-12-10T14:21:20Z</time>
      </trkpt>
      <trkpt lat="43.56413" lon="2.13585">
        <ele>172.24362430227</ele>
        <time>2019-12-10T14:21:28Z</time>
      </trkpt>
      <trkpt lat="43.56408" lon="2.13576">
        <ele>173.52322745749</ele>
        <time>2019-12-10T14:21:35Z</time>
      </trkpt>
      <trkpt lat="43.56402" lon="2.13566">
        <ele>174.48921016159</ele>
        <time>2019-12-10T14:21:47Z</time>
      </trkpt>
      <trkpt lat="43.56397" lon="2.13557">
        <ele>175.58192045006</ele>
        <time>2019-12-10T14:21:57Z</time>
      </trkpt>
      <trkpt lat="43.56392" lon="2.13547">
        <ele>174.01531484365</ele>
        <time>2019-12-10T14:22:15Z</time>
      </trkpt>
      <trkpt lat="43.56385" lon="2.13539">
        <ele>172.95460544409</ele>
        <time>2019-12-10T14:22:21Z</time>
      </trkpt>
      <trkpt lat="43.56378" lon="2.13532">
        <ele>172.85462445768</ele>
        <time>2019-12-10T14:22:29Z</time>
      </trkpt>
      <trkpt lat="43.56369" lon="2.13528">
        <ele>173.89249088685</ele>
        <time>2019-12-10T14:22:47Z</time>
      </trkpt>
      <trkpt lat="43.56361" lon="2.13525">
        <ele>171.68933782338</ele>
        <time>2019-12-10T14:22:55Z</time>
      </trkpt>
      <trkpt lat="43.56353" lon="2.13527">
        <ele>173.96870737038</ele>
        <time>2019-12-10T14:23:04Z</time>
      </trkpt>
      <trkpt lat="43.56345" lon="2.13527">
        <ele>174.64335400653</ele>
        <time>2019-12-10T14:23:10Z</time>
      </trkpt>
      <trkpt lat="43.56336" lon="2.13526">
        <ele>174.71048667694</ele>
        <time>2019-12-10T14:23:18Z</time>
      </trkpt>
      <trkpt lat="43.56328" lon="2.13526">
        <ele>174.53867151695</ele>
        <time>2019-12-10T14:23:26Z</time>
      </trkpt>
      <trkpt lat="43.56319" lon="2.13527">
        <ele>175.47204703086</ele>
        <time>2019-12-10T14:23:33Z</time>
      </trkpt>
      <trkpt lat="43.56311" lon="2.13528">
        <ele>175.70129253805</ele>
        <time>2019-12-10T14:23:39Z</time>
      </trkpt>
      <trkpt lat="43.56302" lon="2.13527">
        <ele>174.42517862664</ele>
        <time>2019-12-10T14:23:47Z</time>
      </trkpt>
      <trkpt lat="43.56294" lon="2.13527">
        <ele>174.17117374031</ele>
        <time>2019-12-10T14:23:55Z</time>
      </trkpt>
      <trkpt lat="43.56285" lon="2.13523">
        <ele>174.62673114534</ele>
        <time>2019-12-10T14:24:05Z</time>
      </trkpt>
      <trkpt lat="43.56277" lon="2.13525">
        <ele>175.99822562328</ele>
        <time>2019-12-10T14:24:12Z</time>
      </trkpt>
      <trkpt lat="43.56269" lon="2.13525">
        <ele>175.12829781688</ele>
        <time>2019-12-10T14:24:20Z</time>
      </trkpt>
      <trkpt lat="43.5626" lon="2.13524">
        <ele>176.85854129124</ele>
        <time>2019-12-10T14:24:28Z</time>
      </trkpt>
      <trkpt lat="43.56252" lon="2.13524">
        <ele>178.62865732181</ele>
        <time>2019-12-10T14:24:39Z</time>
      </trkpt>
      <trkpt lat="43.56244" lon="2.13524">
        <ele>180.23966831425</ele>
        <time>2019-12-10T14:24:47Z</time>
      </trkpt>
      <trkpt lat="43.56235" lon="2.13521">
        <ele>180.15202271903</ele>
        <time>2019-12-10T14:24:54Z</time>
      </trkpt>
      <trkpt lat="43.56227" lon="2.13521">
        <ele>181.54037448246</ele>
        <time>2019-12-10T14:25:02Z</time>
      </trkpt>
      <trkpt lat="43.56218" lon="2.13516">
        <ele>183.98294823669</ele>
        <time>2019-12-10T14:25:49Z</time>
      </trkpt>
      <trkpt lat="43.5621" lon="2.13515">
        <ele>181.65559504159</ele>
        <time>2019-12-10T14:25:57Z</time>
      </trkpt>
      <trkpt lat="43.56202" lon="2.13512">
        <ele>179.23213657102</ele>
        <time>2019-12-10T14:26:03Z</time>
      </trkpt>
      <trkpt lat="43.56194" lon="2.13514">
        <ele>179.58304875419</ele>
        <time>2019-12-10T14:26:12Z</time>
      </trkpt>
      <trkpt lat="43.56186" lon="2.13511">
        <ele>178.71495609287</ele>
        <time>2019-12-10T14:26:22Z</time>
      </trkpt>
      <trkpt lat="43.56177" lon="2.13508">
        <ele>174.88145272753</ele>
        <time>2019-12-10T14:26:32Z</time>
      </trkpt>
      <trkpt lat="43.56169" lon="2.13507">
        <ele>173.77388483487</ele>
        <time>2019-12-10T14:26:39Z</time>
      </trkpt>
      <trkpt lat="43.56161" lon="2.13503">
        <ele>173.91163067561</ele>
        <time>2019-12-10T14:26:48Z</time>
      </trkpt>
      <trkpt lat="43.56153" lon="2.13502">
        <ele>174.84815695627</ele>
        <time>2019-12-10T14:26:56Z</time>
      </trkpt>
      <trkpt lat="43.56144" lon="2.13502">
        <ele>174.8196354875</ele>
        <time>2019-12-10T14:27:04Z</time>
      </trkpt>
      <trkpt lat="43.56136" lon="2.13498">
        <ele>176.25304110602</ele>
        <time>2019-12-10T14:27:15Z</time>
      </trkpt>
      <trkpt lat="43.56128" lon="2.13495">
        <ele>175.70047704293</ele>
        <time>2019-12-10T14:27:23Z</time>
      </trkpt>
      <trkpt lat="43.5612" lon="2.13495">
        <ele>175.22238616553</ele>
        <time>2019-12-10T14:27:29Z</time>
      </trkpt>
      <trkpt lat="43.56112" lon="2.13493">
        <ele>174.89303929109</ele>
        <time>2019-12-10T14:27:37Z</time>
      </trkpt>
      <trkpt lat="43.56104" lon="2.13491">
        <ele>173.71020907973</ele>
        <time>2019-12-10T14:27:44Z</time>
      </trkpt>
      <trkpt lat="43.56096" lon="2.13488">
        <ele>173.5659554604</ele>
        <time>2019-12-10T14:27:51Z</time>
      </trkpt>
      <trkpt lat="43.56088" lon="2.13486">
        <ele>172.07108109927</ele>
        <time>2019-12-10T14:28:00Z</time>
      </trkpt>
      <trkpt lat="43.56079" lon="2.13484">
        <ele>171.84725081949</ele>
        <time>2019-12-10T14:28:09Z</time>
      </trkpt>
      <trkpt lat="43.56071" lon="2.13483">
        <ele>170.74826361786</ele>
        <time>2019-12-10T14:28:18Z</time>
      </trkpt>
      <trkpt lat="43.56062" lon="2.13483">
        <ele>172.13872410152</ele>
        <time>2019-12-10T14:28:27Z</time>
      </trkpt>
      <trkpt lat="43.56053" lon="2.13483">
        <ele>172.15514233848</ele>
        <time>2019-12-10T14:28:35Z</time>
      </trkpt>
      <trkpt lat="43.56045" lon="2.13485">
        <ele>172.41511258465</ele>
        <time>2019-12-10T14:28:41Z</time>
      </trkpt>
      <trkpt lat="43.56036" lon="2.13485">
        <ele>172.13706241696</ele>
        <time>2019-12-10T14:28:58Z</time>
      </trkpt>
      <trkpt lat="43.56028" lon="2.13485">
        <ele>172.58693017874</ele>
        <time>2019-12-10T14:29:29Z</time>
      </trkpt>
      <trkpt lat="43.5602" lon="2.1348">
        <ele>170.44859774063</ele>
        <time>2019-12-10T14:29:38Z</time>
      </trkpt>
      <trkpt lat="43.56013" lon="2.13474">
        <ele>168.88828220904</ele>
        <time>2019-12-10T14:29:47Z</time>
      </trkpt>
      <trkpt lat="43.56004" lon="2.13471">
        <ele>169.81923393842</ele>
        <time>2019-12-10T14:30:03Z</time>
      </trkpt>
      <trkpt lat="43.55999" lon="2.13462">
        <ele>169.85071041358</ele>
        <time>2019-12-10T14:30:11Z</time>
      </trkpt>
      <trkpt lat="43.55993" lon="2.13456">
        <ele>167.63409715942</ele>
        <time>2019-12-10T14:30:18Z</time>
      </trkpt>
      <trkpt lat="43.55986" lon="2.13448">
        <ele>168.19769307387</ele>
        <time>2019-12-10T14:30:27Z</time>
      </trkpt>
      <trkpt lat="43.55979" lon="2.13441">
        <ele>169.59759675266</ele>
        <time>2019-12-10T14:30:36Z</time>
      </trkpt>
      <trkpt lat="43.55973" lon="2.13433">
        <ele>172.31429136292</ele>
        <time>2019-12-10T14:30:44Z</time>
      </trkpt>
      <trkpt lat="43.55965" lon="2.13429">
        <ele>175.42157570204</ele>
        <time>2019-12-10T14:30:53Z</time>
      </trkpt>
      <trkpt lat="43.55958" lon="2.13434">
        <ele>173.55675967929</ele>
        <time>2019-12-10T14:31:02Z</time>
      </trkpt>
      <trkpt lat="43.5595" lon="2.13439">
        <ele>172.26249714001</ele>
        <time>2019-12-10T14:31:10Z</time>
      </trkpt>
      <trkpt lat="43.55941" lon="2.1344">
        <ele>173.41563973471</ele>
        <time>2019-12-10T14:31:21Z</time>
      </trkpt>
      <trkpt lat="43.55935" lon="2.13434">
        <ele>173.95923570942</ele>
        <time>2019-12-10T14:31:33Z</time>
      </trkpt>
      <trkpt lat="43.55926" lon="2.13433">
        <ele>176.02414838898</ele>
        <time>2019-12-10T14:31:41Z</time>
      </trkpt>
      <trkpt lat="43.55919" lon="2.13426">
        <ele>177.90288875796</ele>
        <time>2019-12-10T14:31:50Z</time>
      </trkpt>
      <trkpt lat="43.55911" lon="2.13424">
        <ele>178.41015570516</ele>
        <time>2019-12-10T14:31:59Z</time>
      </trkpt>
      <trkpt lat="43.55903" lon="2.13425">
        <ele>177.60686356794</ele>
        <time>2019-12-10T14:32:12Z</time>
      </trkpt>
      <trkpt lat="43.55897" lon="2.13432">
        <ele>177.91496880215</ele>
        <time>2019-12-10T14:32:19Z</time>
      </trkpt>
      <trkpt lat="43.55891" lon="2.13441">
        <ele>177.78002137929</ele>
        <time>2019-12-10T14:32:27Z</time>
      </trkpt>
      <trkpt lat="43.55885" lon="2.13451">
        <ele>179.03272743228</ele>
        <time>2019-12-10T14:32:36Z</time>
      </trkpt>
      <trkpt lat="43.5588" lon="2.1346">
        <ele>179.63329553656</ele>
        <time>2019-12-10T14:32:45Z</time>
      </trkpt>
      <trkpt lat="43.55875" lon="2.13469">
        <ele>178.89262484439</ele>
        <time>2019-12-10T14:32:53Z</time>
      </trkpt>
      <trkpt lat="43.55868" lon="2.13475">
        <ele>176.74017449361</ele>
        <time>2019-12-10T14:33:00Z</time>
      </trkpt>
      <trkpt lat="43.55864" lon="2.13484">
        <ele>176.85487714016</ele>
        <time>2019-12-10T14:33:07Z</time>
      </trkpt>
      <trkpt lat="43.5586" lon="2.13495">
        <ele>178.31155979569</ele>
        <time>2019-12-10T14:33:14Z</time>
      </trkpt>
      <trkpt lat="43.55856" lon="2.13505">
        <ele>177.91433017438</ele>
        <time>2019-12-10T14:33:20Z</time>
      </trkpt>
      <trkpt lat="43.5585" lon="2.13513">
        <ele>177.34820401016</ele>
        <time>2019-12-10T14:33:27Z</time>
      </trkpt>
      <trkpt lat="43.55846" lon="2.13523">
        <ele>177.42686004531</ele>
        <time>2019-12-10T14:33:35Z</time>
      </trkpt>
      <trkpt lat="43.55841" lon="2.13532">
        <ele>177.33861105668</ele>
        <time>2019-12-10T14:33:45Z</time>
      </trkpt>
      <trkpt lat="43.55836" lon="2.13543">
        <ele>176.94161232826</ele>
        <time>2019-12-10T14:33:52Z</time>
      </trkpt>
      <trkpt lat="43.55832" lon="2.13553">
        <ele>179.40166993792</ele>
        <time>2019-12-10T14:34:00Z</time>
      </trkpt>
      <trkpt lat="43.5583" lon="2.13565">
        <ele>181.08786908458</ele>
        <time>2019-12-10T14:34:07Z</time>
      </trkpt>
      <trkpt lat="43.55826" lon="2.13576">
        <ele>181.11717498312</ele>
        <time>2019-12-10T14:34:13Z</time>
      </trkpt>
      <trkpt lat="43.5582" lon="2.13584">
        <ele>181.13468527906</ele>
        <time>2019-12-10T14:34:22Z</time>
      </trkpt>
      <trkpt lat="43.55815" lon="2.13592">
        <ele>180.98859837338</ele>
        <time>2019-12-10T14:34:34Z</time>
      </trkpt>
      <trkpt lat="43.55809" lon="2.13602">
        <ele>179.39843540578</ele>
        <time>2019-12-10T14:34:41Z</time>
      </trkpt>
      <trkpt lat="43.55806" lon="2.13612">
        <ele>178.76269609475</ele>
        <time>2019-12-10T14:34:49Z</time>
      </trkpt>
      <trkpt lat="43.55803" lon="2.13623">
        <ele>180.67722294846</ele>
        <time>2019-12-10T14:34:57Z</time>
      </trkpt>
      <trkpt lat="43.55797" lon="2.13632">
        <ele>180.65804932609</ele>
        <time>2019-12-10T14:35:07Z</time>
      </trkpt>
      <trkpt lat="43.55792" lon="2.13642">
        <ele>179.50756918375</ele>
        <time>2019-12-10T14:35:14Z</time>
      </trkpt>
      <trkpt lat="43.55784" lon="2.13644">
        <ele>176.93077950285</ele>
        <time>2019-12-10T14:35:22Z</time>
      </trkpt>
      <trkpt lat="43.55777" lon="2.1365">
        <ele>175.99275725895</ele>
        <time>2019-12-10T14:35:30Z</time>
      </trkpt>
      <trkpt lat="43.5577" lon="2.13656">
        <ele>175.73740106245</ele>
        <time>2019-12-10T14:35:38Z</time>
      </trkpt>
      <trkpt lat="43.55764" lon="2.13664">
        <ele>175.58592576942</ele>
        <time>2019-12-10T14:35:46Z</time>
      </trkpt>
      <trkpt lat="43.55758" lon="2.13673">
        <ele>175.84056392349</ele>
        <time>2019-12-10T14:35:53Z</time>
      </trkpt>
      <trkpt lat="43.55752" lon="2.13681">
        <ele>175.83589281258</ele>
        <time>2019-12-10T14:36:00Z</time>
      </trkpt>
      <trkpt lat="43.55748" lon="2.13691">
        <ele>175.28312845167</ele>
        <time>2019-12-10T14:36:09Z</time>
      </trkpt>
      <trkpt lat="43.55742" lon="2.137">
        <ele>176.2649729886</ele>
        <time>2019-12-10T14:36:18Z</time>
      </trkpt>
      <trkpt lat="43.55737" lon="2.1371">
        <ele>175.69533748125</ele>
        <time>2019-12-10T14:36:26Z</time>
      </trkpt>
      <trkpt lat="43.55732" lon="2.1372">
        <ele>174.36445500867</ele>
        <time>2019-12-10T14:36:34Z</time>
      </trkpt>
      <trkpt lat="43.55728" lon="2.1373">
        <ele>173.56899838729</ele>
        <time>2019-12-10T14:36:42Z</time>
      </trkpt>
      <trkpt lat="43.55725" lon="2.13741">
        <ele>173.29450663441</ele>
        <time>2019-12-10T14:36:50Z</time>
      </trkpt>
      <trkpt lat="43.55721" lon="2.1375">
        <ele>173.64434352005</ele>
        <time>2019-12-10T14:36:57Z</time>
      </trkpt>
      <trkpt lat="43.55717" lon="2.1376">
        <ele>175.11039767595</ele>
        <time>2019-12-10T14:37:05Z</time>
      </trkpt>
      <trkpt lat="43.55714" lon="2.13771">
        <ele>176.0842968274</ele>
        <time>2019-12-10T14:37:12Z</time>
      </trkpt>
      <trkpt lat="43.55709" lon="2.13781">
        <ele>175.76689567177</ele>
        <time>2019-12-10T14:37:19Z</time>
      </trkpt>
      <trkpt lat="43.55705" lon="2.13791">
        <ele>178.17566230509</ele>
        <time>2019-12-10T14:37:26Z</time>
      </trkpt>
      <trkpt lat="43.55702" lon="2.13803">
        <ele>180.32683992017</ele>
        <time>2019-12-10T14:37:33Z</time>
      </trkpt>
      <trkpt lat="43.557" lon="2.13813">
        <ele>181.82390544537</ele>
        <time>2019-12-10T14:37:40Z</time>
      </trkpt>
      <trkpt lat="43.55696" lon="2.13824">
        <ele>181.67744524113</ele>
        <time>2019-12-10T14:37:48Z</time>
      </trkpt>
      <trkpt lat="43.55692" lon="2.13834">
        <ele>182.16094342718</ele>
        <time>2019-12-10T14:37:55Z</time>
      </trkpt>
      <trkpt lat="43.55686" lon="2.13841">
        <ele>180.6747619016</ele>
        <time>2019-12-10T14:38:01Z</time>
      </trkpt>
      <trkpt lat="43.55681" lon="2.13851">
        <ele>179.94851916232</ele>
        <time>2019-12-10T14:38:10Z</time>
      </trkpt>
      <trkpt lat="43.55674" lon="2.13859">
        <ele>179.9648678161</ele>
        <time>2019-12-10T14:38:18Z</time>
      </trkpt>
      <trkpt lat="43.55669" lon="2.13867">
        <ele>179.2986535086</ele>
        <time>2019-12-10T14:38:25Z</time>
      </trkpt>
      <trkpt lat="43.55662" lon="2.13874">
        <ele>179.12924391768</ele>
        <time>2019-12-10T14:38:33Z</time>
      </trkpt>
      <trkpt lat="43.55656" lon="2.13882">
        <ele>178.35516453599</ele>
        <time>2019-12-10T14:38:39Z</time>
      </trkpt>
      <trkpt lat="43.5565" lon="2.1389">
        <ele>178.82986974823</ele>
        <time>2019-12-10T14:38:46Z</time>
      </trkpt>
      <trkpt lat="43.55645" lon="2.139">
        <ele>178.89459775261</ele>
        <time>2019-12-10T14:38:54Z</time>
      </trkpt>
      <trkpt lat="43.55637" lon="2.13904">
        <ele>179.10473893822</ele>
        <time>2019-12-10T14:39:03Z</time>
      </trkpt>
      <trkpt lat="43.5563" lon="2.13912">
        <ele>178.88829173304</ele>
        <time>2019-12-10T14:39:09Z</time>
      </trkpt>
      <trkpt lat="43.55623" lon="2.13918">
        <ele>178.34152914344</ele>
        <time>2019-12-10T14:39:16Z</time>
      </trkpt>
      <trkpt lat="43.55615" lon="2.13924">
        <ele>178.16695218751</ele>
        <time>2019-12-10T14:39:23Z</time>
      </trkpt>
      <trkpt lat="43.55607" lon="2.13928">
        <ele>181.1268609187</ele>
        <time>2019-12-10T14:39:33Z</time>
      </trkpt>
      <trkpt lat="43.55599" lon="2.13928">
        <ele>180.92312616932</ele>
        <time>2019-12-10T14:39:41Z</time>
      </trkpt>
      <trkpt lat="43.55591" lon="2.13924">
        <ele>179.31921627292</ele>
        <time>2019-12-10T14:39:49Z</time>
      </trkpt>
      <trkpt lat="43.55583" lon="2.13921">
        <ele>178.87878529591</ele>
        <time>2019-12-10T14:39:57Z</time>
      </trkpt>
      <trkpt lat="43.55575" lon="2.13921">
        <ele>177.85009275783</ele>
        <time>2019-12-10T14:40:04Z</time>
      </trkpt>
      <trkpt lat="43.55566" lon="2.13922">
        <ele>175.735951474</ele>
        <time>2019-12-10T14:40:10Z</time>
      </trkpt>
      <trkpt lat="43.55558" lon="2.13922">
        <ele>175.74127412712</ele>
        <time>2019-12-10T14:40:17Z</time>
      </trkpt>
      <trkpt lat="43.5555" lon="2.1392">
        <ele>176.53073406802</ele>
        <time>2019-12-10T14:40:27Z</time>
      </trkpt>
      <trkpt lat="43.55541" lon="2.13922">
        <ele>177.85818358889</ele>
        <time>2019-12-10T14:40:36Z</time>
      </trkpt>
      <trkpt lat="43.55532" lon="2.13923">
        <ele>178.14821139037</ele>
        <time>2019-12-10T14:40:45Z</time>
      </trkpt>
      <trkpt lat="43.55524" lon="2.13924">
        <ele>178.40800965699</ele>
        <time>2019-12-10T14:40:53Z</time>
      </trkpt>
      <trkpt lat="43.55515" lon="2.13926">
        <ele>178.74224202823</ele>
        <time>2019-12-10T14:41:00Z</time>
      </trkpt>
      <trkpt lat="43.55507" lon="2.13927">
        <ele>178.95309291882</ele>
        <time>2019-12-10T14:41:07Z</time>
      </trkpt>
      <trkpt lat="43.55499" lon="2.13927">
        <ele>178.26302272097</ele>
        <time>2019-12-10T14:41:13Z</time>
      </trkpt>
      <trkpt lat="43.5549" lon="2.13928">
        <ele>176.52643447039</ele>
        <time>2019-12-10T14:41:20Z</time>
      </trkpt>
      <trkpt lat="43.55482" lon="2.13929">
        <ele>176.43837321881</ele>
        <time>2019-12-10T14:41:28Z</time>
      </trkpt>
      <trkpt lat="43.55474" lon="2.13932">
        <ele>177.32897170673</ele>
        <time>2019-12-10T14:41:35Z</time>
      </trkpt>
      <trkpt lat="43.55466" lon="2.13931">
        <ele>178.23050672319</ele>
        <time>2019-12-10T14:41:44Z</time>
      </trkpt>
      <trkpt lat="43.55457" lon="2.1393">
        <ele>179.90261899768</ele>
        <time>2019-12-10T14:42:51Z</time>
      </trkpt>
      <trkpt lat="43.55449" lon="2.13931">
        <ele>179.49429308464</ele>
        <time>2019-12-10T14:42:58Z</time>
      </trkpt>
      <trkpt lat="43.5544" lon="2.13932">
        <ele>179.02012557087</ele>
        <time>2019-12-10T14:43:06Z</time>
      </trkpt>
      <trkpt lat="43.55431" lon="2.13931">
        <ele>176.32331917179</ele>
        <time>2019-12-10T14:43:13Z</time>
      </trkpt>
      <trkpt lat="43.55423" lon="2.13931">
        <ele>174.32012446892</ele>
        <time>2019-12-10T14:43:20Z</time>
      </trkpt>
      <trkpt lat="43.55414" lon="2.13931">
        <ele>174.0858168937</ele>
        <time>2019-12-10T14:43:27Z</time>
      </trkpt>
      <trkpt lat="43.55405" lon="2.13932">
        <ele>173.8385118773</ele>
        <time>2019-12-10T14:43:36Z</time>
      </trkpt>
      <trkpt lat="43.55397" lon="2.13933">
        <ele>173.89328184267</ele>
        <time>2019-12-10T14:43:46Z</time>
      </trkpt>
      <trkpt lat="43.55388" lon="2.13935">
        <ele>174.41392094338</ele>
        <time>2019-12-10T14:43:55Z</time>
      </trkpt>
      <trkpt lat="43.5538" lon="2.13934">
        <ele>174.61831756356</ele>
        <time>2019-12-10T14:44:04Z</time>
      </trkpt>
      <trkpt lat="43.55371" lon="2.13935">
        <ele>173.91332979072</ele>
        <time>2019-12-10T14:44:13Z</time>
      </trkpt>
      <trkpt lat="43.55363" lon="2.13939">
        <ele>174.37491512949</ele>
        <time>2019-12-10T14:44:20Z</time>
      </trkpt>
      <trkpt lat="43.55355" lon="2.13937">
        <ele>174.68037850921</ele>
        <time>2019-12-10T14:44:29Z</time>
      </trkpt>
      <trkpt lat="43.55346" lon="2.13937">
        <ele>175.97850535277</ele>
        <time>2019-12-10T14:44:38Z</time>
      </trkpt>
      <trkpt lat="43.55338" lon="2.13941">
        <ele>174.43117407953</ele>
        <time>2019-12-10T14:44:48Z</time>
      </trkpt>
      <trkpt lat="43.5533" lon="2.1394">
        <ele>175.18969899287</ele>
        <time>2019-12-10T14:44:56Z</time>
      </trkpt>
      <trkpt lat="43.55322" lon="2.13943">
        <ele>175.10016608233</ele>
        <time>2019-12-10T14:45:04Z</time>
      </trkpt>
      <trkpt lat="43.55314" lon="2.13946">
        <ele>175.62947484461</ele>
        <time>2019-12-10T14:45:13Z</time>
      </trkpt>
      <trkpt lat="43.55307" lon="2.13949">
        <ele>175.4605802997</ele>
        <time>2019-12-10T14:45:19Z</time>
      </trkpt>
      <trkpt lat="43.553" lon="2.13952">
        <ele>175.25183223145</ele>
        <time>2019-12-10T14:45:24Z</time>
      </trkpt>
      <trkpt lat="43.55291" lon="2.13953">
        <ele>175.93951014827</ele>
        <time>2019-12-10T14:45:31Z</time>
      </trkpt>
      <trkpt lat="43.55283" lon="2.13954">
        <ele>176.83563974026</ele>
        <time>2019-12-10T14:45:40Z</time>
      </trkpt>
      <trkpt lat="43.55275" lon="2.13959">
        <ele>177.85773330954</ele>
        <time>2019-12-10T14:45:46Z</time>
      </trkpt>
      <trkpt lat="43.55266" lon="2.13962">
        <ele>178.25647491879</ele>
        <time>2019-12-10T14:45:54Z</time>
      </trkpt>
      <trkpt lat="43.55258" lon="2.1396">
        <ele>177.78604250041</ele>
        <time>2019-12-10T14:46:04Z</time>
      </trkpt>
      <trkpt lat="43.55249" lon="2.13961">
        <ele>177.69654649803</ele>
        <time>2019-12-10T14:46:11Z</time>
      </trkpt>
      <trkpt lat="43.55241" lon="2.1396">
        <ele>177.04509547827</ele>
        <time>2019-12-10T14:46:18Z</time>
      </trkpt>
      <trkpt lat="43.55234" lon="2.13962">
        <ele>176.51345333746</ele>
        <time>2019-12-10T14:46:25Z</time>
      </trkpt>
      <trkpt lat="43.55225" lon="2.13964">
        <ele>176.80501490225</ele>
        <time>2019-12-10T14:46:34Z</time>
      </trkpt>
      <trkpt lat="43.55216" lon="2.13962">
        <ele>177.80723478012</ele>
        <time>2019-12-10T14:46:44Z</time>
      </trkpt>
      <trkpt lat="43.55207" lon="2.13964">
        <ele>179.94172172916</ele>
        <time>2019-12-10T14:46:53Z</time>
      </trkpt>
      <trkpt lat="43.55199" lon="2.13967">
        <ele>181.07821065026</ele>
        <time>2019-12-10T14:46:59Z</time>
      </trkpt>
      <trkpt lat="43.55191" lon="2.13968">
        <ele>181.19788499855</ele>
        <time>2019-12-10T14:47:06Z</time>
      </trkpt>
      <trkpt lat="43.55182" lon="2.1397">
        <ele>182.07102594044</ele>
        <time>2019-12-10T14:47:14Z</time>
      </trkpt>
      <trkpt lat="43.55174" lon="2.1397">
        <ele>181.81556247165</ele>
        <time>2019-12-10T14:47:22Z</time>
      </trkpt>
      <trkpt lat="43.55166" lon="2.1397">
        <ele>181.50742309638</ele>
        <time>2019-12-10T14:47:29Z</time>
      </trkpt>
      <trkpt lat="43.55157" lon="2.13973">
        <ele>181.29608728846</ele>
        <time>2019-12-10T14:47:36Z</time>
      </trkpt>
      <trkpt lat="43.55149" lon="2.13971">
        <ele>181.66690710946</ele>
        <time>2019-12-10T14:47:44Z</time>
      </trkpt>
      <trkpt lat="43.5514" lon="2.13971">
        <ele>181.36897282097</ele>
        <time>2019-12-10T14:47:53Z</time>
      </trkpt>
      <trkpt lat="43.55132" lon="2.13973">
        <ele>181.07101798063</ele>
        <time>2019-12-10T14:48:00Z</time>
      </trkpt>
      <trkpt lat="43.55124" lon="2.13976">
        <ele>181.60328759372</ele>
        <time>2019-12-10T14:48:09Z</time>
      </trkpt>
      <trkpt lat="43.55116" lon="2.13979">
        <ele>181.66132371494</ele>
        <time>2019-12-10T14:48:17Z</time>
      </trkpt>
      <trkpt lat="43.55109" lon="2.13983">
        <ele>183.25937854538</ele>
        <time>2019-12-10T14:48:23Z</time>
      </trkpt>
      <trkpt lat="43.551" lon="2.13985">
        <ele>184.64884782127</ele>
        <time>2019-12-10T14:48:32Z</time>
      </trkpt>
      <trkpt lat="43.55092" lon="2.13987">
        <ele>183.65257864864</ele>
        <time>2019-12-10T14:48:40Z</time>
      </trkpt>
      <trkpt lat="43.55083" lon="2.13986">
        <ele>182.64170380835</ele>
        <time>2019-12-10T14:48:49Z</time>
      </trkpt>
      <trkpt lat="43.55075" lon="2.13987">
        <ele>181.23519296331</ele>
        <time>2019-12-10T14:48:56Z</time>
      </trkpt>
      <trkpt lat="43.55067" lon="2.13989">
        <ele>179.86651369195</ele>
        <time>2019-12-10T14:49:03Z</time>
      </trkpt>
      <trkpt lat="43.55058" lon="2.13993">
        <ele>179.55410985509</ele>
        <time>2019-12-10T14:49:10Z</time>
      </trkpt>
      <trkpt lat="43.5505" lon="2.13989">
        <ele>179.41786189492</ele>
        <time>2019-12-10T14:49:21Z</time>
      </trkpt>
      <trkpt lat="43.55042" lon="2.13992">
        <ele>179.66726495903</ele>
        <time>2019-12-10T14:49:28Z</time>
      </trkpt>
      <trkpt lat="43.55034" lon="2.13996">
        <ele>180.72370065976</ele>
        <time>2019-12-10T14:49:35Z</time>
      </trkpt>
      <trkpt lat="43.55026" lon="2.13999">
        <ele>182.36008293718</ele>
        <time>2019-12-10T14:49:42Z</time>
      </trkpt>
      <trkpt lat="43.55018" lon="2.14">
        <ele>181.49417226209</ele>
        <time>2019-12-10T14:49:52Z</time>
      </trkpt>
      <trkpt lat="43.55009" lon="2.14003">
        <ele>180.92296666383</ele>
        <time>2019-12-10T14:50:00Z</time>
      </trkpt>
      <trkpt lat="43.55002" lon="2.14008">
        <ele>180.47725468819</ele>
        <time>2019-12-10T14:50:07Z</time>
      </trkpt>
      <trkpt lat="43.54994" lon="2.14013">
        <ele>180.99976514663</ele>
        <time>2019-12-10T14:50:13Z</time>
      </trkpt>
      <trkpt lat="43.54986" lon="2.14014">
        <ele>184.3565913402</ele>
        <time>2019-12-10T14:50:23Z</time>
      </trkpt>
      <trkpt lat="43.54984" lon="2.14002">
        <ele>180.03815583983</ele>
        <time>2019-12-10T14:51:06Z</time>
      </trkpt>
      <trkpt lat="43.54988" lon="2.13992">
        <ele>182.19447295142</ele>
        <time>2019-12-10T14:57:06Z</time>
      </trkpt>
      <trkpt lat="43.54984" lon="2.13981">
        <ele>181.33993887426</ele>
        <time>2019-12-10T14:57:16Z</time>
      </trkpt>
      <trkpt lat="43.54979" lon="2.13971">
        <ele>181.75755265407</ele>
        <time>2019-12-10T14:57:25Z</time>
      </trkpt>
      <trkpt lat="43.54975" lon="2.1396">
        <ele>181.56703373052</ele>
        <time>2019-12-10T14:57:32Z</time>
      </trkpt>
      <trkpt lat="43.54972" lon="2.1395">
        <ele>183.68832722413</ele>
        <time>2019-12-10T14:57:40Z</time>
      </trkpt>
      <trkpt lat="43.54969" lon="2.1394">
        <ele>185.51934026773</ele>
        <time>2019-12-10T14:57:47Z</time>
      </trkpt>
      <trkpt lat="43.54966" lon="2.13929">
        <ele>186.59739256295</ele>
        <time>2019-12-10T14:57:53Z</time>
      </trkpt>
      <trkpt lat="43.54963" lon="2.13918">
        <ele>186.6790160813</ele>
        <time>2019-12-10T14:58:05Z</time>
      </trkpt>
      <trkpt lat="43.5496" lon="2.13907">
        <ele>184.83101921433</ele>
        <time>2019-12-10T14:58:11Z</time>
      </trkpt>
      <trkpt lat="43.54958" lon="2.13897">
        <ele>184.27626615679</ele>
        <time>2019-12-10T14:58:16Z</time>
      </trkpt>
      <trkpt lat="43.54955" lon="2.13885">
        <ele>184.14523107813</ele>
        <time>2019-12-10T14:58:22Z</time>
      </trkpt>
      <trkpt lat="43.54956" lon="2.13874">
        <ele>183.58536443687</ele>
        <time>2019-12-10T14:58:30Z</time>
      </trkpt>
      <trkpt lat="43.54959" lon="2.13864">
        <ele>183.80478716685</ele>
        <time>2019-12-10T14:58:37Z</time>
      </trkpt>
      <trkpt lat="43.54963" lon="2.13853">
        <ele>184.40147692147</ele>
        <time>2019-12-10T14:58:49Z</time>
      </trkpt>
      <trkpt lat="43.54968" lon="2.13844">
        <ele>184.75868061019</ele>
        <time>2019-12-10T14:58:59Z</time>
      </trkpt>
      <trkpt lat="43.54972" lon="2.13833">
        <ele>186.17797239534</ele>
        <time>2019-12-10T14:59:06Z</time>
      </trkpt>
      <trkpt lat="43.54972" lon="2.13821">
        <ele>187.09665053802</ele>
        <time>2019-12-10T14:59:18Z</time>
      </trkpt>
      <trkpt lat="43.54969" lon="2.1381">
        <ele>186.94636405346</ele>
        <time>2019-12-10T14:59:26Z</time>
      </trkpt>
      <trkpt lat="43.54964" lon="2.13801">
        <ele>186.76768465769</ele>
        <time>2019-12-10T14:59:34Z</time>
      </trkpt>
      <trkpt lat="43.54959" lon="2.13792">
        <ele>187.89184547654</ele>
        <time>2019-12-10T14:59:41Z</time>
      </trkpt>
      <trkpt lat="43.54957" lon="2.1378">
        <ele>188.93710138467</ele>
        <time>2019-12-10T14:59:49Z</time>
      </trkpt>
      <trkpt lat="43.54956" lon="2.13769">
        <ele>190.04375131451</ele>
        <time>2019-12-10T14:59:55Z</time>
      </trkpt>
      <trkpt lat="43.5496" lon="2.13758">
        <ele>187.40567338203</ele>
        <time>2019-12-10T15:00:04Z</time>
      </trkpt>
      <trkpt lat="43.54963" lon="2.13748">
        <ele>185.34983037325</ele>
        <time>2019-12-10T15:00:11Z</time>
      </trkpt>
      <trkpt lat="43.54968" lon="2.13738">
        <ele>182.69462528926</ele>
        <time>2019-12-10T15:00:22Z</time>
      </trkpt>
      <trkpt lat="43.54971" lon="2.13727">
        <ele>180.1719306795</ele>
        <time>2019-12-10T15:00:32Z</time>
      </trkpt>
      <trkpt lat="43.54976" lon="2.13717">
        <ele>179.67211867775</ele>
        <time>2019-12-10T15:00:40Z</time>
      </trkpt>
      <trkpt lat="43.5498" lon="2.13707">
        <ele>179.65883152708</ele>
        <time>2019-12-10T15:00:50Z</time>
      </trkpt>
      <trkpt lat="43.54984" lon="2.13697">
        <ele>181.10749547373</ele>
        <time>2019-12-10T15:00:57Z</time>
      </trkpt>
      <trkpt lat="43.54985" lon="2.13686">
        <ele>181.85681397683</ele>
        <time>2019-12-10T15:01:03Z</time>
      </trkpt>
      <trkpt lat="43.54986" lon="2.13674">
        <ele>181.21929512345</ele>
        <time>2019-12-10T15:01:11Z</time>
      </trkpt>
      <trkpt lat="43.54988" lon="2.13664">
        <ele>180.45609364651</ele>
        <time>2019-12-10T15:01:18Z</time>
      </trkpt>
      <trkpt lat="43.54991" lon="2.13653">
        <ele>180.49478989071</ele>
        <time>2019-12-10T15:01:26Z</time>
      </trkpt>
      <trkpt lat="43.54995" lon="2.13642">
        <ele>182.68806064275</ele>
        <time>2019-12-10T15:01:34Z</time>
      </trkpt>
      <trkpt lat="43.54998" lon="2.13631">
        <ele>183.37070941338</ele>
        <time>2019-12-10T15:01:42Z</time>
      </trkpt>
      <trkpt lat="43.55" lon="2.1362">
        <ele>183.03449467478</ele>
        <time>2019-12-10T15:01:49Z</time>
      </trkpt>
      <trkpt lat="43.55002" lon="2.13609">
        <ele>182.71756094876</ele>
        <time>2019-12-10T15:01:56Z</time>
      </trkpt>
      <trkpt lat="43.55003" lon="2.13597">
        <ele>182.65644421534</ele>
        <time>2019-12-10T15:02:04Z</time>
      </trkpt>
      <trkpt lat="43.55003" lon="2.13585">
        <ele>182.74784093024</ele>
        <time>2019-12-10T15:02:11Z</time>
      </trkpt>
      <trkpt lat="43.55004" lon="2.13573">
        <ele>183.44822670415</ele>
        <time>2019-12-10T15:02:17Z</time>
      </trkpt>
      <trkpt lat="43.55005" lon="2.13561">
        <ele>183.5366846753</ele>
        <time>2019-12-10T15:02:27Z</time>
      </trkpt>
      <trkpt lat="43.55007" lon="2.13549">
        <ele>183.45612764385</ele>
        <time>2019-12-10T15:02:37Z</time>
      </trkpt>
      <trkpt lat="43.55005" lon="2.13538">
        <ele>183.00306513639</ele>
        <time>2019-12-10T15:02:44Z</time>
      </trkpt>
      <trkpt lat="43.55003" lon="2.13526">
        <ele>182.10219630151</ele>
        <time>2019-12-10T15:02:51Z</time>
      </trkpt>
      <trkpt lat="43.55001" lon="2.13515">
        <ele>181.3808770936</ele>
        <time>2019-12-10T15:03:07Z</time>
      </trkpt>
      <trkpt lat="43.54999" lon="2.13504">
        <ele>181.11462516739</ele>
        <time>2019-12-10T15:03:13Z</time>
      </trkpt>
      <trkpt lat="43.54998" lon="2.13492">
        <ele>181.05175489075</ele>
        <time>2019-12-10T15:03:18Z</time>
      </trkpt>
      <trkpt lat="43.54996" lon="2.13481">
        <ele>180.38340360672</ele>
        <time>2019-12-10T15:03:27Z</time>
      </trkpt>
      <trkpt lat="43.54993" lon="2.13469">
        <ele>180.22894511446</ele>
        <time>2019-12-10T15:03:36Z</time>
      </trkpt>
      <trkpt lat="43.54992" lon="2.13458">
        <ele>181.03133391205</ele>
        <time>2019-12-10T15:03:45Z</time>
      </trkpt>
      <trkpt lat="43.54991" lon="2.13446">
        <ele>182.35335461294</ele>
        <time>2019-12-10T15:03:51Z</time>
      </trkpt>
      <trkpt lat="43.54988" lon="2.13435">
        <ele>182.58965397564</ele>
        <time>2019-12-10T15:03:56Z</time>
      </trkpt>
      <trkpt lat="43.54985" lon="2.13425">
        <ele>182.77717629533</ele>
        <time>2019-12-10T15:04:06Z</time>
      </trkpt>
      <trkpt lat="43.54984" lon="2.13414">
        <ele>184.46523415638</ele>
        <time>2019-12-10T15:04:19Z</time>
      </trkpt>
      <trkpt lat="43.54981" lon="2.13402">
        <ele>185.33277972898</ele>
        <time>2019-12-10T15:04:26Z</time>
      </trkpt>
      <trkpt lat="43.54985" lon="2.13391">
        <ele>179.83185370227</ele>
        <time>2019-12-10T15:04:36Z</time>
      </trkpt>
      <trkpt lat="43.54989" lon="2.13381">
        <ele>177.53723636668</ele>
        <time>2019-12-10T15:04:44Z</time>
      </trkpt>
      <trkpt lat="43.54994" lon="2.13371">
        <ele>175.32595185814</ele>
        <time>2019-12-10T15:04:54Z</time>
      </trkpt>
      <trkpt lat="43.54998" lon="2.1336">
        <ele>174.45188313609</ele>
        <time>2019-12-10T15:05:02Z</time>
      </trkpt>
      <trkpt lat="43.55003" lon="2.13351">
        <ele>174.57716871981</ele>
        <time>2019-12-10T15:05:10Z</time>
      </trkpt>
      <trkpt lat="43.55008" lon="2.13343">
        <ele>174.87705330721</ele>
        <time>2019-12-10T15:05:18Z</time>
      </trkpt>
      <trkpt lat="43.55014" lon="2.13334">
        <ele>176.08373639072</ele>
        <time>2019-12-10T15:05:24Z</time>
      </trkpt>
      <trkpt lat="43.55018" lon="2.13324">
        <ele>175.80199211791</ele>
        <time>2019-12-10T15:05:32Z</time>
      </trkpt>
      <trkpt lat="43.55024" lon="2.13315">
        <ele>175.2741184858</ele>
        <time>2019-12-10T15:05:40Z</time>
      </trkpt>
      <trkpt lat="43.5503" lon="2.13308">
        <ele>176.12318359712</ele>
        <time>2019-12-10T15:05:48Z</time>
      </trkpt>
      <trkpt lat="43.55035" lon="2.13301">
        <ele>176.50841905367</ele>
        <time>2019-12-10T15:05:54Z</time>
      </trkpt>
      <trkpt lat="43.55041" lon="2.13292">
        <ele>176.0919594895</ele>
        <time>2019-12-10T15:06:02Z</time>
      </trkpt>
      <trkpt lat="43.55044" lon="2.13283">
        <ele>176.63199767431</ele>
        <time>2019-12-10T15:06:09Z</time>
      </trkpt>
      <trkpt lat="43.5505" lon="2.13273">
        <ele>176.99260928614</ele>
        <time>2019-12-10T15:06:18Z</time>
      </trkpt>
      <trkpt lat="43.55057" lon="2.13267">
        <ele>176.60442631203</ele>
        <time>2019-12-10T15:06:28Z</time>
      </trkpt>
      <trkpt lat="43.55063" lon="2.13257">
        <ele>177.37793447906</ele>
        <time>2019-12-10T15:06:37Z</time>
      </trkpt>
      <trkpt lat="43.55068" lon="2.13247">
        <ele>178.29082459376</ele>
        <time>2019-12-10T15:06:47Z</time>
      </trkpt>
      <trkpt lat="43.55073" lon="2.13239">
        <ele>179.16414799163</ele>
        <time>2019-12-10T15:06:54Z</time>
      </trkpt>
      <trkpt lat="43.55078" lon="2.13229">
        <ele>180.0255721481</ele>
        <time>2019-12-10T15:07:01Z</time>
      </trkpt>
      <trkpt lat="43.55083" lon="2.13219">
        <ele>178.8165754767</ele>
        <time>2019-12-10T15:07:10Z</time>
      </trkpt>
      <trkpt lat="43.55086" lon="2.13208">
        <ele>178.33181217959</ele>
        <time>2019-12-10T15:07:16Z</time>
      </trkpt>
      <trkpt lat="43.55091" lon="2.13199">
        <ele>177.36829240368</ele>
        <time>2019-12-10T15:07:24Z</time>
      </trkpt>
      <trkpt lat="43.55097" lon="2.13191">
        <ele>178.03640918614</ele>
        <time>2019-12-10T15:07:31Z</time>
      </trkpt>
      <trkpt lat="43.55103" lon="2.13183">
        <ele>178.87844886312</ele>
        <time>2019-12-10T15:07:40Z</time>
      </trkpt>
      <trkpt lat="43.55109" lon="2.13173">
        <ele>178.09264086738</ele>
        <time>2019-12-10T15:07:47Z</time>
      </trkpt>
      <trkpt lat="43.55114" lon="2.13164">
        <ele>177.40691833744</ele>
        <time>2019-12-10T15:07:54Z</time>
      </trkpt>
      <trkpt lat="43.55119" lon="2.13156">
        <ele>177.24846598827</ele>
        <time>2019-12-10T15:08:00Z</time>
      </trkpt>
      <trkpt lat="43.55124" lon="2.13146">
        <ele>176.60319701376</ele>
        <time>2019-12-10T15:08:07Z</time>
      </trkpt>
      <trkpt lat="43.55128" lon="2.13137">
        <ele>176.80655208782</ele>
        <time>2019-12-10T15:08:16Z</time>
      </trkpt>
      <trkpt lat="43.55134" lon="2.13128">
        <ele>177.23156992946</ele>
        <time>2019-12-10T15:08:24Z</time>
      </trkpt>
      <trkpt lat="43.5514" lon="2.13119">
        <ele>177.66791985842</ele>
        <time>2019-12-10T15:08:32Z</time>
      </trkpt>
      <trkpt lat="43.55145" lon="2.13112">
        <ele>178.76388136412</ele>
        <time>2019-12-10T15:08:40Z</time>
      </trkpt>
      <trkpt lat="43.5515" lon="2.13103">
        <ele>180.51166708216</ele>
        <time>2019-12-10T15:08:47Z</time>
      </trkpt>
      <trkpt lat="43.55155" lon="2.13094">
        <ele>179.56010745657</ele>
        <time>2019-12-10T15:08:53Z</time>
      </trkpt>
      <trkpt lat="43.55161" lon="2.13086">
        <ele>179.55083872818</ele>
        <time>2019-12-10T15:09:00Z</time>
      </trkpt>
      <trkpt lat="43.55166" lon="2.13078">
        <ele>177.38182368797</ele>
        <time>2019-12-10T15:09:07Z</time>
      </trkpt>
      <trkpt lat="43.55172" lon="2.13068">
        <ele>176.53028828235</ele>
        <time>2019-12-10T15:09:16Z</time>
      </trkpt>
      <trkpt lat="43.55178" lon="2.1306">
        <ele>174.15059915966</ele>
        <time>2019-12-10T15:09:25Z</time>
      </trkpt>
      <trkpt lat="43.55185" lon="2.13053">
        <ele>172.47287681041</ele>
        <time>2019-12-10T15:09:34Z</time>
      </trkpt>
      <trkpt lat="43.55188" lon="2.13043">
        <ele>172.86417431891</ele>
        <time>2019-12-10T15:09:41Z</time>
      </trkpt>
      <trkpt lat="43.55192" lon="2.13032">
        <ele>173.77353580379</ele>
        <time>2019-12-10T15:09:49Z</time>
      </trkpt>
      <trkpt lat="43.55196" lon="2.13022">
        <ele>173.52674907558</ele>
        <time>2019-12-10T15:09:55Z</time>
      </trkpt>
      <trkpt lat="43.55201" lon="2.13012">
        <ele>173.88651790026</ele>
        <time>2019-12-10T15:10:05Z</time>
      </trkpt>
      <trkpt lat="43.55206" lon="2.13003">
        <ele>174.86801719404</ele>
        <time>2019-12-10T15:10:12Z</time>
      </trkpt>
      <trkpt lat="43.5521" lon="2.12994">
        <ele>174.96871077194</ele>
        <time>2019-12-10T15:10:18Z</time>
      </trkpt>
      <trkpt lat="43.55214" lon="2.12983">
        <ele>175.2743013051</ele>
        <time>2019-12-10T15:10:26Z</time>
      </trkpt>
      <trkpt lat="43.55219" lon="2.12974">
        <ele>174.02301052899</ele>
        <time>2019-12-10T15:10:34Z</time>
      </trkpt>
      <trkpt lat="43.55224" lon="2.12965">
        <ele>173.34610429321</ele>
        <time>2019-12-10T15:10:41Z</time>
      </trkpt>
      <trkpt lat="43.55228" lon="2.12955">
        <ele>173.40671858506</ele>
        <time>2019-12-10T15:10:48Z</time>
      </trkpt>
      <trkpt lat="43.55234" lon="2.12947">
        <ele>172.21295044352</ele>
        <time>2019-12-10T15:10:55Z</time>
      </trkpt>
      <trkpt lat="43.5524" lon="2.12938">
        <ele>170.92847294565</ele>
        <time>2019-12-10T15:11:04Z</time>
      </trkpt>
      <trkpt lat="43.55246" lon="2.1293">
        <ele>171.48738904813</ele>
        <time>2019-12-10T15:11:14Z</time>
      </trkpt>
      <trkpt lat="43.55252" lon="2.12922">
        <ele>170.62503215451</ele>
        <time>2019-12-10T15:11:21Z</time>
      </trkpt>
      <trkpt lat="43.55257" lon="2.12914">
        <ele>168.91852665788</ele>
        <time>2019-12-10T15:11:28Z</time>
      </trkpt>
      <trkpt lat="43.55262" lon="2.12904">
        <ele>167.95461575528</ele>
        <time>2019-12-10T15:11:36Z</time>
      </trkpt>
      <trkpt lat="43.55269" lon="2.12897">
        <ele>168.78263723265</ele>
        <time>2019-12-10T15:11:44Z</time>
      </trkpt>
      <trkpt lat="43.55276" lon="2.1289">
        <ele>170.40180822135</ele>
        <time>2019-12-10T15:11:52Z</time>
      </trkpt>
      <trkpt lat="43.55281" lon="2.12881">
        <ele>170.96800038941</ele>
        <time>2019-12-10T15:12:01Z</time>
      </trkpt>
      <trkpt lat="43.55289" lon="2.12876">
        <ele>171.61452892772</ele>
        <time>2019-12-10T15:12:09Z</time>
      </trkpt>
      <trkpt lat="43.55295" lon="2.12871">
        <ele>173.14304706507</ele>
        <time>2019-12-10T15:12:16Z</time>
      </trkpt>
      <trkpt lat="43.553" lon="2.12861">
        <ele>173.56700999287</ele>
        <time>2019-12-10T15:12:23Z</time>
      </trkpt>
      <trkpt lat="43.55305" lon="2.12852">
        <ele>173.86460177571</ele>
        <time>2019-12-10T15:12:30Z</time>
      </trkpt>
      <trkpt lat="43.55309" lon="2.12841">
        <ele>173.02214419003</ele>
        <time>2019-12-10T15:12:38Z</time>
      </trkpt>
      <trkpt lat="43.55313" lon="2.12832">
        <ele>172.54814655682</ele>
        <time>2019-12-10T15:12:44Z</time>
      </trkpt>
      <trkpt lat="43.55319" lon="2.12823">
        <ele>172.81785259299</ele>
        <time>2019-12-10T15:12:52Z</time>
      </trkpt>
      <trkpt lat="43.55326" lon="2.12817">
        <ele>171.6478309084</ele>
        <time>2019-12-10T15:13:01Z</time>
      </trkpt>
      <trkpt lat="43.55331" lon="2.12809">
        <ele>171.44703367849</ele>
        <time>2019-12-10T15:13:08Z</time>
      </trkpt>
      <trkpt lat="43.55338" lon="2.12801">
        <ele>172.33591777699</ele>
        <time>2019-12-10T15:13:15Z</time>
      </trkpt>
      <trkpt lat="43.55344" lon="2.12793">
        <ele>173.39065746734</ele>
        <time>2019-12-10T15:13:24Z</time>
      </trkpt>
      <trkpt lat="43.55349" lon="2.12784">
        <ele>175.211617952</ele>
        <time>2019-12-10T15:13:31Z</time>
      </trkpt>
      <trkpt lat="43.55355" lon="2.12774">
        <ele>176.43889448572</ele>
        <time>2019-12-10T15:13:40Z</time>
      </trkpt>
      <trkpt lat="43.55359" lon="2.12764">
        <ele>176.02240019943</ele>
        <time>2019-12-10T15:13:47Z</time>
      </trkpt>
      <trkpt lat="43.55363" lon="2.12753">
        <ele>176.45918742803</ele>
        <time>2019-12-10T15:13:54Z</time>
      </trkpt>
      <trkpt lat="43.55368" lon="2.12744">
        <ele>176.31965521708</ele>
        <time>2019-12-10T15:14:01Z</time>
      </trkpt>
      <trkpt lat="43.55374" lon="2.12736">
        <ele>175.17503695185</ele>
        <time>2019-12-10T15:14:09Z</time>
      </trkpt>
      <trkpt lat="43.55382" lon="2.1273">
        <ele>174.38013809878</ele>
        <time>2019-12-10T15:14:19Z</time>
      </trkpt>
      <trkpt lat="43.55388" lon="2.12722">
        <ele>172.77349980435</ele>
        <time>2019-12-10T15:14:27Z</time>
      </trkpt>
      <trkpt lat="43.55393" lon="2.12712">
        <ele>172.70141302179</ele>
        <time>2019-12-10T15:14:34Z</time>
      </trkpt>
      <trkpt lat="43.55396" lon="2.127">
        <ele>173.23722872153</ele>
        <time>2019-12-10T15:14:42Z</time>
      </trkpt>
      <trkpt lat="43.55401" lon="2.1269">
        <ele>173.3382752688</ele>
        <time>2019-12-10T15:14:51Z</time>
      </trkpt>
      <trkpt lat="43.55406" lon="2.12681">
        <ele>174.41949760465</ele>
        <time>2019-12-10T15:15:00Z</time>
      </trkpt>
      <trkpt lat="43.5541" lon="2.12671">
        <ele>174.91302896095</ele>
        <time>2019-12-10T15:15:07Z</time>
      </trkpt>
      <trkpt lat="43.55415" lon="2.12661">
        <ele>176.75404867602</ele>
        <time>2019-12-10T15:15:16Z</time>
      </trkpt>
      <trkpt lat="43.55417" lon="2.12649">
        <ele>180.67469629802</ele>
        <time>2019-12-10T15:15:25Z</time>
      </trkpt>
      <trkpt lat="43.55422" lon="2.1264">
        <ele>182.32455092537</ele>
        <time>2019-12-10T15:15:33Z</time>
      </trkpt>
      <trkpt lat="43.55426" lon="2.1263">
        <ele>183.67567488121</ele>
        <time>2019-12-10T15:15:41Z</time>
      </trkpt>
      <trkpt lat="43.55429" lon="2.12619">
        <ele>184.25997030884</ele>
        <time>2019-12-10T15:15:49Z</time>
      </trkpt>
      <trkpt lat="43.55433" lon="2.1261">
        <ele>183.72524573785</ele>
        <time>2019-12-10T15:15:56Z</time>
      </trkpt>
      <trkpt lat="43.55437" lon="2.12598">
        <ele>183.38928889632</ele>
        <time>2019-12-10T15:16:03Z</time>
      </trkpt>
      <trkpt lat="43.5544" lon="2.12589">
        <ele>184.21591885151</ele>
        <time>2019-12-10T15:16:09Z</time>
      </trkpt>
      <trkpt lat="43.55444" lon="2.12579">
        <ele>184.7670123053</ele>
        <time>2019-12-10T15:16:15Z</time>
      </trkpt>
      <trkpt lat="43.55448" lon="2.12568">
        <ele>184.49292049748</ele>
        <time>2019-12-10T15:16:22Z</time>
      </trkpt>
      <trkpt lat="43.55451" lon="2.12558">
        <ele>183.65277955781</ele>
        <time>2019-12-10T15:16:30Z</time>
      </trkpt>
      <trkpt lat="43.55455" lon="2.12547">
        <ele>182.64069246066</ele>
        <time>2019-12-10T15:16:41Z</time>
      </trkpt>
      <trkpt lat="43.55461" lon="2.1254">
        <ele>182.9987725964</ele>
        <time>2019-12-10T15:16:50Z</time>
      </trkpt>
      <trkpt lat="43.55464" lon="2.1253">
        <ele>180.91426751479</ele>
        <time>2019-12-10T15:16:57Z</time>
      </trkpt>
      <trkpt lat="43.55468" lon="2.12519">
        <ele>180.47570680115</ele>
        <time>2019-12-10T15:17:04Z</time>
      </trkpt>
      <trkpt lat="43.55473" lon="2.12509">
        <ele>180.58705704841</ele>
        <time>2019-12-10T15:17:12Z</time>
      </trkpt>
      <trkpt lat="43.55478" lon="2.125">
        <ele>180.95259985676</ele>
        <time>2019-12-10T15:17:21Z</time>
      </trkpt>
      <trkpt lat="43.55479" lon="2.12488">
        <ele>180.04596318838</ele>
        <time>2019-12-10T15:17:35Z</time>
      </trkpt>
      <trkpt lat="43.5548" lon="2.12476">
        <ele>180.50715731822</ele>
        <time>2019-12-10T15:17:43Z</time>
      </trkpt>
      <trkpt lat="43.55472" lon="2.1247">
        <ele>180.07167452865</ele>
        <time>2019-12-10T15:17:55Z</time>
      </trkpt>
      <trkpt lat="43.55465" lon="2.12465">
        <ele>179.18017310703</ele>
        <time>2019-12-10T15:18:03Z</time>
      </trkpt>
      <trkpt lat="43.55458" lon="2.12461">
        <ele>176.87130053196</ele>
        <time>2019-12-10T15:18:10Z</time>
      </trkpt>
      <trkpt lat="43.55451" lon="2.12455">
        <ele>174.30360456489</ele>
        <time>2019-12-10T15:18:16Z</time>
      </trkpt>
      <trkpt lat="43.55442" lon="2.12454">
        <ele>173.20313018837</ele>
        <time>2019-12-10T15:18:24Z</time>
      </trkpt>
      <trkpt lat="43.55435" lon="2.12449">
        <ele>173.85088654039</ele>
        <time>2019-12-10T15:18:31Z</time>
      </trkpt>
      <trkpt lat="43.55427" lon="2.12446">
        <ele>173.28623897935</ele>
        <time>2019-12-10T15:18:37Z</time>
      </trkpt>
      <trkpt lat="43.55419" lon="2.12442">
        <ele>173.59150072185</ele>
        <time>2019-12-10T15:18:44Z</time>
      </trkpt>
      <trkpt lat="43.55412" lon="2.12435">
        <ele>172.18439291285</ele>
        <time>2019-12-10T15:18:52Z</time>
      </trkpt>
      <trkpt lat="43.55405" lon="2.12428">
        <ele>170.53063626891</ele>
        <time>2019-12-10T15:19:00Z</time>
      </trkpt>
      <trkpt lat="43.55397" lon="2.12424">
        <ele>169.05541659911</ele>
        <time>2019-12-10T15:19:09Z</time>
      </trkpt>
      <trkpt lat="43.5539" lon="2.12419">
        <ele>169.4536755714</ele>
        <time>2019-12-10T15:19:18Z</time>
      </trkpt>
      <trkpt lat="43.55384" lon="2.12411">
        <ele>168.78166155861</ele>
        <time>2019-12-10T15:19:25Z</time>
      </trkpt>
      <trkpt lat="43.55375" lon="2.12406">
        <ele>168.74233733219</ele>
        <time>2019-12-10T15:19:33Z</time>
      </trkpt>
      <trkpt lat="43.55367" lon="2.12403">
        <ele>170.05451718773</ele>
        <time>2019-12-10T15:19:40Z</time>
      </trkpt>
      <trkpt lat="43.5536" lon="2.12396">
        <ele>170.56622941052</ele>
        <time>2019-12-10T15:19:49Z</time>
      </trkpt>
      <trkpt lat="43.55352" lon="2.12392">
        <ele>170.70647646239</ele>
        <time>2019-12-10T15:19:59Z</time>
      </trkpt>
      <trkpt lat="43.55345" lon="2.12388">
        <ele>172.00477589159</ele>
        <time>2019-12-10T15:20:06Z</time>
      </trkpt>
      <trkpt lat="43.55339" lon="2.12382">
        <ele>171.94054554313</ele>
        <time>2019-12-10T15:20:13Z</time>
      </trkpt>
      <trkpt lat="43.5533" lon="2.1238">
        <ele>173.15900297198</ele>
        <time>2019-12-10T15:20:19Z</time>
      </trkpt>
      <trkpt lat="43.55323" lon="2.12375">
        <ele>173.08519240212</ele>
        <time>2019-12-10T15:20:26Z</time>
      </trkpt>
      <trkpt lat="43.55315" lon="2.12371">
        <ele>175.30713369965</ele>
        <time>2019-12-10T15:20:34Z</time>
      </trkpt>
      <trkpt lat="43.55308" lon="2.12368">
        <ele>176.43284742429</ele>
        <time>2019-12-10T15:20:45Z</time>
      </trkpt>
      <trkpt lat="43.55301" lon="2.12362">
        <ele>176.58393819324</ele>
        <time>2019-12-10T15:20:50Z</time>
      </trkpt>
      <trkpt lat="43.55293" lon="2.12357">
        <ele>176.66776475819</ele>
        <time>2019-12-10T15:20:59Z</time>
      </trkpt>
      <trkpt lat="43.55286" lon="2.12354">
        <ele>176.99844551218</ele>
        <time>2019-12-10T15:21:04Z</time>
      </trkpt>
      <trkpt lat="43.55277" lon="2.12351">
        <ele>179.00206825424</ele>
        <time>2019-12-10T15:21:10Z</time>
      </trkpt>
      <trkpt lat="43.55269" lon="2.12347">
        <ele>179.44029076433</ele>
        <time>2019-12-10T15:21:18Z</time>
      </trkpt>
      <trkpt lat="43.55262" lon="2.12342">
        <ele>179.00782564283</ele>
        <time>2019-12-10T15:21:25Z</time>
      </trkpt>
      <trkpt lat="43.55255" lon="2.12334">
        <ele>176.19932015421</ele>
        <time>2019-12-10T15:21:34Z</time>
      </trkpt>
      <trkpt lat="43.55248" lon="2.1233">
        <ele>173.9540612435</ele>
        <time>2019-12-10T15:21:43Z</time>
      </trkpt>
      <trkpt lat="43.5524" lon="2.12325">
        <ele>173.26898009225</ele>
        <time>2019-12-10T15:21:49Z</time>
      </trkpt>
      <trkpt lat="43.55232" lon="2.12324">
        <ele>173.71313032579</ele>
        <time>2019-12-10T15:21:55Z</time>
      </trkpt>
      <trkpt lat="43.55225" lon="2.12317">
        <ele>172.48415717189</ele>
        <time>2019-12-10T15:22:03Z</time>
      </trkpt>
      <trkpt lat="43.55218" lon="2.12312">
        <ele>172.13192271493</ele>
        <time>2019-12-10T15:22:09Z</time>
      </trkpt>
      <trkpt lat="43.55211" lon="2.12307">
        <ele>172.92487194299</ele>
        <time>2019-12-10T15:22:15Z</time>
      </trkpt>
      <trkpt lat="43.55202" lon="2.12303">
        <ele>174.88249017051</ele>
        <time>2019-12-10T15:22:25Z</time>
      </trkpt>
      <trkpt lat="43.55194" lon="2.12298">
        <ele>176.08395292042</ele>
        <time>2019-12-10T15:22:34Z</time>
      </trkpt>
      <trkpt lat="43.55187" lon="2.12292">
        <ele>176.76694972504</ele>
        <time>2019-12-10T15:22:42Z</time>
      </trkpt>
      <trkpt lat="43.5518" lon="2.12288">
        <ele>176.71287523801</ele>
        <time>2019-12-10T15:22:48Z</time>
      </trkpt>
      <trkpt lat="43.55173" lon="2.12282">
        <ele>175.86588384572</ele>
        <time>2019-12-10T15:22:56Z</time>
      </trkpt>
      <trkpt lat="43.55166" lon="2.12277">
        <ele>175.64650255992</ele>
        <time>2019-12-10T15:23:03Z</time>
      </trkpt>
      <trkpt lat="43.55157" lon="2.12273">
        <ele>174.8135158494</ele>
        <time>2019-12-10T15:23:11Z</time>
      </trkpt>
      <trkpt lat="43.5515" lon="2.12268">
        <ele>174.40941482145</ele>
        <time>2019-12-10T15:23:18Z</time>
      </trkpt>
      <trkpt lat="43.55143" lon="2.12262">
        <ele>174.37676229626</ele>
        <time>2019-12-10T15:23:24Z</time>
      </trkpt>
      <trkpt lat="43.55137" lon="2.12253">
        <ele>172.59945055847</ele>
        <time>2019-12-10T15:23:30Z</time>
      </trkpt>
      <trkpt lat="43.55132" lon="2.12245">
        <ele>169.28886398437</ele>
        <time>2019-12-10T15:23:37Z</time>
      </trkpt>
      <trkpt lat="43.55127" lon="2.12237">
        <ele>172.26823222546</ele>
        <time>2019-12-10T15:23:44Z</time>
      </trkpt>
      <trkpt lat="43.55133" lon="2.12228">
        <ele>173.17115064292</ele>
        <time>2019-12-10T15:23:54Z</time>
      </trkpt>
      <trkpt lat="43.55139" lon="2.12219">
        <ele>172.03336337176</ele>
        <time>2019-12-10T15:24:00Z</time>
      </trkpt>
      <trkpt lat="43.55144" lon="2.1221">
        <ele>171.92289897522</ele>
        <time>2019-12-10T15:24:07Z</time>
      </trkpt>
      <trkpt lat="43.55148" lon="2.12199">
        <ele>171.56220304467</ele>
        <time>2019-12-10T15:24:13Z</time>
      </trkpt>
      <trkpt lat="43.55154" lon="2.12191">
        <ele>172.60888846987</ele>
        <time>2019-12-10T15:24:26Z</time>
      </trkpt>
      <trkpt lat="43.55161" lon="2.12185">
        <ele>171.17307377435</ele>
        <time>2019-12-10T15:24:35Z</time>
      </trkpt>
      <trkpt lat="43.55167" lon="2.12177">
        <ele>171.43996414794</ele>
        <time>2019-12-10T15:24:43Z</time>
      </trkpt>
      <trkpt lat="43.55175" lon="2.12171">
        <ele>173.20817777242</ele>
        <time>2019-12-10T15:24:52Z</time>
      </trkpt>
      <trkpt lat="43.55179" lon="2.12161">
        <ele>173.89072156536</ele>
        <time>2019-12-10T15:24:59Z</time>
      </trkpt>
      <trkpt lat="43.55188" lon="2.12147">
        <ele>174.74816729318</ele>
        <time>2019-12-10T15:25:04Z</time>
      </trkpt>
      <trkpt lat="43.55192" lon="2.12137">
        <ele>174.46688413946</ele>
        <time>2019-12-10T15:25:10Z</time>
      </trkpt>
      <trkpt lat="43.55196" lon="2.12126">
        <ele>173.37837672832</ele>
        <time>2019-12-10T15:25:22Z</time>
      </trkpt>
      <trkpt lat="43.55201" lon="2.12116">
        <ele>173.28513246579</ele>
        <time>2019-12-10T15:25:31Z</time>
      </trkpt>
      <trkpt lat="43.55207" lon="2.12107">
        <ele>171.22608965703</ele>
        <time>2019-12-10T15:25:38Z</time>
      </trkpt>
      <trkpt lat="43.55212" lon="2.12098">
        <ele>170.31793255858</ele>
        <time>2019-12-10T15:25:48Z</time>
      </trkpt>
      <trkpt lat="43.55219" lon="2.12091">
        <ele>171.61915241138</ele>
        <time>2019-12-10T15:25:58Z</time>
      </trkpt>
      <trkpt lat="43.55225" lon="2.12082">
        <ele>173.51816839733</ele>
        <time>2019-12-10T15:26:08Z</time>
      </trkpt>
      <trkpt lat="43.55231" lon="2.12075">
        <ele>174.40016023436</ele>
        <time>2019-12-10T15:26:16Z</time>
      </trkpt>
      <trkpt lat="43.55237" lon="2.12067">
        <ele>174.5814368103</ele>
        <time>2019-12-10T15:26:23Z</time>
      </trkpt>
      <trkpt lat="43.55244" lon="2.1206">
        <ele>175.26044921922</ele>
        <time>2019-12-10T15:26:31Z</time>
      </trkpt>
      <trkpt lat="43.5525" lon="2.12051">
        <ele>176.76993907291</ele>
        <time>2019-12-10T15:26:39Z</time>
      </trkpt>
      <trkpt lat="43.55254" lon="2.12042">
        <ele>177.07736501214</ele>
        <time>2019-12-10T15:26:46Z</time>
      </trkpt>
      <trkpt lat="43.55257" lon="2.12031">
        <ele>176.35199547384</ele>
        <time>2019-12-10T15:26:52Z</time>
      </trkpt>
      <trkpt lat="43.55261" lon="2.1202">
        <ele>176.61208113078</ele>
        <time>2019-12-10T15:27:01Z</time>
      </trkpt>
      <trkpt lat="43.55269" lon="2.12015">
        <ele>178.78211021465</ele>
        <time>2019-12-10T15:27:09Z</time>
      </trkpt>
      <trkpt lat="43.55273" lon="2.12006">
        <ele>180.17193096149</ele>
        <time>2019-12-10T15:27:15Z</time>
      </trkpt>
      <trkpt lat="43.55277" lon="2.11997">
        <ele>181.83047107335</ele>
        <time>2019-12-10T15:27:22Z</time>
      </trkpt>
      <trkpt lat="43.55277" lon="2.11984">
        <ele>181.97000656468</ele>
        <time>2019-12-10T15:27:28Z</time>
      </trkpt>
      <trkpt lat="43.55281" lon="2.11973">
        <ele>182.93884605489</ele>
        <time>2019-12-10T15:27:36Z</time>
      </trkpt>
      <trkpt lat="43.55283" lon="2.11962">
        <ele>184.43750411552</ele>
        <time>2019-12-10T15:27:44Z</time>
      </trkpt>
      <trkpt lat="43.55285" lon="2.1195">
        <ele>183.43643662253</ele>
        <time>2019-12-10T15:27:52Z</time>
      </trkpt>
      <trkpt lat="43.55289" lon="2.1194">
        <ele>183.20438569418</ele>
        <time>2019-12-10T15:28:00Z</time>
      </trkpt>
      <trkpt lat="43.55292" lon="2.11931">
        <ele>184.61251941605</ele>
        <time>2019-12-10T15:28:07Z</time>
      </trkpt>
      <trkpt lat="43.55297" lon="2.1192">
        <ele>183.54697004851</ele>
        <time>2019-12-10T15:28:13Z</time>
      </trkpt>
      <trkpt lat="43.55304" lon="2.11924">
        <ele>181.36239937214</ele>
        <time>2019-12-10T15:28:19Z</time>
      </trkpt>
      <trkpt lat="43.55312" lon="2.1193">
        <ele>180.1754479864</ele>
        <time>2019-12-10T15:28:26Z</time>
      </trkpt>
      <trkpt lat="43.55319" lon="2.11937">
        <ele>177.34921003744</ele>
        <time>2019-12-10T15:28:33Z</time>
      </trkpt>
      <trkpt lat="43.55326" lon="2.11942">
        <ele>175.73919351362</ele>
        <time>2019-12-10T15:28:38Z</time>
      </trkpt>
      <trkpt lat="43.55333" lon="2.11948">
        <ele>175.29160851269</ele>
        <time>2019-12-10T15:28:44Z</time>
      </trkpt>
      <trkpt lat="43.55339" lon="2.11958">
        <ele>174.99626905783</ele>
        <time>2019-12-10T15:28:54Z</time>
      </trkpt>
      <trkpt lat="43.55344" lon="2.11968">
        <ele>172.53010923403</ele>
        <time>2019-12-10T15:29:04Z</time>
      </trkpt>
      <trkpt lat="43.55351" lon="2.11976">
        <ele>170.07747987328</ele>
        <time>2019-12-10T15:29:13Z</time>
      </trkpt>
      <trkpt lat="43.55358" lon="2.11977">
        <ele>171.34555356942</ele>
        <time>2019-12-10T15:29:25Z</time>
      </trkpt>
      <trkpt lat="43.55366" lon="2.11972">
        <ele>171.4517760237</ele>
        <time>2019-12-10T15:29:33Z</time>
      </trkpt>
      <trkpt lat="43.55373" lon="2.11964">
        <ele>171.78032927497</ele>
        <time>2019-12-10T15:29:41Z</time>
      </trkpt>
      <trkpt lat="43.55377" lon="2.11954">
        <ele>171.42581648402</ele>
        <time>2019-12-10T15:29:47Z</time>
      </trkpt>
      <trkpt lat="43.55379" lon="2.11944">
        <ele>171.92943956555</ele>
        <time>2019-12-10T15:29:54Z</time>
      </trkpt>
      <trkpt lat="43.55382" lon="2.11932">
        <ele>172.43728138204</ele>
        <time>2019-12-10T15:30:02Z</time>
      </trkpt>
      <trkpt lat="43.55388" lon="2.11923">
        <ele>170.61871997281</ele>
        <time>2019-12-10T15:30:13Z</time>
      </trkpt>
      <trkpt lat="43.55392" lon="2.11913">
        <ele>170.64817271631</ele>
        <time>2019-12-10T15:30:21Z</time>
      </trkpt>
      <trkpt lat="43.554" lon="2.11908">
        <ele>172.44000044975</ele>
        <time>2019-12-10T15:30:32Z</time>
      </trkpt>
      <trkpt lat="43.55408" lon="2.11909">
        <ele>171.76926174345</ele>
        <time>2019-12-10T15:30:40Z</time>
      </trkpt>
      <trkpt lat="43.55417" lon="2.1191">
        <ele>169.83753239267</ele>
        <time>2019-12-10T15:30:49Z</time>
      </trkpt>
      <trkpt lat="43.55424" lon="2.11908">
        <ele>169.39374292</ele>
        <time>2019-12-10T15:30:56Z</time>
      </trkpt>
      <trkpt lat="43.55431" lon="2.11902">
        <ele>171.75655443648</ele>
        <time>2019-12-10T15:31:10Z</time>
      </trkpt>
      <trkpt lat="43.55438" lon="2.11895">
        <ele>171.29163005037</ele>
        <time>2019-12-10T15:31:18Z</time>
      </trkpt>
      <trkpt lat="43.55444" lon="2.11887">
        <ele>170.75361360937</ele>
        <time>2019-12-10T15:31:26Z</time>
      </trkpt>
      <trkpt lat="43.55452" lon="2.11881">
        <ele>169.04811379538</ele>
        <time>2019-12-10T15:31:41Z</time>
      </trkpt>
      <trkpt lat="43.5546" lon="2.11875">
        <ele>168.62100026536</ele>
        <time>2019-12-10T15:31:56Z</time>
      </trkpt>
      <trkpt lat="43.55468" lon="2.11873">
        <ele>168.31932582295</ele>
        <time>2019-12-10T15:32:00Z</time>
      </trkpt>
      <trkpt lat="43.55473" lon="2.11864">
        <ele>169.73604470849</ele>
        <time>2019-12-10T15:32:13Z</time>
      </trkpt>
      <trkpt lat="43.55475" lon="2.11852">
        <ele>168.12671326329</ele>
        <time>2019-12-10T15:32:23Z</time>
      </trkpt>
      <trkpt lat="43.55471" lon="2.11841">
        <ele>164.57355533837</ele>
        <time>2019-12-10T15:32:32Z</time>
      </trkpt>
      <trkpt lat="43.55469" lon="2.11829">
        <ele>163.01313463561</ele>
        <time>2019-12-10T15:32:38Z</time>
      </trkpt>
      <trkpt lat="43.55469" lon="2.11817">
        <ele>162.06535816938</ele>
        <time>2019-12-10T15:32:44Z</time>
      </trkpt>
      <trkpt lat="43.55461" lon="2.11812">
        <ele>165.87773864263</ele>
        <time>2019-12-10T15:32:53Z</time>
      </trkpt>
      <trkpt lat="43.55453" lon="2.11806">
        <ele>166.67013763656</ele>
        <time>2019-12-10T15:33:02Z</time>
      </trkpt>
      <trkpt lat="43.5545" lon="2.11796">
        <ele>167.76802562082</ele>
        <time>2019-12-10T15:33:08Z</time>
      </trkpt>
      <trkpt lat="43.55444" lon="2.11787">
        <ele>167.47129418724</ele>
        <time>2019-12-10T15:33:14Z</time>
      </trkpt>
      <trkpt lat="43.55436" lon="2.11784">
        <ele>166.64033294953</ele>
        <time>2019-12-10T15:33:21Z</time>
      </trkpt>
      <trkpt lat="43.55431" lon="2.11775">
        <ele>168.75038001483</ele>
        <time>2019-12-10T15:33:28Z</time>
      </trkpt>
      <trkpt lat="43.55424" lon="2.11768">
        <ele>172.0243729024</ele>
        <time>2019-12-10T15:33:36Z</time>
      </trkpt>
      <trkpt lat="43.55418" lon="2.11761">
        <ele>174.76842984382</ele>
        <time>2019-12-10T15:33:43Z</time>
      </trkpt>
      <trkpt lat="43.5541" lon="2.11758">
        <ele>175.55741039282</ele>
        <time>2019-12-10T15:33:49Z</time>
      </trkpt>
      <trkpt lat="43.55402" lon="2.11752">
        <ele>175.33019673356</ele>
        <time>2019-12-10T15:33:57Z</time>
      </trkpt>
      <trkpt lat="43.55397" lon="2.11742">
        <ele>175.15478878474</ele>
        <time>2019-12-10T15:34:05Z</time>
      </trkpt>
      <trkpt lat="43.55391" lon="2.11735">
        <ele>177.59545648739</ele>
        <time>2019-12-10T15:34:11Z</time>
      </trkpt>
      <trkpt lat="43.55389" lon="2.11723">
        <ele>177.43218162246</ele>
        <time>2019-12-10T15:34:18Z</time>
      </trkpt>
      <trkpt lat="43.55386" lon="2.11712">
        <ele>174.24343447721</ele>
        <time>2019-12-10T15:34:26Z</time>
      </trkpt>
      <trkpt lat="43.55386" lon="2.117">
        <ele>170.50500859277</ele>
        <time>2019-12-10T15:34:34Z</time>
      </trkpt>
      <trkpt lat="43.55387" lon="2.11689">
        <ele>171.38384686598</ele>
        <time>2019-12-10T15:34:44Z</time>
      </trkpt>
      <trkpt lat="43.55385" lon="2.11678">
        <ele>172.51263485151</ele>
        <time>2019-12-10T15:34:57Z</time>
      </trkpt>
      <trkpt lat="43.55385" lon="2.11667">
        <ele>174.11893990073</ele>
        <time>2019-12-10T15:35:03Z</time>
      </trkpt>
      <trkpt lat="43.55387" lon="2.11656">
        <ele>173.59254238062</ele>
        <time>2019-12-10T15:35:14Z</time>
      </trkpt>
      <trkpt lat="43.55386" lon="2.11644">
        <ele>170.95579573528</ele>
        <time>2019-12-10T15:35:22Z</time>
      </trkpt>
      <trkpt lat="43.55384" lon="2.11632">
        <ele>169.12717261592</ele>
        <time>2019-12-10T15:35:29Z</time>
      </trkpt>
      <trkpt lat="43.55385" lon="2.1162">
        <ele>168.68072484962</ele>
        <time>2019-12-10T15:35:38Z</time>
      </trkpt>
      <trkpt lat="43.55386" lon="2.1161">
        <ele>168.67478921041</ele>
        <time>2019-12-10T15:35:44Z</time>
      </trkpt>
      <trkpt lat="43.55387" lon="2.11599">
        <ele>169.00156134622</ele>
        <time>2019-12-10T15:35:49Z</time>
      </trkpt>
      <trkpt lat="43.55389" lon="2.11588">
        <ele>170.49854453303</ele>
        <time>2019-12-10T15:35:56Z</time>
      </trkpt>
      <trkpt lat="43.55392" lon="2.11578">
        <ele>170.52245458531</ele>
        <time>2019-12-10T15:36:04Z</time>
      </trkpt>
      <trkpt lat="43.5539" lon="2.11566">
        <ele>167.08628614512</ele>
        <time>2019-12-10T15:36:17Z</time>
      </trkpt>
      <trkpt lat="43.55393" lon="2.11555">
        <ele>165.19909423278</ele>
        <time>2019-12-10T15:36:33Z</time>
      </trkpt>
      <trkpt lat="43.55395" lon="2.11543">
        <ele>167.87755458212</ele>
        <time>2019-12-10T15:36:38Z</time>
      </trkpt>
      <trkpt lat="43.55403" lon="2.11539">
        <ele>171.0110482245</ele>
        <time>2019-12-10T15:36:53Z</time>
      </trkpt>
      <trkpt lat="43.55409" lon="2.11532">
        <ele>173.3437109287</ele>
        <time>2019-12-10T15:37:01Z</time>
      </trkpt>
      <trkpt lat="43.55416" lon="2.11525">
        <ele>173.53340018021</ele>
        <time>2019-12-10T15:37:07Z</time>
      </trkpt>
      <trkpt lat="43.55421" lon="2.11516">
        <ele>171.35271004351</ele>
        <time>2019-12-10T15:37:12Z</time>
      </trkpt>
      <trkpt lat="43.55424" lon="2.11504">
        <ele>168.87960672582</ele>
        <time>2019-12-10T15:37:20Z</time>
      </trkpt>
      <trkpt lat="43.55429" lon="2.11494">
        <ele>167.94890406999</ele>
        <time>2019-12-10T15:37:40Z</time>
      </trkpt>
      <trkpt lat="43.55429" lon="2.11494">
        <ele>167.81300786267</ele>
        <time>2019-12-10T15:37:41Z</time>
      </trkpt>
      <trkpt lat="43.55429" lon="2.11494">
        <ele>167.81300786267</ele>
        <time>2019-12-10T15:37:41Z</time>
      </trkpt>
    </trkseg>
  </trk>
</gpx>